Provisional Data: Catatonk Creek near Spencer, NY


Please select a monitoring station.
Please select start date.
Please select start date.

Toggle Unit: C/F Toggle Unit: C/F
Sample Time Temperature (C) Temperature (F) Specific Conductivity (mS/cm) pH   Turbidity (NTU+) DO (mg/L)
3/23/2021 12:00:00 AM 6.48 43.664 0.175 7.56 5.8 11.15
3/23/2021 12:15:00 AM 6.33 43.394 0.174 7.55 5.48 11.2
3/23/2021 12:30:00 AM 6.19 43.142 0.174 7.55 5.46 11.22
3/23/2021 12:45:00 AM 6.05 42.89 0.173 7.55 5.36 11.26
3/23/2021 1:00:00 AM 5.91 42.638 0.172 7.55 5.8 11.31
3/23/2021 1:15:00 AM 5.78 42.404 0.172 7.55 5.73 11.34
3/23/2021 1:30:00 AM 5.65 42.17 0.172 7.55 5.88 11.37
3/23/2021 1:45:00 AM 5.52 41.936 0.172 7.54 5.6 11.41
3/23/2021 2:00:00 AM 5.4 41.72 0.171 7.55 5.88 11.44
3/23/2021 2:15:00 AM 5.28 41.504 0.172 7.54 5.84 11.47
3/23/2021 2:30:00 AM 5.16 41.288 0.171 7.55 6.02 11.5
3/23/2021 2:45:00 AM 5.05 41.09 0.171 7.55 6.52 11.54
3/23/2021 3:00:00 AM 4.94 40.892 0.171 7.54 5.98 11.56
3/23/2021 3:15:00 AM 4.84 40.712 0.171 7.54 6.06 11.59
3/23/2021 3:30:00 AM 4.74 40.532 0.171 7.55 6.43 11.63
3/23/2021 3:45:00 AM 4.65 40.37 0.171 7.55 6.14 11.65
3/23/2021 4:00:00 AM 4.57 40.226 0.172 7.55 6.25 11.66
3/23/2021 4:15:00 AM 4.49 40.082 0.171 7.55 6.88 11.69
3/23/2021 4:30:00 AM 4.41 39.938 0.171 7.55 7.02 11.71
3/23/2021 4:45:00 AM 4.34 39.812 0.172 7.54 7.01 11.73
3/23/2021 5:00:00 AM 4.28 39.704 0.172 7.55 6.09 11.74
3/23/2021 5:15:00 AM 4.2 39.56 0.172 7.55 5.79 11.77
3/23/2021 5:30:00 AM 4.13 39.434 0.171 7.55 5.87 11.8
3/23/2021 5:45:00 AM 4.07 39.326 0.171 7.55 5.98 11.81
3/23/2021 6:00:00 AM 4 39.2 0.172 7.55 5.8 11.83
3/23/2021 6:15:00 AM 3.94 39.092 0.171 7.55 6.5 11.85
3/23/2021 6:30:00 AM 3.88 38.984 0.171 7.55 6.24 11.87
3/23/2021 6:45:00 AM 3.81 38.858 0.171 7.55 6.47 11.88
3/23/2021 7:00:00 AM 3.74 38.732 0.171 7.55 6.88 11.9
3/23/2021 7:15:00 AM 3.68 38.624 0.172 7.55 6.73 11.92
3/23/2021 7:30:00 AM 3.63 38.534 0.171 7.55 6.47 11.96
3/23/2021 7:45:00 AM 3.58 38.444 0.173 7.55 6.45 11.98
3/23/2021 8:00:00 AM 3.54 38.372 0.173 7.56 6.33 12.02
3/23/2021 8:15:00 AM 3.5 38.3 0.173 7.56 6.39 12.07
3/23/2021 8:30:00 AM 3.47 38.246 0.173 7.57 5.88 12.14
3/23/2021 8:45:00 AM 3.47 38.246 0.174 7.57 5.72 12.21
3/23/2021 9:00:00 AM 3.47 38.246 0.174 7.58 6.21 12.27
3/23/2021 9:15:00 AM 3.49 38.282 0.174 7.59 5.69 12.33
3/23/2021 9:30:00 AM 3.52 38.336 0.174 7.6 5.35 12.41
3/23/2021 9:45:00 AM 3.58 38.444 0.175 7.61 5.42 12.48
3/23/2021 10:00:00 AM 3.65 38.57 0.175 7.62 5.56 12.56
3/23/2021 10:15:00 AM 3.75 38.75 0.176 7.63 5.31 12.62
3/23/2021 10:30:00 AM 3.86 38.948 0.177 7.64 5.06 12.69
3/23/2021 10:45:00 AM 3.99 39.182 0.177 7.65 5.27 12.76
3/23/2021 11:00:00 AM 4.16 39.488 0.178 7.67 5.35 12.82
3/23/2021 11:15:00 AM 4.34 39.812 0.178 7.68 5.43 12.86
3/23/2021 11:30:00 AM 4.53 40.154 0.179 7.69 4.82 12.9
3/23/2021 11:45:00 AM 4.73 40.514 0.179 7.7 4.78 12.93
3/23/2021 12:00:00 PM 4.94 40.892 0.18 7.71 4.92 12.95
3/23/2021 12:15:00 PM 5.15 41.27 0.18 7.72 4.77 12.97
3/23/2021 12:30:00 PM 5.37 41.666 0.179 7.72 5.01 12.96
3/23/2021 12:45:00 PM 5.59 42.062 0.181 7.73 4.7 12.97
3/23/2021 1:00:00 PM 5.81 42.458 0.18 7.74 5.32 12.99
3/23/2021 1:15:00 PM 6.04 42.872 0.181 7.74 4.4 12.97
3/23/2021 1:30:00 PM 6.26 43.268 0.181 7.76 4.61 12.98
3/23/2021 1:45:00 PM 6.47 43.646 0.182 7.76 4.5 12.97
3/23/2021 2:00:00 PM 6.67 44.006 0.182 7.77 4.52 12.95
3/23/2021 2:15:00 PM 6.88 44.384 0.183 7.78 4.36 12.92
3/23/2021 2:30:00 PM 7.07 44.726 0.183 7.78 4.26 12.9
3/23/2021 2:45:00 PM 7.25 45.05 0.183 7.79 4.73 12.87
3/23/2021 3:00:00 PM 7.4 45.32 0.183 7.8 4.25 12.84
3/23/2021 3:15:00 PM 7.56 45.608 0.183 7.8 4.37 12.8
3/23/2021 3:30:00 PM 7.7 45.86 0.184 7.81 4.45 12.76
3/23/2021 3:45:00 PM 7.84 46.112 0.184 7.81 4.3 12.72
3/23/2021 4:00:00 PM 7.94 46.292 0.183 7.81 4.27 12.66
3/23/2021 4:15:00 PM 8.06 46.508 0.183 7.82 4.38 12.62
3/23/2021 4:30:00 PM 8.15 46.67 0.183 7.82 4.2 12.57
3/23/2021 4:45:00 PM 8.24 46.832 0.183 7.82 4.26 12.52
3/23/2021 5:00:00 PM 8.3 46.94 0.183 7.82 4.19 12.48
3/23/2021 5:15:00 PM 8.35 47.03 0.183 7.82 4.34 12.4
3/23/2021 5:30:00 PM 8.4 47.12 0.183 7.82 4.26 12.34
3/23/2021 5:45:00 PM 8.43 47.174 0.183 7.81 4.1 12.26
3/23/2021 6:00:00 PM 8.46 47.228 0.183 7.81 4.32 12.17
3/23/2021 6:15:00 PM 8.48 47.264 0.184 7.8 4.47 12.07
3/23/2021 6:30:00 PM 8.5 47.3 0.184 7.78 4.65 11.98
3/23/2021 6:45:00 PM 8.53 47.354 0.185 7.78 4.59 11.9
3/23/2021 7:00:00 PM 8.52 47.336 0.185 7.76 4.79 11.79
3/23/2021 7:15:00 PM 8.52 47.336 0.185 7.75 4.39 11.68
3/23/2021 7:30:00 PM 8.5 47.3 0.186 7.74 4.25 11.6
3/23/2021 7:45:00 PM 8.47 47.246 0.185 7.72 4.55 11.51
3/23/2021 8:00:00 PM 8.44 47.192 0.186 7.71 4.83 11.42
3/23/2021 8:15:00 PM 8.39 47.102 0.185 7.7 4.85 11.33
3/23/2021 8:30:00 PM 8.34 47.012 0.185 7.68 4.61 11.25
3/23/2021 8:45:00 PM 8.29 46.922 0.184 7.67 4.75 11.18
3/23/2021 9:00:00 PM 8.23 46.814 0.184 7.66 4.54 11.13
3/23/2021 9:15:00 PM 8.17 46.706 0.184 7.65 4.82 11.08
3/23/2021 9:30:00 PM 8.11 46.598 0.182 7.64 5.84 11.03
3/23/2021 9:45:00 PM 8.05 46.49 0.182 7.63 5.22 10.99
3/23/2021 10:00:00 PM 7.96 46.328 0.182 7.62 5.35 10.95
3/23/2021 10:15:00 PM 7.88 46.184 0.181 7.61 5.5 10.93
3/23/2021 10:30:00 PM 7.79 46.022 0.179 7.6 5.16 10.91
3/23/2021 10:45:00 PM 7.69 45.842 0.179 7.6 5.09 10.9
3/23/2021 11:00:00 PM 7.6 45.68 0.179 7.59 4.98 10.9
3/23/2021 11:15:00 PM 7.49 45.482 0.178 7.58 4.97 10.91
3/23/2021 11:30:00 PM 7.39 45.302 0.178 7.58 5.28 10.91
3/23/2021 11:45:00 PM 7.28 45.104 0.177 7.57 5.27 10.92
3/24/2021 12:00:00 AM 7.16 44.888 0.176 7.57 5.41 10.95
3/24/2021 12:15:00 AM 7.06 44.708 0.177 7.57 5.44 10.96
3/24/2021 12:30:00 AM 6.94 44.492 0.176 7.57 5.26 10.99
3/24/2021 12:45:00 AM 6.84 44.312 0.176 7.56 5.71 11
3/24/2021 1:00:00 AM 6.73 44.114 0.176 7.56 5.8 11.01
3/24/2021 1:15:00 AM 6.62 43.916 0.177 7.56 5.36 11.04
3/24/2021 1:30:00 AM 6.52 43.736 0.176 7.56 5.53 11.06
3/24/2021 1:45:00 AM 6.42 43.556 0.176 7.55 5.57 11.08
3/24/2021 2:00:00 AM 6.33 43.394 0.175 7.55 5.34 11.1
3/24/2021 2:15:00 AM 6.25 43.25 0.176 7.55 5.21 11.12
3/24/2021 2:30:00 AM 6.17 43.106 0.175 7.55 5.25 11.14
3/24/2021 2:45:00 AM 6.1 42.98 0.175 7.55 5.36 11.16
3/24/2021 3:00:00 AM 6.03 42.854 0.174 7.54 5.61 11.17
3/24/2021 3:15:00 AM 5.96 42.728 0.174 7.54 5.3 11.19
3/24/2021 3:30:00 AM 5.9 42.62 0.173 7.54 5.68 11.21
3/24/2021 3:45:00 AM 5.83 42.494 0.172 7.54 5.69 11.23
3/24/2021 4:00:00 AM 5.78 42.404 0.172 7.53 5.79 11.23
3/24/2021 4:15:00 AM 5.74 42.332 0.172 7.53 5.39 11.24
3/24/2021 4:30:00 AM 5.7 42.26 0.171 7.53 5.85 11.25
3/24/2021 4:45:00 AM 5.67 42.206 0.17 7.53 5.44 11.27
3/24/2021 5:00:00 AM 5.66 42.188 0.17 7.53 5.62 11.27
3/24/2021 5:15:00 AM 5.64 42.152 0.17 7.53 5.59 11.27
3/24/2021 5:30:00 AM 5.62 42.116 0.17 7.53 5.65 11.28
3/24/2021 5:45:00 AM 5.61 42.098 0.17 7.53 6.91 11.28
3/24/2021 6:00:00 AM 5.6 42.08 0.17 7.53 5.7 11.28
3/24/2021 6:15:00 AM 5.59 42.062 0.171 7.53 5.32 11.29
3/24/2021 6:30:00 AM 5.58 42.044 0.171 7.53 5.91 11.29
3/24/2021 6:45:00 AM 5.58 42.044 0.171 7.53 5.5 11.28
3/24/2021 7:00:00 AM 5.58 42.044 0.171 7.53 5.88 11.29
3/24/2021 7:15:00 AM 5.58 42.044 0.171 7.53 5.88 11.3
3/24/2021 7:30:00 AM 5.59 42.062 0.172 7.53 5.22 11.3
3/24/2021 7:45:00 AM 5.6 42.08 0.172 7.53 5.19 11.31
3/24/2021 8:00:00 AM 5.61 42.098 0.173 7.53 5.61 11.31
3/24/2021 8:15:00 AM 5.61 42.098 0.173 7.54 5.14 11.33
3/24/2021 8:30:00 AM 5.62 42.116 0.173 7.54 5.53 11.34
3/24/2021 8:45:00 AM 5.63 42.134 0.174 7.54 5.16 11.36
3/24/2021 9:00:00 AM 5.64 42.152 0.175 7.55 5.12 11.38
3/24/2021 9:15:00 AM 5.66 42.188 0.176 7.55 5.46 11.42
3/24/2021 9:30:00 AM 5.68 42.224 0.177 7.56 5.23 11.45
3/24/2021 9:45:00 AM 5.71 42.278 0.178 7.57 4.88 11.5
3/24/2021 10:00:00 AM 5.74 42.332 0.179 7.57 5.1 11.54
3/24/2021 10:15:00 AM 5.77 42.386 0.18 7.58 5.36 11.58
3/24/2021 10:30:00 AM 5.81 42.458 0.181 7.59 5.58 11.64
3/24/2021 10:45:00 AM 5.85 42.53 0.181 7.6 5.21 11.67
3/24/2021 11:00:00 AM 5.88 42.584 0.18 7.61 5.69 11.73
3/24/2021 11:15:00 AM 5.93 42.674 0.181 7.61 5.32 11.77
3/24/2021 11:30:00 AM 5.96 42.728 0.18 7.62 5.74 11.81
3/24/2021 11:45:00 AM 5.98 42.764 0.179 7.63 5.26 11.87
3/24/2021 12:00:00 PM 6.02 42.836 0.178 7.63 5.1 11.89
3/24/2021 12:15:00 PM 6.06 42.908 0.179 7.64 5.86 11.92
3/24/2021 12:30:00 PM 6.11 42.998 0.179 7.65 5.86 11.95
3/24/2021 12:45:00 PM 6.15 43.07 0.179 7.65 6.07 11.99
3/24/2021 1:00:00 PM 6.2 43.16 0.178 7.66 5.98 12
3/24/2021 1:15:00 PM 6.26 43.268 0.178 7.67 6.21 12.05
3/24/2021 1:30:00 PM 6.29 43.322 0.177 7.67 5.45 12.07
3/24/2021 1:45:00 PM 6.34 43.412 0.176 7.68 5.98 12.1
3/24/2021 2:00:00 PM 6.39 43.502 0.175 7.68 5.89 12.12
3/24/2021 2:15:00 PM 6.43 43.574 0.175 7.68 6.01 12.12
3/24/2021 2:30:00 PM 6.5 43.7 0.176 7.69 5.97 12.16
3/24/2021 2:45:00 PM 6.56 43.808 0.173 7.69 5.42 12.19
3/24/2021 3:00:00 PM 6.62 43.916 0.173 7.7 5.76 12.22
3/24/2021 3:15:00 PM 6.68 44.024 0.172 7.7 5.72 12.24
3/24/2021 3:30:00 PM 6.73 44.114 0.172 7.71 6.14 12.26
3/24/2021 3:45:00 PM 6.77 44.186 0.173 7.71 5.62 12.26
3/24/2021 4:00:00 PM 6.8 44.24 0.171 7.71 5.76 12.28
3/24/2021 4:15:00 PM 6.83 44.294 0.17 7.71 5.97 12.29
3/24/2021 4:30:00 PM 6.85 44.33 0.167 7.71 6.02 12.28
3/24/2021 4:45:00 PM 6.89 44.402 0.167 7.71 6.79 12.27
3/24/2021 5:00:00 PM 6.9 44.42 0.163 7.71 7.01 12.25
3/24/2021 5:15:00 PM 6.91 44.438 0.16 7.7 7.5 12.21
3/24/2021 5:30:00 PM 6.9 44.42 0.158 7.69 8.2 12.16
3/24/2021 5:45:00 PM 6.89 44.402 0.155 7.67 8.5 12.13
3/24/2021 6:00:00 PM 6.88 44.384 0.153 7.66 9.13 12.07
3/24/2021 6:15:00 PM 6.87 44.366 0.151 7.65 9.23 12.03
3/24/2021 6:30:00 PM 6.85 44.33 0.148 7.63 10.45 11.99
3/24/2021 6:45:00 PM 6.83 44.294 0.146 7.62 10.38 11.94
3/24/2021 7:00:00 PM 6.81 44.258 0.144 7.6 10.86 11.88
3/24/2021 7:15:00 PM 6.79 44.222 0.142 7.59 11.09 11.83
3/24/2021 7:30:00 PM 6.76 44.168 0.14 7.57 11.7 11.78
3/24/2021 7:45:00 PM 6.75 44.15 0.139 7.56 10.95 11.74
3/24/2021 8:00:00 PM 6.72 44.096 0.139 7.55 11.66 11.7
3/24/2021 8:15:00 PM 6.7 44.06 0.137 7.53 11.33 11.66
3/24/2021 8:30:00 PM 6.68 44.024 0.136 7.52 11.84 11.63
3/24/2021 8:45:00 PM 6.68 44.024 0.136 7.52 11.38 11.58
3/24/2021 9:00:00 PM 6.68 44.024 0.136 7.51 11.33 11.53
3/24/2021 9:15:00 PM 6.67 44.006 0.136 7.5 10.96 11.51
3/24/2021 9:30:00 PM 6.67 44.006 0.136 7.5 11.2 11.47
3/24/2021 9:45:00 PM 6.68 44.024 0.138 7.5 12.28 11.44
3/24/2021 10:00:00 PM 6.68 44.024 0.138 7.49 10.52 11.41
3/24/2021 10:15:00 PM 6.68 44.024 0.14 7.49 10.79 11.38
3/24/2021 10:30:00 PM 6.68 44.024 0.14 7.49 10.56 11.36
3/24/2021 10:45:00 PM 6.68 44.024 0.14 7.48 9.82 11.35
3/24/2021 11:00:00 PM 6.68 44.024 0.141 7.48 11.07 11.31
3/24/2021 11:15:00 PM 6.69 44.042 0.143 7.48 9.9 11.29
3/24/2021 11:30:00 PM 6.69 44.042 0.144 7.47 10.13 11.26
3/24/2021 11:45:00 PM 6.69 44.042 0.145 7.47 10.92 11.25
3/25/2021 12:00:00 AM 6.7 44.06 0.145 7.47 9.79 11.23
3/25/2021 12:15:00 AM 6.7 44.06 0.146 7.47 10.62 11.22
3/25/2021 12:30:00 AM 6.7 44.06 0.146 7.47 10.02 11.21
3/25/2021 12:45:00 AM 6.69 44.042 0.146 7.47 9.16 11.2
3/25/2021 1:00:00 AM 6.69 44.042 0.147 7.47 9.88 11.19
3/25/2021 1:15:00 AM 6.67 44.006 0.146 7.47 9.53 11.19
3/25/2021 1:30:00 AM 6.67 44.006 0.147 7.46 10.04 11.18
3/25/2021 1:45:00 AM 6.67 44.006 0.147 7.46 9.57 11.17
3/25/2021 2:00:00 AM 6.68 44.024 0.149 7.46 9.62 11.16
3/25/2021 2:15:00 AM 6.68 44.024 0.15 7.46 9.55 11.15
3/25/2021 2:30:00 AM 6.67 44.006 0.15 7.46 9.34 11.15
3/25/2021 2:45:00 AM 6.67 44.006 0.15 7.46 9.36 11.13
3/25/2021 3:00:00 AM 6.66 43.988 0.15 7.46 9.91 11.13
3/25/2021 3:15:00 AM 6.66 43.988 0.149 7.46 8.09 11.13
3/25/2021 3:30:00 AM 6.67 44.006 0.153 7.46 8.77 11.12
3/25/2021 3:45:00 AM 6.66 43.988 0.151 7.46 8.59 11.12
3/25/2021 4:00:00 AM 6.65 43.97 0.151 7.46 8.87 11.1
3/25/2021 4:15:00 AM 6.66 43.988 0.151 7.46 8.78 11.1
3/25/2021 4:30:00 AM 6.65 43.97 0.15 7.46 9.02 11.1
3/25/2021 4:45:00 AM 6.65 43.97 0.15 7.46 8.49 11.09
3/25/2021 5:00:00 AM 6.65 43.97 0.15 7.46 8.46 11.08
3/25/2021 5:15:00 AM 6.64 43.952 0.15 7.46 8.46 11.09
3/25/2021 5:30:00 AM 6.64 43.952 0.15 7.46 7.6 11.08
3/25/2021 5:45:00 AM 6.64 43.952 0.151 7.46 8.28 11.07
3/25/2021 6:00:00 AM 6.63 43.934 0.154 7.46 8.72 11.07
3/25/2021 6:15:00 AM 6.63 43.934 0.156 7.46 7.73 11.08
3/25/2021 6:30:00 AM 6.61 43.898 0.152 7.46 8.25 11.07
3/25/2021 6:45:00 AM 6.61 43.898 0.153 7.46 7.83 11.06
3/25/2021 7:00:00 AM 6.6 43.88 0.153 7.46 8 11.06
3/25/2021 7:15:00 AM 6.6 43.88 0.153 7.46 8.14 11.07
3/25/2021 7:30:00 AM 6.59 43.862 0.153 7.46 8.13 11.08
3/25/2021 7:45:00 AM 6.6 43.88 0.154 7.46 7.8 11.08
3/25/2021 8:00:00 AM 6.61 43.898 0.154 7.47 7.45 11.12
3/25/2021 8:15:00 AM 6.62 43.916 0.154 7.47 7.5 11.12
3/25/2021 8:30:00 AM 6.64 43.952 0.156 7.48 6.94 11.19
3/25/2021 8:45:00 AM 6.67 44.006 0.156 7.49 6.85 11.24
3/25/2021 9:00:00 AM 6.7 44.06 0.158 7.5 6.84 11.27
3/25/2021 9:15:00 AM 6.75 44.15 0.155 7.51 7.32 11.34
3/25/2021 9:30:00 AM 6.81 44.258 0.157 7.53 7.02 11.41
3/25/2021 9:45:00 AM 6.86 44.348 0.157 7.54 7.18 11.48
3/25/2021 10:00:00 AM 6.97 44.546 0.158 7.55 6.12 11.57
3/25/2021 10:15:00 AM 7.05 44.69 0.158 7.57 6.17 11.63
3/25/2021 10:30:00 AM 7.12 44.816 0.158 7.58 6.22 11.7
3/25/2021 10:45:00 AM 7.25 45.05 0.16 7.59 6.41 11.73
3/25/2021 11:00:00 AM 7.45 45.41 0.159 7.61 6.13 11.83
3/25/2021 11:15:00 AM 7.61 45.698 0.16 7.62 6.15 11.88
3/25/2021 11:30:00 AM 7.74 45.932 0.16 7.64 5.6 11.95
3/25/2021 11:45:00 AM 7.89 46.202 0.161 7.65 6.01 11.97
3/25/2021 12:00:00 PM 8.11 46.598 0.161 7.66 6.07 12.02
3/25/2021 12:15:00 PM 8.32 46.976 0.16 7.68 6.14 12.04
3/25/2021 12:30:00 PM 8.54 47.372 0.16 7.69 6.15 12.08
3/25/2021 12:45:00 PM 8.77 47.786 0.161 7.71 5.66 12.1
3/25/2021 1:00:00 PM 8.98 48.164 0.16 7.72 5.73 12.11
3/25/2021 1:15:00 PM 9.2 48.56 0.161 7.73 5.66 12.13
3/25/2021 1:30:00 PM 9.4 48.92 0.161 7.74 5.72 12.13
3/25/2021 1:45:00 PM 9.6 49.28 0.161 7.75 5.4 12.12
3/25/2021 2:00:00 PM 9.79 49.622 0.162 7.76 8.33 12.1
3/25/2021 2:15:00 PM 9.96 49.928 0.162 7.77 6.18 12.09
3/25/2021 2:30:00 PM 10.14 50.252 0.163 7.78 5.78 12.06
3/25/2021 2:45:00 PM 10.33 50.594 0.162 7.79 5.65 12.04
3/25/2021 3:00:00 PM 10.54 50.972 0.162 7.8 5.5 12.01
3/25/2021 3:15:00 PM 10.7 51.26 0.162 7.81 5.41 11.99
3/25/2021 3:30:00 PM 10.87 51.566 0.163 7.82 5.54 11.97
3/25/2021 3:45:00 PM 11.01 51.818 0.163 7.83 5.97 11.92
3/25/2021 4:00:00 PM 11.11 51.998 0.164 7.83 5.54 11.88
3/25/2021 4:15:00 PM 11.21 52.178 0.163 7.84 5.26 11.84
3/25/2021 4:30:00 PM 11.28 52.304 0.164 7.83 6.83 11.75
3/25/2021 4:45:00 PM 11.36 52.448 0.164 7.84 5.56 11.72
3/25/2021 5:00:00 PM 11.43 52.574 0.165 7.84 4.93 11.64
3/25/2021 5:15:00 PM 11.49 52.682 0.164 7.84 5.77 11.58
3/25/2021 5:30:00 PM 11.53 52.754 0.166 7.83 6.02 11.51
3/25/2021 5:45:00 PM 11.55 52.79 0.165 7.82 5.4 11.41
3/25/2021 6:00:00 PM 11.56 52.808 0.166 7.8 5.53 11.32
3/25/2021 6:15:00 PM 11.55 52.79 0.167 7.79 5.08 11.24
3/25/2021 6:30:00 PM 11.55 52.79 0.167 7.78 5.42 11.14
3/25/2021 6:45:00 PM 11.53 52.754 0.167 7.76 5.58 11.03
3/25/2021 7:00:00 PM 11.52 52.736 0.167 7.74 5.9 10.92
3/25/2021 7:15:00 PM 11.49 52.682 0.167 7.72 5.13 10.81
3/25/2021 7:30:00 PM 11.46 52.628 0.166 7.7 6.2 10.71
3/25/2021 7:45:00 PM 11.42 52.556 0.167 7.69 6.39 10.6
3/25/2021 8:00:00 PM 11.38 52.484 0.166 7.67 5.74 10.51
3/25/2021 8:15:00 PM 11.33 52.394 0.166 7.65 5.93 10.42
3/25/2021 8:30:00 PM 11.28 52.304 0.165 7.63 6 10.33
3/25/2021 8:45:00 PM 11.24 52.232 0.166 7.62 6.05 10.27
3/25/2021 9:00:00 PM 11.19 52.142 0.165 7.6 6.12 10.2
3/25/2021 9:15:00 PM 11.14 52.052 0.166 7.59 6.22 10.14
3/25/2021 9:30:00 PM 11.09 51.962 0.167 7.58 6.9 10.09
3/25/2021 9:45:00 PM 11.02 51.836 0.167 7.57 6.21 10.06
3/25/2021 10:00:00 PM 10.96 51.728 0.167 7.56 6.2 10.03
3/25/2021 10:15:00 PM 10.9 51.62 0.168 7.56 5.85 9.99
3/25/2021 10:30:00 PM 10.85 51.53 0.168 7.56 6.44 9.98
3/25/2021 10:45:00 PM 10.77 51.386 0.169 7.55 6.33 9.97
3/25/2021 11:00:00 PM 10.7 51.26 0.17 7.55 5.92 9.96
3/25/2021 11:15:00 PM 10.63 51.134 0.171 7.55 6.03 9.94
3/25/2021 11:30:00 PM 10.57 51.026 0.171 7.55 5.77 9.95
3/25/2021 11:45:00 PM 10.51 50.918 0.172 7.54 5.88 9.92
3/26/2021 12:00:00 AM 10.45 50.81 0.173 7.54 5.95 9.93
3/26/2021 12:15:00 AM 10.4 50.72 0.172 7.54 5.62 9.93
3/26/2021 12:30:00 AM 10.35 50.63 0.173 7.54 5.64 9.93
3/26/2021 12:45:00 AM 10.3 50.54 0.173 7.54 5.79 9.93
3/26/2021 1:00:00 AM 10.26 50.468 0.173 7.54 5.91 9.91
3/26/2021 1:15:00 AM 10.21 50.378 0.174 7.53 5.86 9.92
3/26/2021 1:30:00 AM 10.18 50.324 0.173 7.53 6.98 9.92
3/26/2021 1:45:00 AM 10.14 50.252 0.174 7.53 6.65 9.91
3/26/2021 2:00:00 AM 10.1 50.18 0.174 7.53 5.67 9.91
3/26/2021 2:15:00 AM 10.07 50.126 0.174 7.52 5.84 9.9
3/26/2021 2:30:00 AM 10.04 50.072 0.174 7.52 5.74 9.9
3/26/2021 2:45:00 AM 10.02 50.036 0.174 7.52 6.34 9.91
3/26/2021 3:00:00 AM 9.99 49.982 0.175 7.52 5.8 9.9
3/26/2021 3:15:00 AM 9.97 49.946 0.174 7.52 6.27 9.9
3/26/2021 3:30:00 AM 9.95 49.91 0.174 7.52 6.22 9.89
3/26/2021 3:45:00 AM 9.93 49.874 0.176 7.52 5.77 9.9
3/26/2021 4:00:00 AM 9.91 49.838 0.175 7.52 6.53 9.89
3/26/2021 4:15:00 AM 9.9 49.82 0.176 7.52 6.04 9.88
3/26/2021 4:30:00 AM 9.89 49.802 0.177 7.52 5.72 9.88
3/26/2021 4:45:00 AM 9.88 49.784 0.177 7.52 6.21 9.87
3/26/2021 5:00:00 AM 9.86 49.748 0.177 7.52 6.31 9.88
3/26/2021 5:15:00 AM 9.84 49.712 0.178 7.52 5.89 9.87
3/26/2021 5:30:00 AM 9.81 49.658 0.179 7.52 5.64 9.87
3/26/2021 5:45:00 AM 9.78 49.604 0.179 7.52 6.2 9.87
3/26/2021 6:00:00 AM 9.75 49.55 0.18 7.52 5.94 9.87
3/26/2021 6:15:00 AM 9.73 49.514 0.181 7.52 5.81 9.85
3/26/2021 6:30:00 AM 9.71 49.478 0.181 7.53 7.37 9.85
3/26/2021 6:45:00 AM 9.71 49.478 0.182 7.53 6.13 9.84
3/26/2021 7:00:00 AM 9.69 49.442 0.181 7.53 5.77 9.85
3/26/2021 7:15:00 AM 9.69 49.442 0.181 7.53 5.73 9.86
3/26/2021 7:30:00 AM 9.68 49.424 0.182 7.53 6 9.87
3/26/2021 7:45:00 AM 9.68 49.424 0.182 7.53 5.84 9.86
3/26/2021 8:00:00 AM 9.69 49.442 0.182 7.54 5.44 9.9
3/26/2021 8:15:00 AM 9.7 49.46 0.185 7.54 5.69 9.94
3/26/2021 8:30:00 AM 9.71 49.478 0.183 7.55 5.53 9.99
3/26/2021 8:45:00 AM 9.75 49.55 0.183 7.56 5.79 10.07
3/26/2021 9:00:00 AM 9.81 49.658 0.185 7.57 5.54 10.14
3/26/2021 9:15:00 AM 9.87 49.766 0.186 7.58 5.38 10.21
3/26/2021 9:30:00 AM 9.96 49.928 0.185 7.59 5.17 10.31
3/26/2021 9:45:00 AM 10.06 50.108 0.186 7.61 5.33 10.39
3/26/2021 10:00:00 AM 10.14 50.252 0.186 7.62 6.59 10.46
3/26/2021 10:15:00 AM 10.25 50.45 0.187 7.63 5.37 10.54
3/26/2021 10:30:00 AM 10.4 50.72 0.186 7.65 5.21 10.65
3/26/2021 10:45:00 AM 10.54 50.972 0.185 7.67 6 10.75
3/26/2021 11:00:00 AM 10.67 51.206 0.186 7.69 5.64 10.82
3/26/2021 11:15:00 AM 10.86 51.548 0.185 7.71 5.89 10.91
3/26/2021 11:30:00 AM 10.99 51.782 0.185 7.72 5.7 10.95
3/26/2021 11:45:00 AM 11.11 51.998 0.185 7.74 5.26 11
3/26/2021 12:00:00 PM 11.18 52.124 0.185 7.75 5.58 11.03
3/26/2021 12:15:00 PM 11.3 52.34 0.185 7.76 5.47 11.08
3/26/2021 12:30:00 PM 11.37 52.466 0.185 7.77 5.22 11.09
3/26/2021 12:45:00 PM 11.41 52.538 0.185 7.78 5.16 11.08
3/26/2021 1:00:00 PM 11.43 52.574 0.185 7.78 5.05 11.06
3/26/2021 1:15:00 PM 11.45 52.61 0.185 7.79 5.07 11.06
3/26/2021 1:30:00 PM 11.55 52.79 0.186 7.8 5.32 11.09
3/26/2021 1:45:00 PM 11.56 52.808 0.186 7.8 5.08 11.07
3/26/2021 2:00:00 PM 11.63 52.934 0.186 7.82 5.25 11.09
3/26/2021 2:15:00 PM 11.66 52.988 0.187 7.82 4.78 11.1
3/26/2021 2:30:00 PM 11.65 52.97 0.187 7.83 4.96 11.09
3/26/2021 2:45:00 PM 11.65 52.97 0.187 7.84 5.02 11.09
3/26/2021 3:00:00 PM 11.66 52.988 0.187 7.84 5.34 11.11
3/26/2021 3:15:00 PM 11.68 53.024 0.187 7.85 5.13 11.13
3/26/2021 3:30:00 PM 11.73 53.114 0.187 7.86 4.99 11.13
3/26/2021 3:45:00 PM 11.73 53.114 0.188 7.87 4.99 11.1
3/26/2021 4:00:00 PM 11.72 53.096 0.188 7.86 4.97 11.03
3/26/2021 4:15:00 PM 11.7 53.06 0.188 7.85 4.84 10.98
3/26/2021 4:30:00 PM 11.63 52.934 0.188 7.84 4.93 10.9
3/26/2021 4:45:00 PM 11.58 52.844 0.187 7.83 5.11 10.85
3/26/2021 5:00:00 PM 11.54 52.772 0.188 7.82 4.86 10.82
3/26/2021 5:15:00 PM 11.5 52.7 0.186 7.82 4.71 10.76
3/26/2021 5:30:00 PM 11.47 52.646 0.186 7.8 4.95 10.71
3/26/2021 5:45:00 PM 11.43 52.574 0.186 7.79 5.31 10.67
3/26/2021 6:00:00 PM 11.37 52.466 0.186 7.79 4.92 10.63
3/26/2021 6:15:00 PM 11.29 52.322 0.187 7.77 5.43 10.59
3/26/2021 6:30:00 PM 11.21 52.178 0.185 7.77 5.05 10.55
3/26/2021 6:45:00 PM 11.12 52.016 0.185 7.76 5.28 10.52
3/26/2021 7:00:00 PM 11.04 51.872 0.186 7.75 5.11 10.48
3/26/2021 7:15:00 PM 10.95 51.71 0.187 7.74 5.06 10.44
3/26/2021 7:30:00 PM 10.86 51.548 0.187 7.73 4.93 10.38
3/26/2021 7:45:00 PM 10.79 51.422 0.187 7.71 5.02 10.33
3/26/2021 8:00:00 PM 10.72 51.296 0.188 7.7 5.08 10.28
3/26/2021 8:15:00 PM 10.66 51.188 0.188 7.69 6 10.24
3/26/2021 8:30:00 PM 10.6 51.08 0.19 7.68 5.75 10.19
3/26/2021 8:45:00 PM 10.54 50.972 0.191 7.68 6.41 10.15
3/26/2021 9:00:00 PM 10.48 50.864 0.191 7.67 5.77 10.11
3/26/2021 9:15:00 PM 10.41 50.738 0.192 7.66 5.64 10.07
3/26/2021 9:30:00 PM 10.33 50.594 0.193 7.65 6.06 10.05
3/26/2021 9:45:00 PM 10.25 50.45 0.193 7.65 5.93 10.03
3/26/2021 10:00:00 PM 10.17 50.306 0.195 7.64 6.09 10
3/26/2021 10:15:00 PM 10.09 50.162 0.196 7.64 5.3 9.99
3/26/2021 10:30:00 PM 10.01 50.018 0.197 7.63 5.74 9.99
3/26/2021 10:45:00 PM 9.94 49.892 0.197 7.63 5.88 9.98
3/26/2021 11:00:00 PM 9.86 49.748 0.197 7.63 5.53 9.97
3/26/2021 11:15:00 PM 9.78 49.604 0.198 7.62 5.65 9.98
3/26/2021 11:30:00 PM 9.7 49.46 0.198 7.62 5.47 9.98
3/26/2021 11:45:00 PM 9.63 49.334 0.198 7.62 5.42 9.99
3/27/2021 12:00:00 AM 9.55 49.19 0.198 7.62 5.55 10
3/27/2021 12:15:00 AM 9.48 49.064 0.198 7.62 5.51 10.01
3/27/2021 12:30:00 AM 9.41 48.938 0.198 7.62 5.83 10.01
3/27/2021 12:45:00 AM 9.34 48.812 0.197 7.62 5.55 10.02
3/27/2021 1:00:00 AM 9.27 48.686 0.198 7.61 5.26 10.02
3/27/2021 1:15:00 AM 9.19 48.542 0.198 7.61 5.64 10.04
3/27/2021 1:30:00 AM 9.12 48.416 0.199 7.61 5.46 10.05
3/27/2021 1:45:00 AM 9.06 48.308 0.2 7.61 6 10.06
3/27/2021 2:00:00 AM 9 48.2 0.201 7.61 5.23 10.06
3/27/2021 2:15:00 AM 8.95 48.11 0.202 7.61 5.45 10.07
3/27/2021 2:30:00 AM 8.9 48.02 0.203 7.62 5.51 10.08
3/27/2021 2:45:00 AM 8.86 47.948 0.204 7.61 5.37 10.09
3/27/2021 3:00:00 AM 8.81 47.858 0.205 7.61 5.37 10.09
3/27/2021 3:15:00 AM 8.77 47.786 0.205 7.61 5.3 10.1
3/27/2021 3:30:00 AM 8.72 47.696 0.205 7.61 4.91 10.12
3/27/2021 3:45:00 AM 8.67 47.606 0.205 7.61 5.43 10.13
3/27/2021 4:00:00 AM 8.61 47.498 0.205 7.61 5.39 10.14
3/27/2021 4:15:00 AM 8.56 47.408 0.206 7.62 5.08 10.15
3/27/2021 4:30:00 AM 8.51 47.318 0.206 7.61 5.17 10.16
3/27/2021 4:45:00 AM 8.47 47.246 0.207 7.61 5.12 10.17
3/27/2021 5:00:00 AM 8.43 47.174 0.207 7.61 5.74 10.17
3/27/2021 5:15:00 AM 8.39 47.102 0.207 7.61 5 10.19
3/27/2021 5:30:00 AM 8.35 47.03 0.207 7.61 5.39 10.19
3/27/2021 5:45:00 AM 8.32 46.976 0.207 7.61 5.19 10.2
3/27/2021 6:00:00 AM 8.28 46.904 0.207 7.61 5.58 10.2
3/27/2021 6:15:00 AM 8.25 46.85 0.207 7.61 5.23 10.23
3/27/2021 6:30:00 AM 8.21 46.778 0.206 7.61 5.22 10.23
3/27/2021 6:45:00 AM 8.17 46.706 0.207 7.61 5.33 10.24
3/27/2021 7:00:00 AM 8.13 46.634 0.208 7.61 5.18 10.25
3/27/2021 7:15:00 AM 8.09 46.562 0.207 7.61 5.3 10.27
3/27/2021 7:30:00 AM 8.05 46.49 0.208 7.61 6.73 10.28
3/27/2021 7:45:00 AM 8.02 46.436 0.208 7.62 5.02 10.31
3/27/2021 8:00:00 AM 7.99 46.382 0.209 7.62 5.3 10.32
3/27/2021 8:15:00 AM 7.97 46.346 0.209 7.62 5.25 10.37
3/27/2021 8:30:00 AM 7.95 46.31 0.209 7.62 5.02 10.4
3/27/2021 8:45:00 AM 7.93 46.274 0.21 7.63 6.08 10.44
3/27/2021 9:00:00 AM 7.91 46.238 0.209 7.64 5.03 10.5
3/27/2021 9:15:00 AM 7.89 46.202 0.21 7.64 5.43 10.56
3/27/2021 9:30:00 AM 7.88 46.184 0.21 7.65 4.33 10.63
3/27/2021 9:45:00 AM 7.87 46.166 0.211 7.66 4.7 10.68
3/27/2021 10:00:00 AM 7.85 46.13 0.21 7.66 4.87 10.76
3/27/2021 10:15:00 AM 7.84 46.112 0.21 7.67 7.41 10.8
3/27/2021 10:30:00 AM 7.85 46.13 0.21 7.68 5 10.9
3/27/2021 10:45:00 AM 7.88 46.184 0.21 7.69 4.75 10.99
3/27/2021 11:00:00 AM 7.92 46.256 0.21 7.7 5.21 11.1
3/27/2021 11:15:00 AM 7.96 46.328 0.211 7.71 4.59 11.18
3/27/2021 11:30:00 AM 8.03 46.454 0.211 7.73 4.5 11.31
3/27/2021 11:45:00 AM 8.12 46.616 0.21 7.75 4.69 11.41
3/27/2021 12:00:00 PM 8.23 46.814 0.21 7.76 5.09 11.52
3/27/2021 12:15:00 PM 8.33 46.994 0.211 7.78 4.62 11.6
3/27/2021 12:30:00 PM 8.47 47.246 0.211 7.8 4.42 11.69
3/27/2021 12:45:00 PM 8.65 47.57 0.21 7.81 4.41 11.73
3/27/2021 1:00:00 PM 8.82 47.876 0.212 7.82 4.46 11.81
3/27/2021 1:15:00 PM 9 48.2 0.211 7.84 4.73 11.87
3/27/2021 1:30:00 PM 9.2 48.56 0.211 7.85 4.79 11.91
3/27/2021 1:45:00 PM 9.34 48.812 0.211 7.86 4.59 11.95
3/27/2021 2:00:00 PM 9.5 49.1 0.211 7.87 4.57 11.97
3/27/2021 2:15:00 PM 9.69 49.442 0.21 7.88 4.56 12.01
3/27/2021 2:30:00 PM 9.83 49.694 0.211 7.89 4.41 12.02
3/27/2021 2:45:00 PM 10.01 50.018 0.211 7.9 4.17 12.02
3/27/2021 3:00:00 PM 10.17 50.306 0.212 7.91 5.07 12.03
3/27/2021 3:15:00 PM 10.34 50.612 0.213 7.92 4.02 12.02
3/27/2021 3:30:00 PM 10.49 50.882 0.213 7.93 4.07 12
3/27/2021 3:45:00 PM 10.61 51.098 0.213 7.94 3.99 11.99
3/27/2021 4:00:00 PM 10.64 51.152 0.213 7.94 4 11.97
3/27/2021 4:15:00 PM 10.68 51.224 0.213 7.95 4.92 11.96
3/27/2021 4:30:00 PM 10.68 51.224 0.213 7.95 3.96 11.93
3/27/2021 4:45:00 PM 10.71 51.278 0.213 7.95 3.89 11.9
3/27/2021 5:00:00 PM 10.74 51.332 0.214 7.95 3.99 11.86
3/27/2021 5:15:00 PM 10.77 51.386 0.215 7.95 4.04 11.8
3/27/2021 5:30:00 PM 10.81 51.458 0.215 7.95 3.87 11.74
3/27/2021 5:45:00 PM 10.89 51.602 0.215 7.95 3.86 11.73
3/27/2021 6:00:00 PM 10.93 51.674 0.216 7.95 4.45 11.65
3/27/2021 6:15:00 PM 10.98 51.764 0.216 7.94 4.15 11.57
3/27/2021 6:30:00 PM 10.98 51.764 0.217 7.93 4.23 11.49
3/27/2021 6:45:00 PM 11 51.8 0.217 7.92 4.11 11.41
3/27/2021 7:00:00 PM 10.98 51.764 0.216 7.91 4.03 11.29
3/27/2021 7:15:00 PM 10.93 51.674 0.218 7.89 3.95 11.18
3/27/2021 7:30:00 PM 10.88 51.584 0.218 7.87 4.07 11.05
3/27/2021 7:45:00 PM 10.83 51.494 0.219 7.85 3.85 10.92
3/27/2021 8:00:00 PM 10.77 51.386 0.218 7.83 4.04 10.8
3/27/2021 8:15:00 PM 10.72 51.296 0.218 7.81 4.25 10.68
3/27/2021 8:30:00 PM 10.67 51.206 0.218 7.79 4.23 10.59
3/27/2021 8:45:00 PM 10.62 51.116 0.219 7.77 4.13 10.49
3/27/2021 9:00:00 PM 10.57 51.026 0.22 7.76 4.36 10.39
3/27/2021 9:15:00 PM 10.53 50.954 0.219 7.75 4.77 10.3
3/27/2021 9:30:00 PM 10.48 50.864 0.22 7.73 4.39 10.21
3/27/2021 9:45:00 PM 10.42 50.756 0.221 7.72 4.41 10.16
3/27/2021 10:00:00 PM 10.35 50.63 0.22 7.71 4.6 10.08
3/27/2021 10:15:00 PM 10.28 50.504 0.22 7.7 4.52 10.03
3/27/2021 10:30:00 PM 10.2 50.36 0.221 7.69 4.27 9.99
3/27/2021 10:45:00 PM 10.12 50.216 0.22 7.68 4.68 9.94
3/27/2021 11:00:00 PM 10.04 50.072 0.223 7.67 4.64 9.91
3/27/2021 11:15:00 PM 9.97 49.946 0.221 7.67 4.45 9.9
3/27/2021 11:30:00 PM 9.9 49.82 0.221 7.66 4.6 9.88
3/27/2021 11:45:00 PM 9.82 49.676 0.221 7.65 4.49 9.86
3/28/2021 12:00:00 AM 9.76 49.568 0.222 7.65 4.7 9.85
3/28/2021 12:15:00 AM 9.68 49.424 0.221 7.65 4.74 9.85
3/28/2021 12:30:00 AM 9.61 49.298 0.221 7.64 4.51 9.84
3/28/2021 12:45:00 AM 9.54 49.172 0.222 7.64 4.7 9.83
3/28/2021 1:00:00 AM 9.47 49.046 0.222 7.64 4.85 9.84
3/28/2021 1:15:00 AM 9.4 48.92 0.222 7.64 5.2 9.84
3/28/2021 1:30:00 AM 9.34 48.812 0.222 7.64 4.74 9.85
3/28/2021 1:45:00 AM 9.27 48.686 0.222 7.63 4.75 9.86
3/28/2021 2:00:00 AM 9.2 48.56 0.222 7.63 4.71 9.87
3/28/2021 2:15:00 AM 9.13 48.434 0.223 7.63 4.85 9.87
3/28/2021 2:30:00 AM 9.06 48.308 0.223 7.63 4.83 9.88
3/28/2021 2:45:00 AM 8.99 48.182 0.223 7.63 6.86 9.9
3/28/2021 3:00:00 AM 8.91 48.038 0.223 7.63 4.51 9.91
3/28/2021 3:15:00 AM 8.82 47.876 0.225 7.63 5.39 9.92
3/28/2021 3:30:00 AM 8.73 47.714 0.224 7.63 4.83 9.94
3/28/2021 3:45:00 AM 8.65 47.57 0.225 7.64 4.97 9.96
3/28/2021 4:00:00 AM 8.57 47.426 0.224 7.63 4.47 9.97
3/28/2021 4:15:00 AM 8.49 47.282 0.226 7.63 4.51 9.98
3/28/2021 4:30:00 AM 8.42 47.156 0.225 7.63 4.51 10
3/28/2021 4:45:00 AM 8.35 47.03 0.227 7.64 4.69 10.01
3/28/2021 5:00:00 AM 8.29 46.922 0.226 7.64 4.3 10.03
3/28/2021 5:15:00 AM 8.23 46.814 0.227 7.64 4.48 10.04
3/28/2021 5:30:00 AM 8.17 46.706 0.227 7.64 4.81 10.06
3/28/2021 5:45:00 AM 8.12 46.616 0.226 7.64 4.47 10.07
3/28/2021 6:00:00 AM 8.07 46.526 0.227 7.64 4.49 10.08
3/28/2021 6:15:00 AM 8.04 46.472 0.228 7.64 4.44 10.09
3/28/2021 6:30:00 AM 8 46.4 0.228 7.64 4.38 10.11
3/28/2021 6:45:00 AM 7.97 46.346 0.229 7.64 4.77 10.11
3/28/2021 7:00:00 AM 7.95 46.31 0.229 7.64 4.5 10.12
3/28/2021 7:15:00 AM 7.94 46.292 0.23 7.64 5.06 10.12
3/28/2021 7:30:00 AM 7.93 46.274 0.229 7.64 6.29 10.13
3/28/2021 7:45:00 AM 7.92 46.256 0.229 7.64 6.27 10.14
3/28/2021 8:00:00 AM 7.92 46.256 0.23 7.64 4.41 10.16
3/28/2021 8:15:00 AM 7.92 46.256 0.231 7.65 4.62 10.19
3/28/2021 8:30:00 AM 7.93 46.274 0.23 7.65 4.65 10.22
3/28/2021 8:45:00 AM 7.94 46.292 0.23 7.65 4.37 10.24
3/28/2021 9:00:00 AM 7.96 46.328 0.23 7.66 3.94 10.28
3/28/2021 9:15:00 AM 7.98 46.364 0.23 7.66 3.99 10.33
3/28/2021 9:30:00 AM 8.01 46.418 0.23 7.67 3.94 10.36
3/28/2021 9:45:00 AM 8.03 46.454 0.231 7.67 4.08 10.39
3/28/2021 10:00:00 AM 8.06 46.508 0.233 7.68 4.08 10.41
3/28/2021 10:15:00 AM 8.08 46.544 0.232 7.68 4.12 10.44
3/28/2021 10:30:00 AM 8.1 46.58 0.232 7.69 3.98 10.49
3/28/2021 10:45:00 AM 8.13 46.634 0.231 7.7 3.56 10.56
3/28/2021 11:00:00 AM 8.17 46.706 0.231 7.7 3.63 10.62
3/28/2021 11:15:00 AM 8.2 46.76 0.232 7.71 3.57 10.66
3/28/2021 11:30:00 AM 8.23 46.814 0.233 7.72 3.78 10.71
3/28/2021 11:45:00 AM 8.27 46.886 0.234 7.72 3.83 10.76
3/28/2021 12:00:00 PM 8.32 46.976 0.236 7.73 3.69 10.83
3/28/2021 12:15:00 PM 8.36 47.048 0.235 7.74 3.96 10.86
3/28/2021 12:30:00 PM 8.41 47.138 0.236 7.75 3.81 10.93
3/28/2021 12:45:00 PM 8.45 47.21 0.235 7.76 4.17 10.95
3/28/2021 1:00:00 PM 8.5 47.3 0.235 7.76 4.29 10.99
3/28/2021 1:15:00 PM 8.55 47.39 0.235 7.77 3.82 11.04
3/28/2021 1:30:00 PM 8.59 47.462 0.234 7.78 3.49 11.07
3/28/2021 1:45:00 PM 8.65 47.57 0.234 7.79 3.58 11.11
3/28/2021 2:00:00 PM 8.69 47.642 0.235 7.79 3.62 11.11
3/28/2021 2:15:00 PM 8.74 47.732 0.235 7.8 6.8 11.12
3/28/2021 2:30:00 PM 8.79 47.822 0.234 7.81 3.74 11.16
3/28/2021 2:45:00 PM 8.85 47.93 0.234 7.81 3.61 11.17
3/28/2021 3:00:00 PM 8.9 48.02 0.234 7.82 3.67 11.19
3/28/2021 3:15:00 PM 8.95 48.11 0.234 7.82 3.89 11.18
3/28/2021 3:30:00 PM 9 48.2 0.234 7.83 3.58 11.18
3/28/2021 3:45:00 PM 9.03 48.254 0.233 7.83 3.76 11.13
3/28/2021 4:00:00 PM 9.07 48.326 0.234 7.83 3.83 11.15
3/28/2021 4:15:00 PM 9.1 48.38 0.232 7.83 4.26 11.14
3/28/2021 4:30:00 PM 9.12 48.416 0.231 7.83 3.83 11.08
3/28/2021 4:45:00 PM 9.13 48.434 0.231 7.82 3.85 11.01
3/28/2021 5:00:00 PM 9.15 48.47 0.23 7.82 4.08 10.99
3/28/2021 5:15:00 PM 9.17 48.506 0.229 7.82 3.85 10.98
3/28/2021 5:30:00 PM 9.16 48.488 0.229 7.81 3.64 10.89
3/28/2021 5:45:00 PM 9.17 48.506 0.228 7.81 3.9 10.89
3/28/2021 6:00:00 PM 9.18 48.524 0.228 7.8 4.4 10.88
3/28/2021 6:15:00 PM 9.19 48.542 0.227 7.8 4.95 10.88
3/28/2021 6:30:00 PM 9.18 48.524 0.228 7.8 5.79 10.86
3/28/2021 6:45:00 PM 9.17 48.506 0.227 7.8 6.53 10.84
3/28/2021 7:00:00 PM 9.14 48.452 0.226 7.79 6.39 10.8
3/28/2021 7:15:00 PM 9.09 48.362 0.226 7.78 6.71 10.76
3/28/2021 7:30:00 PM 9.04 48.272 0.225 7.78 6.03 10.72
3/28/2021 7:45:00 PM 8.98 48.164 0.223 7.77 5.36 10.67
3/28/2021 8:00:00 PM 8.91 48.038 0.221 7.76 4.68 10.63
3/28/2021 8:15:00 PM 8.85 47.93 0.219 7.75 4.32 10.59
3/28/2021 8:30:00 PM 8.81 47.858 0.218 7.74 4.5 10.56
3/28/2021 8:45:00 PM 8.77 47.786 0.217 7.74 4.3 10.52
3/28/2021 9:00:00 PM 8.7 47.66 0.215 7.73 4.45 10.49
3/28/2021 9:15:00 PM 8.65 47.57 0.214 7.72 4.98 10.46
3/28/2021 9:30:00 PM 8.59 47.462 0.212 7.72 4.66 10.42
3/28/2021 9:45:00 PM 8.53 47.354 0.212 7.71 4.67 10.39
3/28/2021 10:00:00 PM 8.45 47.21 0.209 7.7 4.88 10.37
3/28/2021 10:15:00 PM 8.38 47.084 0.208 7.7 4.45 10.36
3/28/2021 10:30:00 PM 8.3 46.94 0.205 7.69 5.32 10.33
3/28/2021 10:45:00 PM 8.22 46.796 0.203 7.68 4.73 10.33
3/28/2021 11:00:00 PM 8.14 46.652 0.201 7.67 5.35 10.33
3/28/2021 11:15:00 PM 8.06 46.508 0.199 7.66 5.18 10.33
3/28/2021 11:30:00 PM 7.97 46.346 0.197 7.66 4.91 10.34
3/28/2021 11:45:00 PM 7.9 46.22 0.196 7.66 4.98 10.36
3/29/2021 12:00:00 AM 7.82 46.076 0.196 7.65 6.04 10.36
3/29/2021 12:15:00 AM 7.74 45.932 0.194 7.65 5.4 10.39
3/29/2021 12:30:00 AM 7.65 45.77 0.192 7.65 5.54 10.41
3/29/2021 12:45:00 AM 7.56 45.608 0.191 7.64 5.73 10.43
3/29/2021 1:00:00 AM 7.46 45.428 0.189 7.64 5.88 10.46
3/29/2021 1:15:00 AM 7.37 45.266 0.187 7.64 6.25 10.5
3/29/2021 1:30:00 AM 7.27 45.086 0.185 7.63 6.36 10.52
3/29/2021 1:45:00 AM 7.17 44.906 0.182 7.63 6.38 10.54
3/29/2021 2:00:00 AM 7.08 44.744 0.178 7.62 6.58 10.59
3/29/2021 2:15:00 AM 6.99 44.582 0.175 7.61 6.31 10.62
3/29/2021 2:30:00 AM 6.9 44.42 0.173 7.6 6.31 10.65
3/29/2021 2:45:00 AM 6.8 44.24 0.17 7.6 5.64 10.66
3/29/2021 3:00:00 AM 6.72 44.096 0.169 7.59 6.84 10.7
3/29/2021 3:15:00 AM 6.64 43.952 0.168 7.59 6.63 10.73
3/29/2021 3:30:00 AM 6.56 43.808 0.167 7.58 6.48 10.74
3/29/2021 3:45:00 AM 6.49 43.682 0.168 7.58 6.43 10.77
3/29/2021 4:00:00 AM 6.42 43.556 0.167 7.58 6.02 10.78
3/29/2021 4:15:00 AM 6.36 43.448 0.169 7.58 6.7 10.81
3/29/2021 4:30:00 AM 6.3 43.34 0.169 7.58 6.47 10.83
3/29/2021 4:45:00 AM 6.24 43.232 0.171 7.59 6.33 10.83
3/29/2021 5:00:00 AM 6.19 43.142 0.172 7.59 6.04 10.85
3/29/2021 5:15:00 AM 6.14 43.052 0.173 7.59 6.47 10.87
3/29/2021 5:30:00 AM 6.08 42.944 0.173 7.59 6.78 10.89
3/29/2021 5:45:00 AM 6.02 42.836 0.174 7.59 6.75 10.91
3/29/2021 6:00:00 AM 5.97 42.746 0.176 7.6 6.29 10.92
3/29/2021 6:15:00 AM 5.93 42.674 0.179 7.6 6.58 10.92
3/29/2021 6:30:00 AM 5.87 42.566 0.178 7.61 6.52 10.95
3/29/2021 6:45:00 AM 5.83 42.494 0.179 7.6 7.04 10.96
3/29/2021 7:00:00 AM 5.79 42.422 0.18 7.61 6.29 10.97
3/29/2021 7:15:00 AM 5.75 42.35 0.182 7.61 6.19 11
3/29/2021 7:30:00 AM 5.72 42.296 0.184 7.62 6.25 11.02
3/29/2021 7:45:00 AM 5.68 42.224 0.185 7.62 7.59 11.04
3/29/2021 8:00:00 AM 5.65 42.17 0.185 7.62 7.35 11.07
3/29/2021 8:15:00 AM 5.63 42.134 0.188 7.63 6.24 11.1
3/29/2021 8:30:00 AM 5.6 42.08 0.188 7.64 5.75 11.15
3/29/2021 8:45:00 AM 5.58 42.044 0.19 7.64 5.56 11.18
3/29/2021 9:00:00 AM 5.55 41.99 0.192 7.65 5.87 11.21
3/29/2021 9:15:00 AM 5.53 41.954 0.193 7.65 5.82 11.26
3/29/2021 9:30:00 AM 5.53 41.954 0.194 7.66 5.96 11.32
3/29/2021 9:45:00 AM 5.52 41.936 0.198 7.67 5.48 11.36
3/29/2021 10:00:00 AM 5.52 41.936 0.197 7.68 5.47 11.44
3/29/2021 10:15:00 AM 5.53 41.954 0.199 7.69 5.5 11.51
3/29/2021 10:30:00 AM 5.54 41.972 0.199 7.71 5.11 11.61
3/29/2021 10:45:00 AM 5.56 42.008 0.2 7.72 5.27 11.7
3/29/2021 11:00:00 AM 5.68 42.224 0.202 7.73 5.25 11.79
3/29/2021 11:15:00 AM 5.73 42.314 0.202 7.75 5.01 11.87
3/29/2021 11:30:00 AM 5.83 42.494 0.203 7.76 7.61 11.96
3/29/2021 11:45:00 AM 5.99 42.782 0.203 7.77 5.26 12.04
3/29/2021 12:00:00 PM 6.1 42.98 0.205 7.78 5.32 12.09
3/29/2021 12:15:00 PM 6.23 43.214 0.205 7.8 5.56 12.17
3/29/2021 12:30:00 PM 6.38 43.484 0.204 7.81 5.05 12.23
3/29/2021 12:45:00 PM 6.54 43.772 0.205 7.82 5.01 12.27
3/29/2021 1:00:00 PM 6.72 44.096 0.206 7.83 4.92 12.31
3/29/2021 1:15:00 PM 6.94 44.492 0.206 7.84 5.01 12.34
3/29/2021 1:30:00 PM 7.18 44.924 0.206 7.86 5.17 12.38
3/29/2021 1:45:00 PM 7.4 45.32 0.207 7.87 4.82 12.38
3/29/2021 2:00:00 PM 7.63 45.734 0.207 7.88 5.01 12.39
3/29/2021 2:15:00 PM 7.83 46.094 0.208 7.88 4.72 12.38
3/29/2021 2:30:00 PM 8.02 46.436 0.208 7.89 4.47 12.38
3/29/2021 2:45:00 PM 8.2 46.76 0.209 7.9 4.6 12.38
3/29/2021 3:00:00 PM 8.38 47.084 0.21 7.91 4.47 12.37
3/29/2021 3:15:00 PM 8.53 47.354 0.21 7.92 4.6 12.36
3/29/2021 3:30:00 PM 8.66 47.588 0.21 7.93 4.36 12.35
3/29/2021 3:45:00 PM 8.76 47.768 0.211 7.93 4.58 12.32
3/29/2021 4:00:00 PM 8.87 47.966 0.211 7.93 4.73 12.29
3/29/2021 4:15:00 PM 8.98 48.164 0.211 7.94 4.38 12.28
3/29/2021 4:30:00 PM 9.06 48.308 0.213 7.94 4.43 12.23
3/29/2021 4:45:00 PM 9.14 48.452 0.214 7.94 4.5 12.16
3/29/2021 5:00:00 PM 9.21 48.578 0.215 7.94 4.17 12.14
3/29/2021 5:15:00 PM 9.27 48.686 0.216 7.94 4.21 12.07
3/29/2021 5:30:00 PM 9.3 48.74 0.216 7.94 4.31 12.01
3/29/2021 5:45:00 PM 9.33 48.794 0.217 7.94 4.08 11.94
3/29/2021 6:00:00 PM 9.34 48.812 0.217 7.93 4.35 11.88
3/29/2021 6:15:00 PM 9.33 48.794 0.218 7.92 4.25 11.8
3/29/2021 6:30:00 PM 9.31 48.758 0.216 7.91 6.12 11.71
3/29/2021 6:45:00 PM 9.26 48.668 0.217 7.9 5.03 11.63
3/29/2021 7:00:00 PM 9.2 48.56 0.218 7.88 4.44 11.53
3/29/2021 7:15:00 PM 9.13 48.434 0.219 7.87 4.4 11.42
3/29/2021 7:30:00 PM 9.06 48.308 0.218 7.85 4.4 11.34
3/29/2021 7:45:00 PM 8.97 48.146 0.218 7.84 4.21 11.26
3/29/2021 8:00:00 PM 8.89 48.002 0.219 7.82 4.38 11.17
3/29/2021 8:15:00 PM 8.8 47.84 0.219 7.81 4.59 11.07
3/29/2021 8:30:00 PM 8.71 47.678 0.219 7.79 4.48 10.99
3/29/2021 8:45:00 PM 8.62 47.516 0.221 7.78 4.53 10.92
3/29/2021 9:00:00 PM 8.54 47.372 0.22 7.77 4.14 10.86
3/29/2021 9:15:00 PM 8.45 47.21 0.221 7.76 4.39 10.81
3/29/2021 9:30:00 PM 8.36 47.048 0.223 7.75 4.54 10.76
3/29/2021 9:45:00 PM 8.27 46.886 0.222 7.75 3.95 10.71
3/29/2021 10:00:00 PM 8.18 46.724 0.223 7.74 4.61 10.67
3/29/2021 10:15:00 PM 8.09 46.562 0.224 7.74 4.37 10.64
3/29/2021 10:30:00 PM 8 46.4 0.224 7.73 4.19 10.6
3/29/2021 10:45:00 PM 7.92 46.256 0.224 7.73 4.25 10.58
3/29/2021 11:00:00 PM 7.84 46.112 0.224 7.72 4.41 10.57
3/29/2021 11:15:00 PM 7.76 45.968 0.225 7.72 4.41 10.55
3/29/2021 11:30:00 PM 7.68 45.824 0.225 7.71 4.34 10.55
3/29/2021 11:45:00 PM 7.59 45.662 0.226 7.71 4.17 10.55
3/30/2021 12:00:00 AM 7.51 45.518 0.226 7.71 4.39 10.54
3/30/2021 12:15:00 AM 7.44 45.392 0.226 7.71 4.11 10.54
3/30/2021 12:30:00 AM 7.35 45.23 0.228 7.71 4.26 10.55
3/30/2021 12:45:00 AM 7.26 45.068 0.228 7.71 4.87 10.59
3/30/2021 1:00:00 AM 7.17 44.906 0.228 7.7 4.47 10.59
3/30/2021 1:15:00 AM 7.08 44.744 0.229 7.7 4.59 10.6
3/30/2021 1:30:00 AM 6.98 44.564 0.228 7.7 4.45 10.61
3/30/2021 1:45:00 AM 6.88 44.384 0.228 7.7 4.48 10.65
3/30/2021 2:00:00 AM 6.8 44.24 0.23 7.7 5.22 10.64
3/30/2021 2:15:00 AM 6.71 44.078 0.229 7.7 4.59 10.67
3/30/2021 2:30:00 AM 6.61 43.898 0.23 7.7 4.1 10.7
3/30/2021 2:45:00 AM 6.52 43.736 0.23 7.7 4.21 10.71
3/30/2021 3:00:00 AM 6.44 43.592 0.229 7.69 3.91 10.73
3/30/2021 3:15:00 AM 6.35 43.43 0.23 7.7 4.03 10.75
3/30/2021 3:30:00 AM 6.27 43.286 0.23 7.7 4.25 10.77
3/30/2021 3:45:00 AM 6.18 43.124 0.23 7.69 4.04 10.78
3/30/2021 4:00:00 AM 6.09 42.962 0.231 7.7 3.95 10.82
3/30/2021 4:15:00 AM 6.01 42.818 0.232 7.7 4.32 10.82
3/30/2021 4:30:00 AM 5.92 42.656 0.232 7.69 4.35 10.85
3/30/2021 4:45:00 AM 5.82 42.476 0.231 7.7 4.67 10.89
3/30/2021 5:00:00 AM 5.74 42.332 0.232 7.7 4.37 10.92
3/30/2021 5:15:00 AM 5.65 42.17 0.232 7.7 4.35 10.96
3/30/2021 5:30:00 AM 5.57 42.026 0.233 7.7 4.63 10.98
3/30/2021 5:45:00 AM 5.49 41.882 0.234 7.7 3.94 11
3/30/2021 6:00:00 AM 5.4 41.72 0.232 7.7 5.45 11.03
3/30/2021 6:15:00 AM 5.31 41.558 0.233 7.7 3.87 11.06
3/30/2021 6:30:00 AM 5.26 41.468 0.236 7.7 3.94 11.06
3/30/2021 6:45:00 AM 5.18 41.324 0.234 7.7 3.88 11.08
3/30/2021 7:00:00 AM 5.11 41.198 0.235 7.7 4.07 11.1
3/30/2021 7:15:00 AM 5.05 41.09 0.236 7.7 4.39 11.14
3/30/2021 7:30:00 AM 5.02 41.036 0.238 7.7 4.46 11.13
3/30/2021 7:45:00 AM 4.93 40.874 0.235 7.7 5.14 11.22
3/30/2021 8:00:00 AM 4.89 40.802 0.237 7.71 4.23 11.28
3/30/2021 8:15:00 AM 4.87 40.766 0.238 7.72 3.99 11.36
3/30/2021 8:30:00 AM 4.86 40.748 0.237 7.73 3.77 11.44
3/30/2021 8:45:00 AM 4.85 40.73 0.238 7.73 3.97 11.53
3/30/2021 9:00:00 AM 4.88 40.784 0.238 7.74 3.58 11.62
3/30/2021 9:15:00 AM 4.93 40.874 0.24 7.75 3.85 11.65
3/30/2021 9:30:00 AM 4.99 40.982 0.239 7.76 3.65 11.77
3/30/2021 9:45:00 AM 5.05 41.09 0.238 7.77 3.41 11.87
3/30/2021 10:00:00 AM 5.15 41.27 0.239 7.78 3.66 11.98
3/30/2021 10:15:00 AM 5.26 41.468 0.239 7.79 3.98 12.04
3/30/2021 10:30:00 AM 5.41 41.738 0.241 7.8 3.67 12.11
3/30/2021 10:45:00 AM 5.56 42.008 0.241 7.81 3.87 12.16
3/30/2021 11:00:00 AM 5.74 42.332 0.244 7.82 3.62 12.21
3/30/2021 11:15:00 AM 5.94 42.692 0.243 7.82 3.64 12.23
3/30/2021 11:30:00 AM 6.16 43.088 0.243 7.83 3.63 12.27
3/30/2021 11:45:00 AM 6.39 43.502 0.243 7.84 3.53 12.29
3/30/2021 12:00:00 PM 6.64 43.952 0.241 7.86 3.32 12.36
3/30/2021 12:15:00 PM 6.89 44.402 0.243 7.86 4.03 12.4
3/30/2021 12:30:00 PM 7.14 44.852 0.241 7.87 3.36 12.42
3/30/2021 12:45:00 PM 7.41 45.338 0.242 7.88 3.46 12.44
3/30/2021 1:00:00 PM 7.67 45.806 0.243 7.88 3.72 12.4
3/30/2021 1:15:00 PM 7.92 46.256 0.246 7.89 3.23 12.41
3/30/2021 1:30:00 PM 8.17 46.706 0.242 7.9 3.29 12.43
3/30/2021 1:45:00 PM 8.41 47.138 0.244 7.91 3.16 12.39
3/30/2021 2:00:00 PM 8.65 47.57 0.242 7.91 3.29 12.39
3/30/2021 2:15:00 PM 8.88 47.984 0.242 7.91 4.21 12.36
3/30/2021 2:30:00 PM 9.11 48.398 0.241 7.92 3.58 12.34
3/30/2021 2:45:00 PM 9.32 48.776 0.242 7.93 3.48 12.33
3/30/2021 3:00:00 PM 9.52 49.136 0.244 7.91 3.87 12.28
3/30/2021 3:15:00 PM 9.71 49.478 0.242 7.94 3.43 12.25
3/30/2021 3:30:00 PM 9.88 49.784 0.242 7.94 3.16 12.2
3/30/2021 3:45:00 PM 10.03 50.054 0.243 7.95 3.53 12.16
3/30/2021 4:00:00 PM 10.17 50.306 0.242 7.95 3.33 12.09
3/30/2021 4:15:00 PM 10.3 50.54 0.242 7.95 3.8 12.05
3/30/2021 4:30:00 PM 10.41 50.738 0.243 7.96 3.49 11.98
3/30/2021 4:45:00 PM 10.5 50.9 0.243 7.95 3.42 11.92
3/30/2021 5:00:00 PM 10.58 51.044 0.243 7.95 3.61 11.85
3/30/2021 5:15:00 PM 10.65 51.17 0.243 7.95 3.12 11.78
3/30/2021 5:30:00 PM 10.71 51.278 0.243 7.95 3.53 11.72
3/30/2021 5:45:00 PM 10.75 51.35 0.244 7.94 3.43 11.62
3/30/2021 6:00:00 PM 10.77 51.386 0.243 7.94 3.43 11.53
3/30/2021 6:15:00 PM 10.78 51.404 0.243 7.93 3.76 11.43
3/30/2021 6:30:00 PM 10.78 51.404 0.244 7.91 3.7 11.31
3/30/2021 6:45:00 PM 10.77 51.386 0.242 7.9 3.17 11.18
3/30/2021 7:00:00 PM 10.74 51.332 0.243 7.89 3.38 11.09
3/30/2021 7:15:00 PM 10.7 51.26 0.244 7.88 3.66 10.97
3/30/2021 7:30:00 PM 10.66 51.188 0.244 7.86 3.48 10.83
3/30/2021 7:45:00 PM 10.6 51.08 0.243 7.84 3.39 10.72
3/30/2021 8:00:00 PM 10.56 51.008 0.243 7.83 3.53 10.61
3/30/2021 8:15:00 PM 10.51 50.918 0.243 7.82 3.38 10.49
3/30/2021 8:30:00 PM 10.45 50.81 0.244 7.8 3.65 10.41
3/30/2021 8:45:00 PM 10.39 50.702 0.244 7.79 3.33 10.3
3/30/2021 9:00:00 PM 10.33 50.594 0.245 7.78 3.85 10.25
3/30/2021 9:15:00 PM 10.27 50.486 0.245 7.77 3.4 10.17
3/30/2021 9:30:00 PM 10.21 50.378 0.245 7.76 3.66 10.11
3/30/2021 9:45:00 PM 10.15 50.27 0.245 7.76 3.6 10.06
3/30/2021 10:00:00 PM 10.08 50.144 0.246 7.75 3.76 10.02
3/30/2021 10:15:00 PM 10.02 50.036 0.247 7.74 3.74 9.96
3/30/2021 10:30:00 PM 9.95 49.91 0.246 7.73 3.83 9.92
3/30/2021 10:45:00 PM 9.89 49.802 0.247 7.73 3.64 9.89
3/30/2021 11:00:00 PM 9.82 49.676 0.249 7.72 3.63 9.85
3/30/2021 11:15:00 PM 9.76 49.568 0.248 7.72 3.59 9.84
3/30/2021 11:30:00 PM 9.71 49.478 0.248 7.72 3.5 9.82
3/30/2021 11:45:00 PM 9.65 49.37 0.25 7.71 3.81 9.81
3/31/2021 12:00:00 AM 9.61 49.298 0.249 7.71 3.58 9.8
3/31/2021 12:15:00 AM 9.55 49.19 0.251 7.71 3.81 9.78
3/31/2021 12:30:00 AM 9.5 49.1 0.25 7.7 3.56 9.78
3/31/2021 12:45:00 AM 9.45 49.01 0.251 7.7 3.9 9.78
3/31/2021 1:00:00 AM 9.4 48.92 0.25 7.7 3.81 9.77
3/31/2021 1:15:00 AM 9.35 48.83 0.251 7.7 3.68 9.78
3/31/2021 1:30:00 AM 9.3 48.74 0.252 7.7 3.42 9.76
3/31/2021 1:45:00 AM 9.24 48.632 0.253 7.7 3.54 9.78
3/31/2021 2:00:00 AM 9.18 48.524 0.253 7.69 3.4 9.78
3/31/2021 2:15:00 AM 9.12 48.416 0.254 7.69 3.52 9.78
3/31/2021 2:30:00 AM 9.06 48.308 0.254 7.69 3.62 9.79
3/31/2021 2:45:00 AM 9 48.2 0.254 7.69 3.58 9.81
3/31/2021 3:00:00 AM 8.94 48.092 0.254 7.69 3.43 9.81
3/31/2021 3:15:00 AM 8.88 47.984 0.254 7.69 3.4 9.83
3/31/2021 3:30:00 AM 8.83 47.894 0.255 7.69 3.55 9.84
3/31/2021 3:45:00 AM 8.77 47.786 0.255 7.69 3.41 9.85
3/31/2021 4:00:00 AM 8.72 47.696 0.257 7.69 3.5 9.86
3/31/2021 4:15:00 AM 8.67 47.606 0.256 7.69 3.33 9.87
3/31/2021 4:30:00 AM 8.63 47.534 0.255 7.69 3.89 9.87
3/31/2021 4:45:00 AM 8.58 47.444 0.257 7.69 3.87 9.88
3/31/2021 5:00:00 AM 8.53 47.354 0.256 7.69 3.58 9.88
3/31/2021 5:15:00 AM 8.49 47.282 0.256 7.69 4.44 9.91
3/31/2021 5:30:00 AM 8.45 47.21 0.257 7.69 3.58 9.92
3/31/2021 5:45:00 AM 8.41 47.138 0.257 7.69 3.46 9.93
3/31/2021 6:00:00 AM 8.36 47.048 0.257 7.69 3.48 9.93
3/31/2021 6:15:00 AM 8.32 46.976 0.257 7.69 3.78 9.95
3/31/2021 6:30:00 AM 8.28 46.904 0.258 7.69 3.77 9.97
3/31/2021 6:45:00 AM 8.24 46.832 0.257 7.69 3.85 9.98
3/31/2021 7:00:00 AM 8.2 46.76 0.258 7.69 4.22 9.98
3/31/2021 7:15:00 AM 8.17 46.706 0.258 7.69 5.91 9.99
3/31/2021 7:30:00 AM 8.14 46.652 0.259 7.7 4.42 10.04
3/31/2021 7:45:00 AM 8.13 46.634 0.258 7.69 3.91 10.06
3/31/2021 8:00:00 AM 8.12 46.616 0.259 7.7 3.82 10.11
3/31/2021 8:15:00 AM 8.11 46.598 0.258 7.71 3.68 10.18
3/31/2021 8:30:00 AM 8.11 46.598 0.257 7.71 1230.69 10.26
3/31/2021 8:45:00 AM 8.11 46.598 0.237 7.73 7874.16 10.33
3/31/2021 9:00:00 AM 8.12 46.616 0.234 7.75 13209.64 10.41
3/31/2021 9:15:00 AM 8.13 46.634 0.22 7.77 15126.1 10.5
3/31/2021 9:30:00 AM 8.15 46.67 0.221 7.75 14948.69 10.56
3/31/2021 9:45:00 AM 8.17 46.706 0.257 7.76 5.87 10.64
3/31/2021 10:00:00 AM 8.2 46.76 0.258 7.76 3.81 10.72
3/31/2021 10:15:00 AM 8.22 46.796 0.257 7.77 3.22 10.79
3/31/2021 10:30:00 AM 8.25 46.85 0.262 7.77 3.59 10.83
3/31/2021 10:45:00 AM 8.28 46.904 0.258 7.79 3.3 10.93
3/31/2021 11:00:00 AM 8.32 46.976 0.259 7.79 3.38 11.01
3/31/2021 11:15:00 AM 8.35 47.03 0.258 7.8 3.55 11.04
3/31/2021 11:30:00 AM 8.37 47.066 0.256 7.8 3.42 11.1
3/31/2021 11:45:00 AM 8.41 47.138 0.257 7.81 3.57 11.12
3/31/2021 12:00:00 PM 8.43 47.174 0.257 7.81 3.44 11.14
3/31/2021 12:15:00 PM 8.46 47.228 0.257 7.82 3.42 11.17
3/31/2021 12:30:00 PM 8.49 47.282 0.257 7.82 3.78 11.19
3/31/2021 12:45:00 PM 8.52 47.336 0.258 7.82 3.92 11.2
3/31/2021 1:00:00 PM 8.56 47.408 0.258 7.83 3.65 11.22
3/31/2021 1:15:00 PM 8.61 47.498 0.256 7.84 5.04 11.28
3/31/2021 1:30:00 PM 8.64 47.552 0.257 7.84 3.47 11.29
3/31/2021 1:45:00 PM 8.68 47.624 0.257 7.85 3.68 11.32
3/31/2021 2:00:00 PM 8.76 47.768 0.259 7.85 3.49 11.39
3/31/2021 2:15:00 PM 8.81 47.858 0.257 7.86 3.37 11.42
3/31/2021 2:30:00 PM 8.85 47.93 0.258 7.87 3.28 11.46
3/31/2021 2:45:00 PM 8.88 47.984 0.259 7.87 3.37 11.44
3/31/2021 3:00:00 PM 8.98 48.164 0.259 7.88 3.44 11.51
3/31/2021 3:15:00 PM 9.04 48.272 0.259 7.89 3.65 11.55
3/31/2021 3:30:00 PM 9.07 48.326 0.258 7.89 3.31 11.52
3/31/2021 3:45:00 PM 9.09 48.362 0.259 7.89 3.44 11.49
3/31/2021 4:00:00 PM 9.11 48.398 0.258 7.89 3.34 11.47
3/31/2021 4:15:00 PM 9.11 48.398 0.257 7.89 3.43 11.4
3/31/2021 4:30:00 PM 9.1 48.38 0.258 7.88 3.23 11.31
3/31/2021 4:45:00 PM 9.09 48.362 0.259 7.87 3.16 11.22
3/31/2021 5:00:00 PM 9.07 48.326 0.258 7.86 3.34 11.11
3/31/2021 5:15:00 PM 9.06 48.308 0.259 7.84 3.2 11.01
3/31/2021 5:30:00 PM 9.04 48.272 0.258 7.83 2.96 10.91
3/31/2021 5:45:00 PM 8.99 48.182 0.258 7.82 3.03 10.86
3/31/2021 6:00:00 PM 8.96 48.128 0.257 7.82 3.02 10.79
3/31/2021 6:15:00 PM 8.94 48.092 0.26 7.8 3.1 10.72
3/31/2021 6:30:00 PM 8.91 48.038 0.26 7.8 3.54 10.65
3/31/2021 6:45:00 PM 8.87 47.966 0.258 7.79 3.3 10.6
3/31/2021 7:00:00 PM 8.85 47.93 0.258 7.79 3.08 10.55
3/31/2021 7:15:00 PM 8.82 47.876 0.257 7.78 2.95 10.51
3/31/2021 7:30:00 PM 8.78 47.804 0.258 7.77 3.13 10.43
3/31/2021 7:45:00 PM 8.75 47.75 0.258 7.77 3.29 10.39
3/31/2021 8:00:00 PM 8.71 47.678 0.26 7.76 3.51 10.33
3/31/2021 8:15:00 PM 8.68 47.624 0.259 7.75 3.62 10.3
3/31/2021 8:30:00 PM 8.65 47.57 0.259 7.75 3.95 10.26
3/31/2021 8:45:00 PM 8.61 47.498 0.258 7.74 3.74 10.24
3/31/2021 9:00:00 PM 8.57 47.426 0.259 7.74 3.49 10.2
3/31/2021 9:15:00 PM 8.52 47.336 0.258 7.74 3.86 10.2
3/31/2021 9:30:00 PM 8.48 47.264 0.257 7.74 3.7 10.17
3/31/2021 9:45:00 PM 8.44 47.192 0.257 7.73 3.29 10.16
3/31/2021 10:00:00 PM 8.39 47.102 0.257 7.73 3.55 10.15
3/31/2021 10:15:00 PM 8.36 47.048 0.256 7.73 3.42 10.12
3/31/2021 10:30:00 PM 8.32 46.976 0.255 7.73 3.23 10.13
3/31/2021 10:45:00 PM 8.28 46.904 0.255 7.72 3.29 10.12
3/31/2021 11:00:00 PM 8.25 46.85 0.239 7.71 9129.82 10.1
3/31/2021 11:15:00 PM 8.22 46.796 0.241 7.72 3924.87 10.11
3/31/2021 11:30:00 PM 8.19 46.742 0.242 7.71 2322.74 10.12
3/31/2021 11:45:00 PM 8.15 46.67 0.239 7.71 1625.32 10.13
4/1/2021 12:00:00 AM 8.12 46.616 0.236 7.71 1332.32 10.11
4/1/2021 12:15:00 AM 8.08 46.544 0.223 7.71 192.17 10.12
4/1/2021 12:30:00 AM 8.04 46.472 0.202 7.71 7.7 10.13
4/1/2021 12:45:00 AM 8.01 46.418 0.182 7.71 14.86 10.12
4/1/2021 1:00:00 AM 7.97 46.346 0.177 7.71 9.49 10.14
4/1/2021 1:15:00 AM 7.93 46.274 0.172 7.71 15.19 10.14
4/1/2021 1:30:00 AM 7.89 46.202 0.173 7.71 11.54 10.14
4/1/2021 1:45:00 AM 7.86 46.148 0.161 7.7 4.77 10.15
4/1/2021 2:00:00 AM 7.79 46.022 0.16 7.7 4.02 10.16
4/1/2021 2:15:00 AM 7.66 45.788 0.159 7.7 4.06 10.15
4/1/2021 2:30:00 AM 7.52 45.536 0.159 7.7 4.17 10.17
4/1/2021 2:45:00 AM 7.43 45.374 0.158 7.7 4.04 10.17
4/1/2021 3:00:00 AM 7.33 45.194 0.159 7.7 7.67 10.19
4/1/2021 3:15:00 AM 7.23 45.014 0.161 7.7 4.69 10.21
4/1/2021 3:30:00 AM 7.1 44.78 0.157 7.7 4.44 10.24
4/1/2021 3:45:00 AM 7.02 44.636 0.154 7.71 3.95 10.26
4/1/2021 4:00:00 AM 6.96 44.528 0.153 7.71 4.1 10.3
4/1/2021 4:15:00 AM 6.88 44.384 0.153 7.71 4.23 10.32
4/1/2021 4:30:00 AM 6.81 44.258 0.154 7.71 7.16 10.31
4/1/2021 4:45:00 AM 6.73 44.114 0.153 7.71 4.41 10.36
4/1/2021 5:00:00 AM 6.64 43.952 0.152 7.71 5.95 10.4
4/1/2021 5:15:00 AM 6.57 43.826 0.154 7.71 6.06 10.42
4/1/2021 5:30:00 AM 6.48 43.664 0.151 7.7 4.51 10.43
4/1/2021 5:45:00 AM 6.37 43.466 0.153 7.7 4.52 10.45
4/1/2021 6:00:00 AM 6.28 43.304 0.156 7.71 9.43 10.51
4/1/2021 6:15:00 AM 6.2 43.16 0.156 7.71 4.62 10.55
4/1/2021 6:30:00 AM 6.13 43.034 0.158 7.71 4.62 10.57
4/1/2021 6:45:00 AM 6.07 42.926 0.159 7.71 12.61 10.6
4/1/2021 7:00:00 AM 6.02 42.836 0.156 7.71 7.32 10.64
4/1/2021 7:15:00 AM 5.97 42.746 0.154 7.7 9.17 10.63
4/1/2021 7:30:00 AM 5.93 42.674 0.152 7.7 4.57 10.69
4/1/2021 7:45:00 AM 5.91 42.638 0.152 7.71 4.2 10.75
4/1/2021 8:00:00 AM 5.89 42.602 0.153 7.72 12.72 10.79
4/1/2021 8:15:00 AM 5.86 42.548 0.15 7.72 4.7 10.86
4/1/2021 8:30:00 AM 5.85 42.53 0.151 7.73 6.11 10.94
4/1/2021 8:45:00 AM 5.82 42.476 0.15 7.74 4.14 11.04
4/1/2021 9:00:00 AM 5.8 42.44 0.15 7.74 9.35 11.12
4/1/2021 9:15:00 AM 5.81 42.458 0.15 7.75 6.04 11.24
4/1/2021 9:30:00 AM 5.85 42.53 0.148 7.76 4.6 11.35
4/1/2021 9:45:00 AM 5.88 42.584 0.148 7.78 10.37 11.48
4/1/2021 10:00:00 AM 5.95 42.71 0.148 7.79 6.06 11.56
4/1/2021 10:15:00 AM 6 42.8 0.147 7.81 4.14 11.67
4/1/2021 10:30:00 AM 6.06 42.908 0.149 7.81 11 11.78
4/1/2021 10:45:00 AM 6.04 42.872 0.146 7.83 3.94 11.87
4/1/2021 11:00:00 AM 6.11 42.998 0.146 7.84 4.01 11.91
4/1/2021 11:15:00 AM 6.23 43.214 0.147 7.85 6.18 12.02
4/1/2021 11:30:00 AM 6.38 43.484 0.146 7.86 7 12.12
4/1/2021 11:45:00 AM 6.58 43.844 0.147 7.88 5.93 12.19
4/1/2021 12:00:00 PM 6.66 43.988 0.145 7.88 4.32 12.24
4/1/2021 12:15:00 PM 6.81 44.258 0.144 7.89 4.09 12.31
4/1/2021 12:30:00 PM 6.92 44.456 0.145 7.9 7.79 12.34
4/1/2021 12:45:00 PM 6.94 44.492 0.145 7.92 8.05 12.35
4/1/2021 1:00:00 PM 7.06 44.708 0.143 7.92 3.8 12.37
4/1/2021 1:15:00 PM 7.17 44.906 0.144 7.91 6.73 12.35
4/1/2021 1:30:00 PM 7.2 44.96 0.142 7.93 7.45 12.38
4/1/2021 1:45:00 PM 7.26 45.068 0.142 7.92 4.24 12.4
4/1/2021 2:00:00 PM 7.29 45.122 0.141 7.93 4.13 12.41
4/1/2021 2:15:00 PM 7.42 45.356 0.141 7.94 4.04 12.42
4/1/2021 2:30:00 PM 7.58 45.644 0.141 7.96 8.76 12.43
4/1/2021 2:45:00 PM 7.65 45.77 0.14 7.96 4.71 12.44
4/1/2021 3:00:00 PM 7.77 45.986 0.14 7.97 4.13 12.43
4/1/2021 3:15:00 PM 7.91 46.238 0.138 7.98 3.91 12.43
4/1/2021 3:30:00 PM 7.95 46.31 0.138 7.99 5 12.42
4/1/2021 3:45:00 PM 7.93 46.274 0.135 7.99 6.3 12.39
4/1/2021 4:00:00 PM 7.92 46.256 0.135 7.99 5.8 12.39
4/1/2021 4:15:00 PM 7.9 46.22 0.133 7.99 6.16 12.38
4/1/2021 4:30:00 PM 7.82 46.076 0.134 7.99 5.27 12.36
4/1/2021 4:45:00 PM 7.79 46.022 0.134 7.99 4.17 12.3
4/1/2021 5:00:00 PM 7.68 45.824 0.132 7.98 4.03 12.21
4/1/2021 5:15:00 PM 7.66 45.788 0.131 7.98 4.15 12.18
4/1/2021 5:30:00 PM 7.64 45.752 0.131 7.97 5.89 12.11
4/1/2021 5:45:00 PM 7.64 45.752 0.129 7.97 5.95 12.04
4/1/2021 6:00:00 PM 7.56 45.608 0.129 7.95 4.35 11.97
4/1/2021 6:15:00 PM 7.53 45.554 0.127 7.96 4.75 11.91
4/1/2021 6:30:00 PM 7.41 45.338 0.126 7.95 4.55 11.84
4/1/2021 6:45:00 PM 7.36 45.248 0.125 7.94 6.04 11.76
4/1/2021 7:00:00 PM 7.25 45.05 0.124 7.93 8.36 11.71
4/1/2021 7:15:00 PM 7.12 44.816 0.122 7.92 12.74 11.64
4/1/2021 7:30:00 PM 7.01 44.618 0.121 7.91 15.93 11.56
4/1/2021 7:45:00 PM 6.9 44.42 0.12 7.89 17.67 11.51
4/1/2021 8:00:00 PM 6.83 44.294 0.12 7.88 16.03 11.45
4/1/2021 8:15:00 PM 6.73 44.114 0.12 7.87 14.59 11.41
4/1/2021 8:30:00 PM 6.58 43.844 0.12 7.86 13.86 11.34
4/1/2021 8:45:00 PM 6.48 43.664 0.117 7.85 16.93 11.29
4/1/2021 9:00:00 PM 6.41 43.538 0.118 7.84 13.86 11.24
4/1/2021 9:15:00 PM 6.33 43.394 0.116 7.82 12.51 11.19
4/1/2021 9:30:00 PM 6.26 43.268 0.112 7.82 13.14 11.17
4/1/2021 9:45:00 PM 6.18 43.124 0.111 7.82 14.5 11.14
4/1/2021 10:00:00 PM 6.11 42.998 0.107 7.81 10.75 11.1
4/1/2021 10:15:00 PM 6.02 42.836 0.103 7.8 9.02 11.08
4/1/2021 10:30:00 PM 5.92 42.656 0.103 7.8 10.93 11.08
4/1/2021 10:45:00 PM 5.81 42.458 0.101 7.79 9.93 11.08
4/1/2021 11:00:00 PM 5.71 42.278 0.094 7.79 10.16 11.06
4/1/2021 11:15:00 PM 5.61 42.098 0.088 7.78 8.88 11.06
4/1/2021 11:30:00 PM 5.49 41.882 0.084 7.78 7.21 11.1
4/1/2021 11:45:00 PM 5.39 41.702 0.082 7.78 6.29 11.11
4/2/2021 12:00:00 AM 5.29 41.522 0.081 7.78 6.42 11.09
4/2/2021 12:15:00 AM 5.19 41.342 0.079 7.78 5.96 11.13
4/2/2021 12:30:00 AM 5.1 41.18 0.079 7.77 5.12 11.14
4/2/2021 12:45:00 AM 5.01 41.018 0.079 7.77 5.07 11.17
4/2/2021 1:00:00 AM 4.92 40.856 0.078 7.77 4.75 11.2
4/2/2021 1:15:00 AM 4.83 40.694 0.077 7.77 4.42 11.23
4/2/2021 1:30:00 AM 4.72 40.496 0.077 7.76 4.52 11.26
4/2/2021 1:45:00 AM 4.63 40.334 0.077 7.77 5.18 11.3
4/2/2021 2:00:00 AM 4.53 40.154 0.077 7.77 5.81 11.32
4/2/2021 2:15:00 AM 4.46 40.028 0.077 7.77 5.33 11.34
4/2/2021 2:30:00 AM 4.39 39.902 0.076 7.76 4.22 11.37
4/2/2021 2:45:00 AM 4.31 39.758 0.077 7.76 7.85 11.39
4/2/2021 3:00:00 AM 4.25 39.65 0.076 7.76 4.5 11.42
4/2/2021 3:15:00 AM 4.18 39.524 0.076 7.76 4.25 11.44
4/2/2021 3:30:00 AM 4.11 39.398 0.076 7.76 4.2 11.45
4/2/2021 3:45:00 AM 4.05 39.29 0.076 7.76 4.31 11.48
4/2/2021 4:00:00 AM 3.97 39.146 0.076 7.75 4.84 11.5
4/2/2021 4:15:00 AM 3.88 38.984 0.076 7.75 4.99 11.54
4/2/2021 4:30:00 AM 3.79 38.822 0.076 7.75 7.64 11.55
4/2/2021 4:45:00 AM 3.7 38.66 0.076 7.75 5.11 11.58
4/2/2021 5:00:00 AM 3.6 38.48 0.076 7.75 4.57 11.62
4/2/2021 5:15:00 AM 3.52 38.336 0.075 7.75 5.5 11.63
4/2/2021 5:30:00 AM 3.44 38.192 0.075 7.74 4.13 11.68
4/2/2021 5:45:00 AM 3.37 38.066 0.075 7.74 5.9 11.71
4/2/2021 6:00:00 AM 3.3 37.94 0.075 7.74 4.63 11.74
4/2/2021 6:15:00 AM 3.24 37.832 0.075 7.74 4.08 11.74
4/2/2021 6:30:00 AM 3.19 37.742 0.075 7.74 4.1 11.75
4/2/2021 6:45:00 AM 3.13 37.634 0.075 7.74 4.15 11.82
4/2/2021 7:00:00 AM 3.07 37.526 0.076 7.74 3.95 11.8
4/2/2021 7:15:00 AM 3.02 37.436 0.076 7.75 3.99 11.84
4/2/2021 7:30:00 AM 2.96 37.328 0.076 7.75 3.63 11.9
4/2/2021 7:45:00 AM 2.89 37.202 0.076 7.75 3.71 11.95
4/2/2021 8:00:00 AM 2.83 37.094 0.076 7.76 3.85 12
4/2/2021 8:15:00 AM 2.77 36.986 0.076 7.77 5.09 12.13
4/2/2021 8:30:00 AM 2.73 36.914 0.075 7.77 81.7 12.2
4/2/2021 8:45:00 AM 2.72 36.896 0.076 7.78 3.84 12.27
4/2/2021 9:00:00 AM 2.72 36.896 0.075 7.79 3.87 12.37
4/2/2021 9:15:00 AM 2.74 36.932 0.075 7.8 3.46 12.45
4/2/2021 9:30:00 AM 2.78 37.004 0.075 7.81 3.68 12.54
4/2/2021 9:45:00 AM 2.82 37.076 0.075 7.82 3.53 12.61
4/2/2021 10:00:00 AM 2.89 37.202 0.075 7.83 3.34 12.69
4/2/2021 10:15:00 AM 2.99 37.382 0.075 7.84 3.66 12.76
4/2/2021 10:30:00 AM 3.11 37.598 0.075 7.84 3.57 12.86
4/2/2021 10:45:00 AM 3.23 37.814 0.075 7.86 3.41 12.9
4/2/2021 11:00:00 AM 3.38 38.084 0.075 7.86 3.54 12.94
4/2/2021 11:15:00 AM 3.55 38.39 0.075 7.87 3.76 12.94
4/2/2021 11:30:00 AM 3.73 38.714 0.075 7.88 3.9 13.04
4/2/2021 11:45:00 AM 3.9 39.02 0.075 7.89 3.74 13.03
4/2/2021 12:00:00 PM 4.1 39.38 0.076 7.9 3.37 13.06
4/2/2021 12:15:00 PM 4.28 39.704 0.076 7.9 3.41 13.07
4/2/2021 12:30:00 PM 4.46 40.028 0.076 7.91 3.51 13.08
4/2/2021 12:45:00 PM 4.65 40.37 0.077 7.92 3.61 13.09
4/2/2021 1:00:00 PM 4.84 40.712 0.077 7.92 4.19 13.07
4/2/2021 1:15:00 PM 5.09 41.162 0.078 7.93 3.58 13.12
4/2/2021 1:30:00 PM 5.28 41.504 0.083 7.93 3.57 13.09
4/2/2021 1:45:00 PM 5.49 41.882 0.08 7.94 3.31 13.07
4/2/2021 2:00:00 PM 5.72 42.296 0.247 7.94 5.84 13.06
4/2/2021 2:15:00 PM 5.91 42.638 0.247 7.94 3.34 13.07
4/2/2021 2:30:00 PM 6.07 42.926 0.247 7.95 3.16 13.06
4/2/2021 2:45:00 PM 6.23 43.214 0.247 7.95 3.44 13.04
4/2/2021 3:00:00 PM 6.35 43.43 0.248 7.96 2.91 13.02
4/2/2021 3:15:00 PM 6.45 43.61 0.249 7.96 2.86 12.98
4/2/2021 3:30:00 PM 6.58 43.844 0.249 7.96 2.92 12.94
4/2/2021 3:45:00 PM 6.67 44.006 0.25 7.97 3.14 12.87
4/2/2021 4:00:00 PM 6.75 44.15 0.252 7.97 3.73 12.82
4/2/2021 4:15:00 PM 6.83 44.294 0.253 7.96 3.31 12.75
4/2/2021 4:30:00 PM 6.88 44.384 0.252 7.97 3.02 12.72
4/2/2021 4:45:00 PM 6.96 44.528 0.252 7.97 2.87 12.69
4/2/2021 5:00:00 PM 7.02 44.636 0.253 7.97 2.94 12.65
4/2/2021 5:15:00 PM 7.07 44.726 0.253 7.97 3.2 12.58
4/2/2021 5:30:00 PM 7.11 44.798 0.254 7.97 2.73 12.51
4/2/2021 5:45:00 PM 7.12 44.816 0.253 7.97 2.84 12.45
4/2/2021 6:00:00 PM 7.08 44.744 0.253 7.97 3.23 12.39
4/2/2021 6:15:00 PM 7.02 44.636 0.254 7.96 3.07 12.32
4/2/2021 6:30:00 PM 6.98 44.564 0.254 7.96 2.96 12.24
4/2/2021 6:45:00 PM 6.93 44.474 0.255 7.95 3.21 12.16
4/2/2021 7:00:00 PM 6.88 44.384 0.255 7.94 2.93 12.06
4/2/2021 7:15:00 PM 6.82 44.276 0.255 7.93 3.29 11.97
4/2/2021 7:30:00 PM 6.75 44.15 0.255 7.92 3.16 11.89
4/2/2021 7:45:00 PM 6.68 44.024 0.255 7.9 3.02 11.79
4/2/2021 8:00:00 PM 6.59 43.862 0.254 7.89 2.85 11.7
4/2/2021 8:15:00 PM 6.52 43.736 0.254 7.88 3.29 11.63
4/2/2021 8:30:00 PM 6.44 43.592 0.253 7.87 3.15 11.55
4/2/2021 8:45:00 PM 6.35 43.43 0.253 7.86 3.05 11.48
4/2/2021 9:00:00 PM 6.27 43.286 0.253 7.85 3.14 11.43
4/2/2021 9:15:00 PM 6.19 43.142 0.254 7.84 3.27 11.38
4/2/2021 9:30:00 PM 6.12 43.016 0.254 7.83 3.23 11.33
4/2/2021 9:45:00 PM 6.04 42.872 0.254 7.82 3.51 11.3
4/2/2021 10:00:00 PM 5.96 42.728 0.254 7.82 3.33 11.26
4/2/2021 10:15:00 PM 5.87 42.566 0.254 7.81 3.25 11.23
4/2/2021 10:30:00 PM 5.78 42.404 0.254 7.81 3.74 11.23
4/2/2021 10:45:00 PM 5.69 42.242 0.254 7.8 3.21 11.21
4/2/2021 11:00:00 PM 5.6 42.08 0.255 7.8 3.13 11.19
4/2/2021 11:15:00 PM 5.51 41.918 0.255 7.79 3.18 11.19
4/2/2021 11:30:00 PM 5.42 41.756 0.255 7.79 3.45 11.19
4/2/2021 11:45:00 PM 5.34 41.612 0.255 7.78 3.39 11.18
4/3/2021 12:00:00 AM 5.26 41.468 0.255 7.78 3.68 11.18
4/3/2021 12:15:00 AM 5.19 41.342 0.255 7.78 3.62 11.18
4/3/2021 12:30:00 AM 5.12 41.216 0.255 7.78 4.42 11.19
4/3/2021 12:45:00 AM 5.04 41.072 0.254 7.77 3.32 11.2
4/3/2021 1:00:00 AM 4.97 40.946 0.254 7.77 3.35 11.2
4/3/2021 1:15:00 AM 4.9 40.82 0.254 7.77 3.25 11.22
4/3/2021 1:30:00 AM 4.82 40.676 0.253 7.77 3.35 11.24
4/3/2021 1:45:00 AM 4.75 40.55 0.253 7.77 3.26 11.25
4/3/2021 2:00:00 AM 4.67 40.406 0.252 7.76 2.97 11.26
4/3/2021 2:15:00 AM 4.58 40.244 0.252 7.76 3.01 11.28
4/3/2021 2:30:00 AM 4.5 40.1 0.252 7.76 3.27 11.31
4/3/2021 2:45:00 AM 4.41 39.938 0.251 7.76 3.14 11.34
4/3/2021 3:00:00 AM 4.33 39.794 0.252 7.76 3.17 11.36
4/3/2021 3:15:00 AM 4.23 39.614 0.251 7.76 3.39 11.39
4/3/2021 3:30:00 AM 4.14 39.452 0.251 7.76 3.11 11.42
4/3/2021 3:45:00 AM 4.05 39.29 0.252 7.76 3.45 11.45
4/3/2021 4:00:00 AM 3.95 39.11 0.251 7.76 3.16 11.49
4/3/2021 4:15:00 AM 3.86 38.948 0.251 7.76 3.4 11.51
4/3/2021 4:30:00 AM 3.76 38.768 0.251 7.75 3.3 11.54
4/3/2021 4:45:00 AM 3.67 38.606 0.251 7.75 3.31 11.58
4/3/2021 5:00:00 AM 3.58 38.444 0.251 7.75 3.2 11.62
4/3/2021 5:15:00 AM 3.49 38.282 0.251 7.76 3.37 11.65
4/3/2021 5:30:00 AM 3.4 38.12 0.251 7.75 3.64 11.67
4/3/2021 5:45:00 AM 3.31 37.958 0.251 7.75 3.42 11.72
4/3/2021 6:00:00 AM 3.23 37.814 0.251 7.75 3.41 11.74
4/3/2021 6:15:00 AM 3.15 37.67 0.251 7.75 3.93 11.78
4/3/2021 6:30:00 AM 3.07 37.526 0.252 7.75 3.29 11.79
4/3/2021 6:45:00 AM 2.99 37.382 0.252 7.75 3.13 11.82
4/3/2021 7:00:00 AM 2.92 37.256 0.252 7.75 4.15 11.85
4/3/2021 7:15:00 AM 2.85 37.13 0.252 7.76 3.31 11.89
4/3/2021 7:30:00 AM 2.81 37.058 0.254 7.76 3.32 11.95
4/3/2021 7:45:00 AM 2.76 36.968 0.253 7.76 3.91 12.01
4/3/2021 8:00:00 AM 2.72 36.896 0.254 7.77 3.16 12.09
4/3/2021 8:15:00 AM 2.7 36.86 0.254 7.77 3.27 12.16
4/3/2021 8:30:00 AM 2.71 36.878 0.255 7.78 3.6 12.24
4/3/2021 8:45:00 AM 2.71 36.878 0.254 7.79 3.35 12.32
4/3/2021 9:00:00 AM 2.76 36.968 0.257 7.8 3.24 12.4
4/3/2021 9:15:00 AM 2.82 37.076 0.256 7.8 3.2 12.46
4/3/2021 9:30:00 AM 2.9 37.22 0.255 7.81 3.42 12.52
4/3/2021 9:45:00 AM 2.98 37.364 0.259 7.81 7.05 12.61
4/3/2021 10:00:00 AM 3.09 37.562 0.257 7.82 3.95 12.69
4/3/2021 10:15:00 AM 3.2 37.76 0.257 7.83 3.07 12.75
4/3/2021 10:30:00 AM 3.34 38.012 0.257 7.84 3.43 12.83
4/3/2021 10:45:00 AM 3.5 38.3 0.258 7.85 3.05 12.87
4/3/2021 11:00:00 AM 3.67 38.606 0.258 7.86 3.25 12.93
4/3/2021 11:15:00 AM 3.86 38.948 0.258 7.87 3.03 12.98
4/3/2021 11:30:00 AM 4.08 39.344 0.26 7.87 5.54 12.99
4/3/2021 11:45:00 AM 4.3 39.74 0.26 7.88 3.29 13.01
4/3/2021 12:00:00 PM 4.53 40.154 0.26 7.89 2.84 13.05
4/3/2021 12:15:00 PM 4.79 40.622 0.26 7.89 3.05 13.04
4/3/2021 12:30:00 PM 5.04 41.072 0.26 7.9 2.81 13.06
4/3/2021 12:45:00 PM 5.31 41.558 0.261 7.91 2.83 13.06
4/3/2021 1:00:00 PM 5.56 42.008 0.259 7.92 2.65 13.07
4/3/2021 1:15:00 PM 5.83 42.494 0.261 7.91 2.89 13.04
4/3/2021 1:30:00 PM 6.08 42.944 0.262 7.92 2.83 13.03
4/3/2021 1:45:00 PM 6.32 43.376 0.261 7.92 2.62 13.01
4/3/2021 2:00:00 PM 6.56 43.808 0.261 7.92 6.02 12.96
4/3/2021 2:15:00 PM 6.79 44.222 0.262 7.93 2.88 12.94
4/3/2021 2:30:00 PM 7 44.6 0.263 7.93 2.99 12.91
4/3/2021 2:45:00 PM 7.13 44.834 0.262 7.94 2.63 12.9
4/3/2021 3:00:00 PM 7.26 45.068 0.264 7.94 3.09 12.85
4/3/2021 3:15:00 PM 7.39 45.302 0.262 7.95 2.84 12.85
4/3/2021 3:30:00 PM 7.53 45.554 0.264 7.95 2.89 12.79
4/3/2021 3:45:00 PM 7.58 45.644 0.263 7.95 3.03 12.75
4/3/2021 4:00:00 PM 7.62 45.716 0.263 7.95 3.06 12.71
4/3/2021 4:15:00 PM 7.68 45.824 0.263 7.96 2.58 12.68
4/3/2021 4:30:00 PM 7.77 45.986 0.264 7.96 2.79 12.62
4/3/2021 4:45:00 PM 7.82 46.076 0.262 7.97 2.65 12.58
4/3/2021 5:00:00 PM 7.88 46.184 0.263 7.97 2.82 12.52
4/3/2021 5:15:00 PM 7.96 46.328 0.263 7.97 2.95 12.48
4/3/2021 5:30:00 PM 8 46.4 0.262 7.97 2.77 12.42
4/3/2021 5:45:00 PM 8.07 46.526 0.263 7.96 2.6 12.36
4/3/2021 6:00:00 PM 8.1 46.58 0.262 7.96 2.75 12.29
4/3/2021 6:15:00 PM 8.11 46.598 0.262 7.96 2.94 12.22
4/3/2021 6:30:00 PM 8.11 46.598 0.262 7.95 2.75 12.12
4/3/2021 6:45:00 PM 8.08 46.544 0.262 7.94 2.89 12.02
4/3/2021 7:00:00 PM 8.04 46.472 0.262 7.93 3.48 11.92
4/3/2021 7:15:00 PM 8 46.4 0.262 7.92 3.46 11.8
4/3/2021 7:30:00 PM 7.95 46.31 0.263 7.9 2.88 11.68
4/3/2021 7:45:00 PM 7.92 46.256 0.262 7.89 3.23 11.55
4/3/2021 8:00:00 PM 7.89 46.202 0.263 7.88 2.79 11.45
4/3/2021 8:15:00 PM 7.85 46.13 0.262 7.86 2.97 11.34
4/3/2021 8:30:00 PM 7.82 46.076 0.262 7.85 2.77 11.24
4/3/2021 8:45:00 PM 7.8 46.04 0.263 7.84 2.66 11.14
4/3/2021 9:00:00 PM 7.77 45.986 0.263 7.83 3.09 11.05
4/3/2021 9:15:00 PM 7.75 45.95 0.263 7.82 3.07 10.97
4/3/2021 9:30:00 PM 7.73 45.914 0.264 7.81 2.8 10.9
4/3/2021 9:45:00 PM 7.7 45.86 0.264 7.8 3.18 10.84
4/3/2021 10:00:00 PM 7.66 45.788 0.264 7.8 2.88 10.79
4/3/2021 10:15:00 PM 7.62 45.716 0.264 7.79 3.34 10.73
4/3/2021 10:30:00 PM 7.57 45.626 0.265 7.78 2.79 10.7
4/3/2021 10:45:00 PM 7.51 45.518 0.264 7.78 3.26 10.66
4/3/2021 11:00:00 PM 7.47 45.446 0.264 7.77 3.13 10.64
4/3/2021 11:15:00 PM 7.42 45.356 0.264 7.77 3.1 10.61
4/3/2021 11:30:00 PM 7.39 45.302 0.264 7.76 2.87 10.59
4/3/2021 11:45:00 PM 7.35 45.23 0.264 7.76 3 10.55
4/4/2021 12:00:00 AM 7.32 45.176 0.264 7.75 2.94 10.54
4/4/2021 12:15:00 AM 7.29 45.122 0.264 7.75 2.98 10.52
4/4/2021 12:30:00 AM 7.26 45.068 0.264 7.75 3.17 10.52
4/4/2021 12:45:00 AM 7.24 45.032 0.264 7.74 2.96 10.5
4/4/2021 1:00:00 AM 7.21 44.978 0.264 7.74 3.1 10.5
4/4/2021 1:15:00 AM 7.19 44.942 0.263 7.74 2.8 10.49
4/4/2021 1:30:00 AM 7.16 44.888 0.264 7.74 3.2 10.48
4/4/2021 1:45:00 AM 7.13 44.834 0.263 7.74 3.03 10.49
4/4/2021 2:00:00 AM 7.1 44.78 0.263 7.74 3.28 10.47
4/4/2021 2:15:00 AM 7.06 44.708 0.264 7.73 3.03 10.47
4/4/2021 2:30:00 AM 7.03 44.654 0.263 7.73 2.91 10.47
4/4/2021 2:45:00 AM 6.99 44.582 0.263 7.73 3.16 10.48
4/4/2021 3:00:00 AM 6.95 44.51 0.263 7.73 3.38 10.48
4/4/2021 3:15:00 AM 6.91 44.438 0.264 7.73 3.38 10.48
4/4/2021 3:30:00 AM 6.87 44.366 0.263 7.73 3.26 10.49
4/4/2021 3:45:00 AM 6.83 44.294 0.262 7.72 3.38 10.5
4/4/2021 4:00:00 AM 6.79 44.222 0.262 7.73 3.28 10.51
4/4/2021 4:15:00 AM 6.75 44.15 0.262 7.72 3.51 10.52
4/4/2021 4:30:00 AM 6.7 44.06 0.263 7.72 4.09 10.53
4/4/2021 4:45:00 AM 6.66 43.988 0.262 7.72 3.25 10.53
4/4/2021 5:00:00 AM 6.62 43.916 0.262 7.72 3.03 10.54
4/4/2021 5:15:00 AM 6.57 43.826 0.262 7.72 5.1 10.55
4/4/2021 5:30:00 AM 6.54 43.772 0.263 7.72 3.44 10.55
4/4/2021 5:45:00 AM 6.49 43.682 0.263 7.72 3.47 10.56
4/4/2021 6:00:00 AM 6.44 43.592 0.263 7.72 3.69 10.59
4/4/2021 6:15:00 AM 6.4 43.52 0.263 7.72 3.55 10.59
4/4/2021 6:30:00 AM 6.36 43.448 0.263 7.72 4.03 10.6
4/4/2021 6:45:00 AM 6.31 43.358 0.263 7.71 3.97 10.61
4/4/2021 7:00:00 AM 6.27 43.286 0.263 7.72 3.14 10.63
4/4/2021 7:15:00 AM 6.23 43.214 0.263 7.72 3.51 10.65
4/4/2021 7:30:00 AM 6.19 43.142 0.263 7.72 3.35 10.7
4/4/2021 7:45:00 AM 6.14 43.052 0.263 7.72 3.06 10.74
4/4/2021 8:00:00 AM 6.11 42.998 0.263 7.72 2.85 10.78
4/4/2021 8:15:00 AM 6.09 42.962 0.263 7.73 3.07 10.89
4/4/2021 8:30:00 AM 6.08 42.944 0.263 7.74 3.06 10.97
4/4/2021 8:45:00 AM 6.09 42.962 0.263 7.75 9.35 11.05
4/4/2021 9:00:00 AM 6.11 42.998 0.263 7.76 5.67 11.15
4/4/2021 9:15:00 AM 6.16 43.088 0.264 7.77 7.48 11.26
4/4/2021 9:30:00 AM 6.23 43.214 0.263 7.78 3.02 11.38
4/4/2021 9:45:00 AM 6.31 43.358 0.263 7.79 3.01 11.49
4/4/2021 10:00:00 AM 6.41 43.538 0.264 7.8 2.92 11.57
4/4/2021 10:15:00 AM 6.52 43.736 0.263 7.81 2.72 11.67
4/4/2021 10:30:00 AM 6.65 43.97 0.263 7.83 2.84 11.75
4/4/2021 10:45:00 AM 6.8 44.24 0.263 7.84 2.91 11.85
4/4/2021 11:00:00 AM 6.96 44.528 0.264 7.85 3.13 11.91
4/4/2021 11:15:00 AM 7.13 44.834 0.264 7.86 2.79 11.97
4/4/2021 11:30:00 AM 7.32 45.176 0.263 7.88 3.03 12.05
4/4/2021 11:45:00 AM 7.52 45.536 0.264 7.88 3.03 12.09
4/4/2021 12:00:00 PM 7.74 45.932 0.264 7.9 3.21 12.16
4/4/2021 12:15:00 PM 7.97 46.346 0.263 7.91 2.88 12.19
4/4/2021 12:30:00 PM 8.21 46.778 0.264 7.91 2.87 12.22
4/4/2021 12:45:00 PM 8.45 47.21 0.263 7.92 2.63 12.24
4/4/2021 1:00:00 PM 8.69 47.642 0.264 7.93 2.66 12.24
4/4/2021 1:15:00 PM 8.92 48.056 0.264 7.94 3.39 12.26
4/4/2021 1:30:00 PM 9.15 48.47 0.263 7.95 2.62 12.26
4/4/2021 1:45:00 PM 9.36 48.848 0.263 7.95 2.56 12.26
4/4/2021 2:00:00 PM 9.59 49.262 0.263 7.96 3.17 12.23
4/4/2021 2:15:00 PM 9.8 49.64 0.263 7.97 2.96 12.23
4/4/2021 2:30:00 PM 10 50 0.264 7.97 2.88 12.2
4/4/2021 2:45:00 PM 10.18 50.324 0.264 7.98 3.77 12.18
4/4/2021 3:00:00 PM 10.36 50.648 0.264 7.99 2.6 12.16
4/4/2021 3:15:00 PM 10.47 50.846 0.264 7.99 3.22 12.1
4/4/2021 3:30:00 PM 10.56 51.008 0.264 7.99 2.96 12.05
4/4/2021 3:45:00 PM 10.68 51.224 0.264 7.99 3.12 12
4/4/2021 4:00:00 PM 10.76 51.368 0.264 7.99 2.83 11.95
4/4/2021 4:15:00 PM 10.82 51.476 0.264 7.99 3.04 11.88
4/4/2021 4:30:00 PM 10.87 51.566 0.265 7.99 3.06 11.82
4/4/2021 4:45:00 PM 10.95 51.71 0.264 7.99 2.92 11.78
4/4/2021 5:00:00 PM 10.99 51.782 0.265 7.99 2.74 11.71
4/4/2021 5:15:00 PM 11.03 51.854 0.264 7.99 2.98 11.65
4/4/2021 5:30:00 PM 11.06 51.908 0.265 7.98 2.71 11.56
4/4/2021 5:45:00 PM 11.08 51.944 0.265 7.98 3.04 11.52
4/4/2021 6:00:00 PM 11.08 51.944 0.266 7.98 2.67 11.44
4/4/2021 6:15:00 PM 11.06 51.908 0.266 7.97 2.71 11.35
4/4/2021 6:30:00 PM 11.02 51.836 0.267 7.96 3.02 11.23
4/4/2021 6:45:00 PM 10.96 51.728 0.268 7.95 3 11.13
4/4/2021 7:00:00 PM 10.89 51.602 0.268 7.94 3.31 11.02
4/4/2021 7:15:00 PM 10.83 51.494 0.268 7.93 3.22 10.88
4/4/2021 7:30:00 PM 10.74 51.332 0.27 7.91 3.31 10.77
4/4/2021 7:45:00 PM 10.67 51.206 0.269 7.89 3.27 10.64
4/4/2021 8:00:00 PM 10.58 51.044 0.27 7.88 3.06 10.54
4/4/2021 8:15:00 PM 10.48 50.864 0.271 7.86 3.46 10.41
4/4/2021 8:30:00 PM 10.36 50.648 0.271 7.85 3.64 10.32
4/4/2021 8:45:00 PM 10.25 50.45 0.272 7.84 3.27 10.24
4/4/2021 9:00:00 PM 10.14 50.252 0.271 7.82 3.3 10.15
4/4/2021 9:15:00 PM 10.02 50.036 0.272 7.81 3.33 10.09
4/4/2021 9:30:00 PM 9.91 49.838 0.273 7.8 3.38 10.03
4/4/2021 9:45:00 PM 9.8 49.64 0.273 7.79 3.48 9.98
4/4/2021 10:00:00 PM 9.69 49.442 0.274 7.79 3.32 9.94
4/4/2021 10:15:00 PM 9.59 49.262 0.274 7.78 3.54 9.91
4/4/2021 10:30:00 PM 9.49 49.082 0.274 7.77 2.97 9.88
4/4/2021 10:45:00 PM 9.39 48.902 0.274 7.76 3.5 9.85
4/4/2021 11:00:00 PM 9.29 48.722 0.274 7.76 3.23 9.83
4/4/2021 11:15:00 PM 9.18 48.524 0.274 7.75 3.61 9.81
4/4/2021 11:30:00 PM 9.08 48.344 0.276 7.75 3.2 9.79
4/4/2021 11:45:00 PM 8.97 48.146 0.275 7.75 3.28 9.79
4/5/2021 12:00:00 AM 8.88 47.984 0.276 7.74 3.36 9.78
4/5/2021 12:15:00 AM 8.78 47.804 0.275 7.74 3.36 9.78
4/5/2021 12:30:00 AM 8.69 47.642 0.276 7.74 3.43 9.78
4/5/2021 12:45:00 AM 8.6 47.48 0.276 7.74 3.37 9.79
4/5/2021 1:00:00 AM 8.51 47.318 0.277 7.73 3.17 9.8
4/5/2021 1:15:00 AM 8.43 47.174 0.277 7.73 3.34 9.79
4/5/2021 1:30:00 AM 8.35 47.03 0.278 7.73 3.26 9.81
4/5/2021 1:45:00 AM 8.26 46.868 0.278 7.73 3.5 9.82
4/5/2021 2:00:00 AM 8.18 46.724 0.278 7.73 3.29 9.82
4/5/2021 2:15:00 AM 8.09 46.562 0.279 7.73 3.82 9.84
4/5/2021 2:30:00 AM 8 46.4 0.279 7.73 3.36 9.86
4/5/2021 2:45:00 AM 7.92 46.256 0.279 7.73 3.37 9.88
4/5/2021 3:00:00 AM 7.83 46.094 0.279 7.73 3.3 9.89
4/5/2021 3:15:00 AM 7.75 45.95 0.279 7.73 4.02 9.91
4/5/2021 3:30:00 AM 7.66 45.788 0.279 7.73 3.25 9.93
4/5/2021 3:45:00 AM 7.57 45.626 0.279 7.73 3.46 9.96
4/5/2021 4:00:00 AM 7.48 45.464 0.278 7.73 3.59 9.98
4/5/2021 4:15:00 AM 7.39 45.302 0.278 7.73 3.6 10.01
4/5/2021 4:30:00 AM 7.31 45.158 0.279 7.73 3.97 10.03
4/5/2021 4:45:00 AM 7.22 44.996 0.279 7.73 4.18 10.06
4/5/2021 5:00:00 AM 7.14 44.852 0.279 7.73 3.71 10.08
4/5/2021 5:15:00 AM 7.05 44.69 0.278 7.73 3.43 10.1
4/5/2021 5:30:00 AM 6.98 44.564 0.278 7.73 3.54 10.14
4/5/2021 5:45:00 AM 6.9 44.42 0.279 7.73 4.08 10.16
4/5/2021 6:00:00 AM 6.82 44.276 0.279 7.72 4.08 10.17
4/5/2021 6:15:00 AM 6.74 44.132 0.278 7.73 4.18 10.21
4/5/2021 6:30:00 AM 6.66 43.988 0.28 7.73 3.83 10.21
4/5/2021 6:45:00 AM 6.58 43.844 0.279 7.73 3.48 10.27
4/5/2021 7:00:00 AM 6.51 43.718 0.28 7.73 3.62 10.29
4/5/2021 7:15:00 AM 6.44 43.592 0.28 7.73 3.52 10.34
4/5/2021 7:30:00 AM 6.38 43.484 0.28 7.73 3.35 10.41
4/5/2021 7:45:00 AM 6.31 43.358 0.28 7.74 3.81 10.48
4/5/2021 8:00:00 AM 6.27 43.286 0.281 7.75 3.8 10.56
4/5/2021 8:15:00 AM 6.24 43.232 0.28 7.75 3.68 10.66
4/5/2021 8:30:00 AM 6.24 43.232 0.28 7.76 3.18 10.77
4/5/2021 8:45:00 AM 6.24 43.232 0.28 7.77 3.52 10.88
4/5/2021 9:00:00 AM 6.27 43.286 0.28 7.78 3.37 10.97
4/5/2021 9:15:00 AM 6.32 43.376 0.281 7.79 3.44 11.09
4/5/2021 9:30:00 AM 6.38 43.484 0.28 7.8 3.08 11.2
4/5/2021 9:45:00 AM 6.45 43.61 0.28 7.81 3.05 11.32
4/5/2021 10:00:00 AM 6.56 43.808 0.28 7.82 3.3 11.4
4/5/2021 10:15:00 AM 6.66 43.988 0.28 7.83 2.96 11.51
4/5/2021 10:30:00 AM 6.79 44.222 0.281 7.85 3.23 11.6
4/5/2021 10:45:00 AM 6.93 44.474 0.28 7.86 2.93 11.68
4/5/2021 11:00:00 AM 7.09 44.762 0.28 7.87 2.9 11.77
4/5/2021 11:15:00 AM 7.25 45.05 0.28 7.88 3.08 11.85
4/5/2021 11:30:00 AM 7.45 45.41 0.28 7.89 2.84 11.92
4/5/2021 11:45:00 AM 7.65 45.77 0.28 7.9 2.84 11.98
4/5/2021 12:00:00 PM 7.87 46.166 0.28 7.91 2.92 12.02
4/5/2021 12:15:00 PM 8.11 46.598 0.281 7.92 3.08 12.06
4/5/2021 12:30:00 PM 8.36 47.048 0.279 7.93 2.71 12.11
4/5/2021 12:45:00 PM 8.61 47.498 0.28 7.94 2.71 12.12
4/5/2021 1:00:00 PM 8.86 47.948 0.28 7.95 2.61 12.15
4/5/2021 1:15:00 PM 9.1 48.38 0.28 7.95 2.71 12.16
4/5/2021 1:30:00 PM 9.34 48.812 0.28 7.96 2.6 12.16
4/5/2021 1:45:00 PM 9.56 49.208 0.28 7.97 2.68 12.15
4/5/2021 2:00:00 PM 9.78 49.604 0.28 7.97 4.42 12.15
4/5/2021 2:15:00 PM 10 50 0.28 7.98 2.68 12.14
4/5/2021 2:30:00 PM 10.2 50.36 0.28 7.99 3 12.13
4/5/2021 2:45:00 PM 10.39 50.702 0.279 7.99 3.12 12.08
4/5/2021 3:00:00 PM 10.55 50.99 0.28 7.99 2.83 12.08
4/5/2021 3:15:00 PM 10.7 51.26 0.279 8 3.17 12.06
4/5/2021 3:30:00 PM 10.82 51.476 0.28 8.01 2.68 12.04
4/5/2021 3:45:00 PM 10.91 51.638 0.28 8.01 3.03 11.97
4/5/2021 4:00:00 PM 10.99 51.782 0.28 8.01 3.1 11.94
4/5/2021 4:15:00 PM 11.04 51.872 0.28 8.02 3 11.92
4/5/2021 4:30:00 PM 11.09 51.962 0.28 8.02 2.72 11.87
4/5/2021 4:45:00 PM 11.12 52.016 0.279 8.02 2.77 11.8
4/5/2021 5:00:00 PM 11.12 52.016 0.28 8.02 3.05 11.75
4/5/2021 5:15:00 PM 11.12 52.016 0.279 8.02 2.78 11.69
4/5/2021 5:30:00 PM 11.1 51.98 0.279 8.01 2.77 11.61
4/5/2021 5:45:00 PM 11.09 51.962 0.28 8.01 2.86 11.54
4/5/2021 6:00:00 PM 11.09 51.962 0.28 8 3.01 11.47
4/5/2021 6:15:00 PM 11.05 51.89 0.28 8 3.18 11.36
4/5/2021 6:30:00 PM 10.99 51.782 0.281 7.98 3.22 11.25
4/5/2021 6:45:00 PM 10.95 51.71 0.281 7.98 3.12 11.15
4/5/2021 7:00:00 PM 10.89 51.602 0.282 7.96 3.63 11.02
4/5/2021 7:15:00 PM 10.84 51.512 0.282 7.95 3.14 10.93
4/5/2021 7:30:00 PM 10.78 51.404 0.282 7.94 3.12 10.79
4/5/2021 7:45:00 PM 10.72 51.296 0.283 7.92 3.05 10.63
4/5/2021 8:00:00 PM 10.65 51.17 0.284 7.9 2.94 10.52
4/5/2021 8:15:00 PM 10.6 51.08 0.283 7.89 2.93 10.37
4/5/2021 8:30:00 PM 10.53 50.954 0.284 7.87 3.51 10.26
4/5/2021 8:45:00 PM 10.47 50.846 0.285 7.86 3.26 10.15
4/5/2021 9:00:00 PM 10.4 50.72 0.285 7.84 3.17 10.06
4/5/2021 9:15:00 PM 10.33 50.594 0.286 7.84 3.39 9.99
4/5/2021 9:30:00 PM 10.25 50.45 0.286 7.83 3.24 9.92
4/5/2021 9:45:00 PM 10.16 50.288 0.288 7.82 3.1 9.86
4/5/2021 10:00:00 PM 10.07 50.126 0.288 7.81 3.2 9.81
4/5/2021 10:15:00 PM 9.98 49.964 0.288 7.8 3.31 9.74
4/5/2021 10:30:00 PM 9.88 49.784 0.289 7.79 3.51 9.73
4/5/2021 10:45:00 PM 9.78 49.604 0.289 7.78 3.16 9.68
4/5/2021 11:00:00 PM 9.68 49.424 0.29 7.78 3.12 9.65
4/5/2021 11:15:00 PM 9.57 49.226 0.29 7.77 3.23 9.64
4/5/2021 11:30:00 PM 9.46 49.028 0.29 7.77 3.12 9.61
4/5/2021 11:45:00 PM 9.35 48.83 0.291 7.76 3.33 9.59
4/6/2021 12:00:00 AM 9.25 48.65 0.291 7.76 3.22 9.59
4/6/2021 12:15:00 AM 9.16 48.488 0.291 7.76 3.31 9.58
4/6/2021 12:30:00 AM 9.07 48.326 0.292 7.75 3.08 9.57
4/6/2021 12:45:00 AM 8.98 48.164 0.292 7.75 2.98 9.59
4/6/2021 1:00:00 AM 8.89 48.002 0.292 7.75 3.5 9.58
4/6/2021 1:15:00 AM 8.8 47.84 0.293 7.75 3.56 9.59
4/6/2021 1:30:00 AM 8.71 47.678 0.293 7.75 3.65 9.59
4/6/2021 1:45:00 AM 8.62 47.516 0.292 7.75 3.26 9.61
4/6/2021 2:00:00 AM 8.53 47.354 0.292 7.75 3.24 9.62
4/6/2021 2:15:00 AM 8.44 47.192 0.292 7.75 3.62 9.65
4/6/2021 2:30:00 AM 8.35 47.03 0.293 7.74 3.53 9.66
4/6/2021 2:45:00 AM 8.27 46.886 0.293 7.74 3.14 9.68
4/6/2021 3:00:00 AM 8.18 46.724 0.293 7.74 3.48 9.68
4/6/2021 3:15:00 AM 8.1 46.58 0.294 7.74 3.25 9.7
4/6/2021 3:30:00 AM 8.01 46.418 0.293 7.74 3.14 9.73
4/6/2021 3:45:00 AM 7.93 46.274 0.293 7.75 3.15 9.74
4/6/2021 4:00:00 AM 7.84 46.112 0.294 7.74 3.26 9.75
4/6/2021 4:15:00 AM 7.75 45.95 0.293 7.74 3.71 9.8
4/6/2021 4:30:00 AM 7.67 45.806 0.294 7.74 3.52 9.8
4/6/2021 4:45:00 AM 7.57 45.626 0.293 7.74 3.3 9.82
4/6/2021 5:00:00 AM 7.48 45.464 0.294 7.75 3.23 9.87
4/6/2021 5:15:00 AM 7.4 45.32 0.294 7.74 3.47 9.88
4/6/2021 5:30:00 AM 7.3 45.14 0.293 7.75 3.54 9.91
4/6/2021 5:45:00 AM 7.22 44.996 0.293 7.75 3.75 9.94
4/6/2021 6:00:00 AM 7.13 44.834 0.293 7.75 3.16 9.97
4/6/2021 6:15:00 AM 7.05 44.69 0.293 7.74 3.79 9.97
4/6/2021 6:30:00 AM 6.96 44.528 0.293 7.74 6 10
4/6/2021 6:45:00 AM 6.87 44.366 0.293 7.74 3.78 10.03
4/6/2021 7:00:00 AM 6.8 44.24 0.293 7.75 3.23 10.07
4/6/2021 7:15:00 AM 6.72 44.096 0.293 7.75 4.04 10.15
4/6/2021 7:30:00 AM 6.66 43.988 0.293 7.75 9.2 10.21
4/6/2021 7:45:00 AM 6.6 43.88 0.293 7.75 4 10.27
4/6/2021 8:00:00 AM 6.55 43.79 0.292 7.76 3.63 10.37
4/6/2021 8:15:00 AM 6.53 43.754 0.293 7.77 4.38 10.45
4/6/2021 8:30:00 AM 6.51 43.718 0.292 7.78 3.36 10.55
4/6/2021 8:45:00 AM 6.52 43.736 0.292 7.78 3.67 10.65
4/6/2021 9:00:00 AM 6.54 43.772 0.292 7.79 3.6 10.79
4/6/2021 9:15:00 AM 6.6 43.88 0.292 7.81 3.91 10.91
4/6/2021 9:30:00 AM 6.68 44.024 0.293 7.82 3.46 11.02
4/6/2021 9:45:00 AM 6.77 44.186 0.292 7.82 3.4 11.14
4/6/2021 10:00:00 AM 6.89 44.402 0.292 7.83 3.49 11.23
4/6/2021 10:15:00 AM 7.01 44.618 0.292 7.84 3.02 11.33
4/6/2021 10:30:00 AM 7.14 44.852 0.292 7.86 3.38 11.43
4/6/2021 10:45:00 AM 7.29 45.122 0.292 7.85 3.03 11.47
4/6/2021 11:00:00 AM 7.46 45.428 0.293 7.86 3.84 11.57
4/6/2021 11:15:00 AM 7.62 45.716 0.292 7.89 3.08 11.68
4/6/2021 11:30:00 AM 7.81 46.058 0.291 7.9 2.97 11.78
4/6/2021 11:45:00 AM 8.01 46.418 0.294 7.9 3.62 11.8
4/6/2021 12:00:00 PM 8.23 46.814 0.291 7.92 3.53 11.88
4/6/2021 12:15:00 PM 8.47 47.246 0.291 7.92 3.34 11.92
4/6/2021 12:30:00 PM 8.72 47.696 0.292 7.93 3.03 11.98
4/6/2021 12:45:00 PM 8.98 48.164 0.291 7.94 3.01 12
4/6/2021 1:00:00 PM 9.24 48.632 0.292 7.95 3.52 12.05
4/6/2021 1:15:00 PM 9.47 49.046 0.291 7.97 4.51 12.09
4/6/2021 1:30:00 PM 9.71 49.478 0.292 7.97 3.3 12.08
4/6/2021 1:45:00 PM 9.91 49.838 0.291 7.98 3.11 12.1
4/6/2021 2:00:00 PM 10.02 50.036 0.292 7.98 3.06 12.08
4/6/2021 2:15:00 PM 10.2 50.36 0.292 7.99 2.86 12.08
4/6/2021 2:30:00 PM 10.37 50.666 0.291 8 2.83 12.07
4/6/2021 2:45:00 PM 10.58 51.044 0.291 8 2.97 12.05
4/6/2021 3:00:00 PM 10.75 51.35 0.292 8 3.8 12
4/6/2021 3:15:00 PM 10.91 51.638 0.292 8.01 2.82 11.98
4/6/2021 3:30:00 PM 11.04 51.872 0.292 8.01 2.81 11.96
4/6/2021 3:45:00 PM 11.19 52.142 0.291 8.02 2.77 11.91
4/6/2021 4:00:00 PM 11.31 52.358 0.292 8.02 2.88 11.88
4/6/2021 4:15:00 PM 11.43 52.574 0.291 8.02 3.09 11.84
4/6/2021 4:30:00 PM 11.52 52.736 0.292 8.02 3.14 11.77
4/6/2021 4:45:00 PM 11.55 52.79 0.292 8.02 3.03 11.74
4/6/2021 5:00:00 PM 11.58 52.844 0.291 8.02 2.84 11.67
4/6/2021 5:15:00 PM 11.6 52.88 0.291 8.02 2.84 11.6
4/6/2021 5:30:00 PM 11.59 52.862 0.292 8.01 2.7 11.52
4/6/2021 5:45:00 PM 11.6 52.88 0.291 8.01 2.83 11.44
4/6/2021 6:00:00 PM 11.59 52.862 0.291 8 3.75 11.36
4/6/2021 6:15:00 PM 11.58 52.844 0.195 8 11.45 11.26
4/6/2021 6:30:00 PM 11.56 52.808 0.292 7.99 3.58 11.19
4/6/2021 6:45:00 PM 11.53 52.754 0.294 7.98 2.97 11.06
4/6/2021 7:00:00 PM 11.5 52.7 0.293 7.97 2.85 10.95
4/6/2021 7:15:00 PM 11.46 52.628 0.294 7.96 3.03 10.8
4/6/2021 7:30:00 PM 11.42 52.556 0.294 7.94 2.78 10.67
4/6/2021 7:45:00 PM 11.38 52.484 0.295 7.93 3.32 10.51
4/6/2021 8:00:00 PM 11.37 52.466 0.295 7.91 3.22 10.36
4/6/2021 8:15:00 PM 11.33 52.394 0.296 7.89 3.3 10.22
4/6/2021 8:30:00 PM 11.29 52.322 0.296 7.88 3.02 10.08
4/6/2021 8:45:00 PM 11.24 52.232 0.296 7.86 3.13 9.96
4/6/2021 9:00:00 PM 11.18 52.124 0.296 7.85 2.94 9.85
4/6/2021 9:15:00 PM 11.13 52.034 0.296 7.83 3.26 9.76
4/6/2021 9:30:00 PM 11.07 51.926 0.296 7.82 3.17 9.67
4/6/2021 9:45:00 PM 11 51.8 0.297 7.81 3.42 9.61
4/6/2021 10:00:00 PM 10.93 51.674 0.296 7.8 3.58 9.55
4/6/2021 10:15:00 PM 10.86 51.548 0.297 7.79 3.04 9.5
4/6/2021 10:30:00 PM 10.78 51.404 0.298 7.79 3.59 9.47
4/6/2021 10:45:00 PM 10.71 51.278 0.298 7.78 3.35 9.43
4/6/2021 11:00:00 PM 10.62 51.116 0.298 7.77 3.26 9.38
4/6/2021 11:15:00 PM 10.54 50.972 0.298 7.77 3.09 9.34
4/6/2021 11:30:00 PM 10.47 50.846 0.299 7.76 3.52 9.32
4/6/2021 11:45:00 PM 10.4 50.72 0.299 7.76 3.13 9.3
4/7/2021 12:00:00 AM 10.34 50.612 0.298 7.75 3.56 9.27
4/7/2021 12:15:00 AM 10.28 50.504 0.299 7.75 3.29 9.26
4/7/2021 12:30:00 AM 10.21 50.378 0.299 7.75 3.32 9.23
4/7/2021 12:45:00 AM 10.16 50.288 0.299 7.74 3.71 9.24
4/7/2021 1:00:00 AM 10.12 50.216 0.299 7.74 3.61 9.22
4/7/2021 1:15:00 AM 10.08 50.144 0.3 7.74 3.58 9.21
4/7/2021 1:30:00 AM 10.04 50.072 0.301 7.73 3.61 9.21
4/7/2021 1:45:00 AM 10 50 0.301 7.74 3.37 9.2
4/7/2021 2:00:00 AM 9.97 49.946 0.301 7.73 3.58 9.19
4/7/2021 2:15:00 AM 9.93 49.874 0.301 7.73 3.27 9.18
4/7/2021 2:30:00 AM 9.91 49.838 0.301 7.73 3.39 9.18
4/7/2021 2:45:00 AM 9.89 49.802 0.302 7.73 3.29 9.17
4/7/2021 3:00:00 AM 9.86 49.748 0.302 7.73 3.62 9.17
4/7/2021 3:15:00 AM 9.83 49.694 0.301 7.73 3.11 9.18
4/7/2021 3:30:00 AM 9.78 49.604 0.302 7.72 3.27 9.18
4/7/2021 3:45:00 AM 9.76 49.568 0.302 7.72 3.22 9.19
4/7/2021 4:00:00 AM 9.73 49.514 0.302 7.72 3.44 9.19
4/7/2021 4:15:00 AM 9.69 49.442 0.303 7.72 3.44 9.2
4/7/2021 4:30:00 AM 9.66 49.388 0.303 7.72 3.66 9.19
4/7/2021 4:45:00 AM 9.63 49.334 0.302 7.72 3.53 9.22
4/7/2021 5:00:00 AM 9.59 49.262 0.302 7.72 3.44 9.24
4/7/2021 5:15:00 AM 9.56 49.208 0.302 7.72 3.45 9.24
4/7/2021 5:30:00 AM 9.52 49.136 0.303 7.72 3.31 9.25
4/7/2021 5:45:00 AM 9.49 49.082 0.302 7.72 3.49 9.28
4/7/2021 6:00:00 AM 9.46 49.028 0.302 7.72 3.46 9.28
4/7/2021 6:15:00 AM 9.42 48.956 0.302 7.72 3.72 9.29
4/7/2021 6:30:00 AM 9.38 48.884 0.302 7.72 3.53 9.31
4/7/2021 6:45:00 AM 9.34 48.812 0.302 7.72 6.14 9.3
4/7/2021 7:00:00 AM 9.31 48.758 0.303 7.72 3.97 9.33
4/7/2021 7:15:00 AM 9.28 48.704 0.303 7.72 4.62 9.35
4/7/2021 7:30:00 AM 9.25 48.65 0.302 7.72 4.09 9.4
4/7/2021 7:45:00 AM 9.23 48.614 0.302 7.73 3.49 9.48
4/7/2021 8:00:00 AM 9.2 48.56 0.302 7.73 3.7 9.52
4/7/2021 8:15:00 AM 9.18 48.524 0.303 7.74 3.15 9.6
4/7/2021 8:30:00 AM 9.17 48.506 0.305 7.74 3.64 9.7
4/7/2021 8:45:00 AM 9.18 48.524 0.302 7.76 3.15 9.85
4/7/2021 9:00:00 AM 9.17 48.506 0.303 7.76 3.3 9.93
4/7/2021 9:15:00 AM 9.19 48.542 0.304 7.77 2.92 10.05
4/7/2021 9:30:00 AM 9.24 48.632 0.303 7.79 3.19 10.2
4/7/2021 9:45:00 AM 9.31 48.758 0.303 7.8 3.06 10.35
4/7/2021 10:00:00 AM 9.37 48.866 0.303 7.82 2.87 10.47
4/7/2021 10:15:00 AM 9.47 49.046 0.303 7.83 3.17 10.61
4/7/2021 10:30:00 AM 9.6 49.28 0.304 7.84 3.11 10.72
4/7/2021 10:45:00 AM 9.75 49.55 0.304 7.86 3.14 10.87
4/7/2021 11:00:00 AM 9.85 49.73 0.304 7.86 3.1 10.95
4/7/2021 11:15:00 AM 10.02 50.036 0.303 7.88 3.09 11.1
4/7/2021 11:30:00 AM 10.18 50.324 0.303 7.89 3.09 11.19
4/7/2021 11:45:00 AM 10.37 50.666 0.304 7.91 2.71 11.27
4/7/2021 12:00:00 PM 10.57 51.026 0.303 7.92 3.29 11.36
4/7/2021 12:15:00 PM 10.8 51.44 0.302 7.93 3.12 11.41
4/7/2021 12:30:00 PM 11.01 51.818 0.302 7.94 3.13 11.51
4/7/2021 12:45:00 PM 11.24 52.232 0.301 7.95 2.94 11.56
4/7/2021 1:00:00 PM 11.46 52.628 0.302 7.96 3.01 11.59
4/7/2021 1:15:00 PM 11.68 53.024 0.301 7.97 2.78 11.65
4/7/2021 1:30:00 PM 11.84 53.312 0.302 7.98 2.86 11.66
4/7/2021 1:45:00 PM 12.02 53.636 0.301 7.99 2.89 11.68
4/7/2021 2:00:00 PM 12.21 53.978 0.3 8 2.8 11.69
4/7/2021 2:15:00 PM 12.4 54.32 0.3 8.01 2.64 11.69
4/7/2021 2:30:00 PM 12.58 54.644 0.3 8.01 2.74 11.7
4/7/2021 2:45:00 PM 12.81 55.058 0.3 8.02 2.95 11.68
4/7/2021 3:00:00 PM 13.04 55.472 0.299 8.03 2.97 11.64
4/7/2021 3:15:00 PM 13.27 55.886 0.299 8.02 4.08 11.65
4/7/2021 3:30:00 PM 13.43 56.174 0.299 8.03 3.07 11.62
4/7/2021 3:45:00 PM 13.57 56.426 0.299 8.04 3.08 11.59
4/7/2021 4:00:00 PM 13.73 56.714 0.299 8.04 2.84 11.53
4/7/2021 4:15:00 PM 13.86 56.948 0.299 8.04 2.8 11.47
4/7/2021 4:30:00 PM 13.97 57.146 0.299 8.04 2.91 11.39
4/7/2021 4:45:00 PM 14.04 57.272 0.299 8.04 2.94 11.31
4/7/2021 5:00:00 PM 14.07 57.326 0.3 8.03 2.67 11.22
4/7/2021 5:15:00 PM 14.08 57.344 0.299 8.02 2.7 11.13
4/7/2021 5:30:00 PM 14.09 57.362 0.3 8.01 2.78 11.04
4/7/2021 5:45:00 PM 14.1 57.38 0.3 8 2.8 10.94
4/7/2021 6:00:00 PM 14.09 57.362 0.3 8 3 10.85
4/7/2021 6:15:00 PM 14.06 57.308 0.3 7.99 2.88 10.73
4/7/2021 6:30:00 PM 13.99 57.182 0.301 7.98 2.84 10.61
4/7/2021 6:45:00 PM 13.93 57.074 0.301 7.96 2.88 10.45
4/7/2021 7:00:00 PM 13.86 56.948 0.302 7.94 2.74 10.28
4/7/2021 7:15:00 PM 13.81 56.858 0.302 7.93 2.82 10.14
4/7/2021 7:30:00 PM 13.74 56.732 0.303 7.91 2.67 9.99
4/7/2021 7:45:00 PM 13.64 56.552 0.304 7.89 2.95 9.81
4/7/2021 8:00:00 PM 13.58 56.444 0.305 7.88 2.87 9.65
4/7/2021 8:15:00 PM 13.51 56.318 0.305 7.86 2.92 9.52
4/7/2021 8:30:00 PM 13.43 56.174 0.305 7.85 2.86 9.37
4/7/2021 8:45:00 PM 13.35 56.03 0.306 7.84 2.95 9.27
4/7/2021 9:00:00 PM 13.28 55.904 0.306 7.82 2.89 9.15
4/7/2021 9:15:00 PM 13.2 55.76 0.306 7.81 3.27 9.06
4/7/2021 9:30:00 PM 13.11 55.598 0.307 7.8 3.05 8.97
4/7/2021 9:45:00 PM 13.02 55.436 0.307 7.79 3.15 8.9
4/7/2021 10:00:00 PM 12.93 55.274 0.307 7.78 3.02 8.83
4/7/2021 10:15:00 PM 12.84 55.112 0.307 7.77 3.37 8.79
4/7/2021 10:30:00 PM 12.75 54.95 0.307 7.77 3.03 8.76
4/7/2021 10:45:00 PM 12.64 54.752 0.307 7.76 2.85 8.71
4/7/2021 11:00:00 PM 12.52 54.536 0.307 7.75 3.1 8.69
4/7/2021 11:15:00 PM 12.41 54.338 0.307 7.75 3.49 8.66
4/7/2021 11:30:00 PM 12.29 54.122 0.307 7.74 3.11 8.64
4/7/2021 11:45:00 PM 12.17 53.906 0.308 7.74 3.27 8.63
4/8/2021 12:00:00 AM 12.05 53.69 0.307 7.73 3.29 8.63
4/8/2021 12:15:00 AM 11.94 53.492 0.307 7.73 3.15 8.62
4/8/2021 12:30:00 AM 11.82 53.276 0.307 7.72 3.24 8.63
4/8/2021 12:45:00 AM 11.71 53.078 0.308 7.72 3.06 8.62
4/8/2021 1:00:00 AM 11.59 52.862 0.308 7.72 3.15 8.64
4/8/2021 1:15:00 AM 11.49 52.682 0.308 7.71 3.22 8.64
4/8/2021 1:30:00 AM 11.39 52.502 0.308 7.71 2.93 8.66
4/8/2021 1:45:00 AM 11.29 52.322 0.307 7.71 3.2 8.67
4/8/2021 2:00:00 AM 11.19 52.142 0.308 7.71 3.69 8.67
4/8/2021 2:15:00 AM 11.1 51.98 0.308 7.71 2.97 8.69
4/8/2021 2:30:00 AM 11.01 51.818 0.308 7.71 2.91 8.71
4/8/2021 2:45:00 AM 10.92 51.656 0.308 7.71 3.22 8.72
4/8/2021 3:00:00 AM 10.84 51.512 0.308 7.71 3.19 8.74
4/8/2021 3:15:00 AM 10.76 51.368 0.308 7.71 3.15 8.76
4/8/2021 3:30:00 AM 10.67 51.206 0.309 7.71 3.38 8.77
4/8/2021 3:45:00 AM 10.59 51.062 0.309 7.71 3.34 8.79
4/8/2021 4:00:00 AM 10.51 50.918 0.309 7.71 3.3 8.8
4/8/2021 4:15:00 AM 10.42 50.756 0.31 7.71 3.1 8.84
4/8/2021 4:30:00 AM 10.34 50.612 0.31 7.71 3.14 8.86
4/8/2021 4:45:00 AM 10.27 50.486 0.31 7.71 3.25 8.88
4/8/2021 5:00:00 AM 10.19 50.342 0.31 7.71 3.09 8.89
4/8/2021 5:15:00 AM 10.11 50.198 0.31 7.71 3.11 8.91
4/8/2021 5:30:00 AM 10.04 50.072 0.31 7.71 3.39 8.93
4/8/2021 5:45:00 AM 9.97 49.946 0.31 7.72 3.51 8.95
4/8/2021 6:00:00 AM 9.89 49.802 0.31 7.72 3.42 8.96
4/8/2021 6:15:00 AM 9.82 49.676 0.311 7.72 3.03 8.98
4/8/2021 6:30:00 AM 9.75 49.55 0.31 7.72 3.38 9
4/8/2021 6:45:00 AM 9.69 49.442 0.31 7.72 3.22 9.03
4/8/2021 7:00:00 AM 9.62 49.316 0.31 7.72 3.28 9.08
4/8/2021 7:15:00 AM 9.56 49.208 0.31 7.73 3.25 9.11
4/8/2021 7:30:00 AM 9.51 49.118 0.31 7.73 3.63 9.17
4/8/2021 7:45:00 AM 9.46 49.028 0.31 7.74 3.21 9.25
4/8/2021 8:00:00 AM 9.43 48.974 0.31 7.74 3.1 9.34
4/8/2021 8:15:00 AM 9.42 48.956 0.31 7.75 3.13 9.45
4/8/2021 8:30:00 AM 9.42 48.956 0.31 7.76 3 9.57
4/8/2021 8:45:00 AM 9.44 48.992 0.309 7.77 3.52 9.71
4/8/2021 9:00:00 AM 9.48 49.064 0.31 7.78 3.31 9.83
4/8/2021 9:15:00 AM 9.56 49.208 0.31 7.79 3.07 9.98
4/8/2021 9:30:00 AM 9.65 49.37 0.31 7.8 2.96 10.09
4/8/2021 9:45:00 AM 9.77 49.586 0.31 7.82 3 10.22
4/8/2021 10:00:00 AM 9.89 49.802 0.31 7.83 3.14 10.36
4/8/2021 10:15:00 AM 10.03 50.054 0.31 7.84 3.06 10.45
4/8/2021 10:30:00 AM 10.18 50.324 0.31 7.85 3.06 10.6
4/8/2021 10:45:00 AM 10.35 50.63 0.31 7.86 3.57 10.72
4/8/2021 11:00:00 AM 10.54 50.972 0.31 7.88 3.1 10.83
4/8/2021 11:15:00 AM 10.72 51.296 0.311 7.89 2.78 10.95
4/8/2021 11:30:00 AM 10.92 51.656 0.31 7.9 2.82 11.03
4/8/2021 11:45:00 AM 11.13 52.034 0.311 7.91 2.78 11.12
4/8/2021 12:00:00 PM 11.35 52.43 0.311 7.92 3 11.17
4/8/2021 12:15:00 PM 11.6 52.88 0.31 7.93 2.8 11.25
4/8/2021 12:30:00 PM 11.85 53.33 0.31 7.94 2.77 11.33
4/8/2021 12:45:00 PM 12.11 53.798 0.31 7.95 3.01 11.38
4/8/2021 1:00:00 PM 12.38 54.284 0.31 7.96 2.81 11.42
4/8/2021 1:15:00 PM 12.64 54.752 0.31 7.97 2.97 11.43
4/8/2021 1:30:00 PM 12.89 55.202 0.311 7.98 2.98 11.49
4/8/2021 1:45:00 PM 13.14 55.652 0.311 7.99 2.82 11.51
4/8/2021 2:00:00 PM 13.38 56.084 0.311 7.99 2.88 11.49
4/8/2021 2:15:00 PM 13.61 56.498 0.312 8 2.87 11.49
4/8/2021 2:30:00 PM 13.83 56.894 0.312 8 2.85 11.47
4/8/2021 2:45:00 PM 14.06 57.308 0.311 8.01 2.89 11.46
4/8/2021 3:00:00 PM 14.25 57.65 0.312 8.01 2.61 11.44
4/8/2021 3:15:00 PM 14.44 57.992 0.312 8.02 2.71 11.43
4/8/2021 3:30:00 PM 14.6 58.28 0.312 8.02 2.63 11.38
4/8/2021 3:45:00 PM 14.74 58.532 0.312 8.02 2.79 11.29
4/8/2021 4:00:00 PM 14.84 58.712 0.313 8.02 2.68 11.23
4/8/2021 4:15:00 PM 14.96 58.928 0.312 8.02 2.72 11.18
4/8/2021 4:30:00 PM 15.04 59.072 0.312 8.02 3.6 11.14
4/8/2021 4:45:00 PM 15.09 59.162 0.313 8.02 2.88 11.06
4/8/2021 5:00:00 PM 15.14 59.252 0.312 8.01 2.84 10.97
4/8/2021 5:15:00 PM 15.16 59.288 0.312 8.01 2.68 10.88
4/8/2021 5:30:00 PM 15.17 59.306 0.313 8 2.9 10.81
4/8/2021 5:45:00 PM 15.16 59.288 0.313 8 2.79 10.7
4/8/2021 6:00:00 PM 15.16 59.288 0.313 7.99 2.83 10.58
4/8/2021 6:15:00 PM 15.11 59.198 0.314 7.98 2.7 10.47
4/8/2021 6:30:00 PM 15.08 59.144 0.313 7.97 3.68 10.32
4/8/2021 6:45:00 PM 15.03 59.054 0.314 7.96 2.74 10.15
4/8/2021 7:00:00 PM 14.98 58.964 0.314 7.94 2.92 9.96
4/8/2021 7:15:00 PM 14.92 58.856 0.315 7.93 2.75 9.82
4/8/2021 7:30:00 PM 14.87 58.766 0.315 7.91 2.79 9.64
4/8/2021 7:45:00 PM 14.79 58.622 0.316 7.9 2.83 9.49
4/8/2021 8:00:00 PM 14.73 58.514 0.315 7.88 2.82 9.32
4/8/2021 8:15:00 PM 14.66 58.388 0.315 7.87 2.82 9.18
4/8/2021 8:30:00 PM 14.57 58.226 0.316 7.85 3.06 9.04
4/8/2021 8:45:00 PM 14.5 58.1 0.316 7.84 3.08 8.91
4/8/2021 9:00:00 PM 14.4 57.92 0.317 7.83 2.9 8.8
4/8/2021 9:15:00 PM 14.32 57.776 0.316 7.82 3.25 8.69
4/8/2021 9:30:00 PM 14.23 57.614 0.317 7.81 3 8.62
4/8/2021 9:45:00 PM 14.15 57.47 0.317 7.8 3.24 8.54
4/8/2021 10:00:00 PM 14.07 57.326 0.317 7.79 3.19 8.48
4/8/2021 10:15:00 PM 13.98 57.164 0.317 7.79 3.05 8.43
4/8/2021 10:30:00 PM 13.92 57.056 0.316 7.78 3.43 8.38
4/8/2021 10:45:00 PM 13.82 56.876 0.316 7.78 7.66 8.34
4/8/2021 11:00:00 PM 13.74 56.732 0.317 7.77 3.47 8.3
4/8/2021 11:15:00 PM 13.65 56.57 0.317 7.77 3.15 8.27
4/8/2021 11:30:00 PM 13.55 56.39 0.317 7.76 2.94 8.26
4/8/2021 11:45:00 PM 13.45 56.21 0.317 7.76 3.01 8.22
4/9/2021 12:00:00 AM 13.36 56.048 0.317 7.75 3.11 8.2
4/9/2021 12:15:00 AM 13.26 55.868 0.318 7.75 2.93 8.21
4/9/2021 12:30:00 AM 13.17 55.706 0.317 7.75 3.23 8.22
4/9/2021 12:45:00 AM 13.07 55.526 0.318 7.75 2.96 8.2
4/9/2021 1:00:00 AM 12.97 55.346 0.319 7.74 3.06 8.22
4/9/2021 1:15:00 AM 12.88 55.184 0.319 7.74 2.85 8.19
4/9/2021 1:30:00 AM 12.8 55.04 0.319 7.74 3.04 8.21
4/9/2021 1:45:00 AM 12.71 54.878 0.32 7.74 3.35 8.24
4/9/2021 2:00:00 AM 12.65 54.77 0.319 7.74 3.26 8.25
4/9/2021 2:15:00 AM 12.57 54.626 0.32 7.74 2.95 8.26
4/9/2021 2:30:00 AM 12.51 54.518 0.32 7.74 3.41 8.28
4/9/2021 2:45:00 AM 12.44 54.392 0.32 7.74 3 8.3
4/9/2021 3:00:00 AM 12.36 54.248 0.321 7.74 3.21 8.29
4/9/2021 3:15:00 AM 12.3 54.14 0.321 7.74 2.94 8.31
4/9/2021 3:30:00 AM 12.24 54.032 0.321 7.74 3.11 8.33
4/9/2021 3:45:00 AM 12.17 53.906 0.322 7.74 3.02 8.34
4/9/2021 4:00:00 AM 12.1 53.78 0.322 7.74 3.04 8.35
4/9/2021 4:15:00 AM 12.04 53.672 0.322 7.74 2.87 8.37
4/9/2021 4:30:00 AM 11.98 53.564 0.322 7.74 3.1 8.4
4/9/2021 4:45:00 AM 11.91 53.438 0.322 7.74 3.22 8.41
4/9/2021 5:00:00 AM 11.84 53.312 0.323 7.74 3.1 8.43
4/9/2021 5:15:00 AM 11.78 53.204 0.323 7.74 3.01 8.45
4/9/2021 5:30:00 AM 11.73 53.114 0.323 7.74 3.01 8.45
4/9/2021 5:45:00 AM 11.66 52.988 0.324 7.74 3.09 8.47
4/9/2021 6:00:00 AM 11.62 52.916 0.324 7.75 3.17 8.49
4/9/2021 6:15:00 AM 11.57 52.826 0.324 7.75 3.59 8.5
4/9/2021 6:30:00 AM 11.51 52.718 0.324 7.75 3.2 8.53
4/9/2021 6:45:00 AM 11.45 52.61 0.324 7.75 6.76 8.55
4/9/2021 7:00:00 AM 11.4 52.52 0.325 7.75 3.27 8.57
4/9/2021 7:15:00 AM 11.36 52.448 0.324 7.75 3.23 8.62
4/9/2021 7:30:00 AM 11.31 52.358 0.324 7.75 3.34 8.7
4/9/2021 7:45:00 AM 11.29 52.322 0.324 7.76 3.36 8.79
4/9/2021 8:00:00 AM 11.25 52.25 0.324 7.77 3.76 8.87
4/9/2021 8:15:00 AM 11.25 52.25 0.324 7.78 3.18 9.01
4/9/2021 8:30:00 AM 11.25 52.25 0.324 7.78 3.29 9.15
4/9/2021 8:45:00 AM 11.28 52.304 0.324 7.8 3.19 9.29
4/9/2021 9:00:00 AM 11.34 52.412 0.324 7.81 2.99 9.48
4/9/2021 9:15:00 AM 11.42 52.556 0.324 7.82 2.98 9.66
4/9/2021 9:30:00 AM 11.49 52.682 0.324 7.84 3.29 9.82
4/9/2021 9:45:00 AM 11.54 52.772 0.324 7.85 3.11 9.95
4/9/2021 10:00:00 AM 11.59 52.862 0.324 7.86 2.97 10.05
4/9/2021 10:15:00 AM 11.68 53.024 0.323 7.87 3.67 10.2
4/9/2021 10:30:00 AM 11.75 53.15 0.324 7.89 2.8 10.32
4/9/2021 10:45:00 AM 11.73 53.114 0.324 7.89 3.02 10.31
4/9/2021 11:00:00 AM 11.7 53.06 0.324 7.89 2.72 10.27
4/9/2021 11:15:00 AM 11.69 53.042 0.324 7.89 2.93 10.3
4/9/2021 11:30:00 AM 11.66 52.988 0.325 7.89 3.04 10.29
4/9/2021 11:45:00 AM 11.64 52.952 0.324 7.9 3.1 10.28
4/9/2021 12:00:00 PM 11.63 52.934 0.325 7.9 2.82 10.27
4/9/2021 12:15:00 PM 11.65 52.97 0.324 7.9 2.8 10.34
4/9/2021 12:30:00 PM 11.66 52.988 0.325 7.91 2.75 10.41
4/9/2021 12:45:00 PM 11.73 53.114 0.324 7.92 2.71 10.5
4/9/2021 1:00:00 PM 11.83 53.294 0.325 7.93 2.71 10.58
4/9/2021 1:15:00 PM 12.02 53.636 0.324 7.95 2.99 10.74
4/9/2021 1:30:00 PM 12.27 54.086 0.324 7.96 2.86 10.86
4/9/2021 1:45:00 PM 12.44 54.392 0.324 7.97 2.7 10.94
4/9/2021 2:00:00 PM 12.49 54.482 0.324 7.98 2.85 10.94
4/9/2021 2:15:00 PM 12.63 54.734 0.324 7.99 2.74 11.02
4/9/2021 2:30:00 PM 12.78 55.004 0.324 8 2.79 11.07
4/9/2021 2:45:00 PM 12.88 55.184 0.324 8.01 2.74 11.09
4/9/2021 3:00:00 PM 12.9 55.22 0.324 8.01 2.69 11.07
4/9/2021 3:15:00 PM 12.89 55.202 0.324 8.01 2.79 11.04
4/9/2021 3:30:00 PM 12.83 55.094 0.324 8 2.66 10.96
4/9/2021 3:45:00 PM 12.78 55.004 0.323 8 2.53 10.97
4/9/2021 4:00:00 PM 12.77 54.986 0.323 8 2.82 10.98
4/9/2021 4:15:00 PM 12.84 55.112 0.323 8.01 2.82 11.04
4/9/2021 4:30:00 PM 12.89 55.202 0.323 8.01 2.7 11.08
4/9/2021 4:45:00 PM 12.89 55.202 0.323 8.02 2.79 11.08
4/9/2021 5:00:00 PM 12.88 55.184 0.322 8.02 2.74 11.05
4/9/2021 5:15:00 PM 12.85 55.13 0.324 8.01 2.86 10.97
4/9/2021 5:30:00 PM 12.87 55.166 0.322 8.01 2.77 10.95
4/9/2021 5:45:00 PM 12.9 55.22 0.323 8.02 2.86 10.94
4/9/2021 6:00:00 PM 12.92 55.256 0.323 8.02 2.74 10.9
4/9/2021 6:15:00 PM 12.9 55.22 0.324 8.01 2.85 10.77
4/9/2021 6:30:00 PM 12.9 55.22 0.323 8 2.64 10.7
4/9/2021 6:45:00 PM 12.87 55.166 0.324 7.99 2.77 10.56
4/9/2021 7:00:00 PM 12.83 55.094 0.323 7.98 2.64 10.44
4/9/2021 7:15:00 PM 12.81 55.058 0.323 7.97 2.76 10.3
4/9/2021 7:30:00 PM 12.79 55.022 0.324 7.96 2.67 10.15
4/9/2021 7:45:00 PM 12.78 55.004 0.324 7.94 2.7 10
4/9/2021 8:00:00 PM 12.78 55.004 0.324 7.93 2.78 9.85
4/9/2021 8:15:00 PM 12.75 54.95 0.324 7.92 2.8 9.7
4/9/2021 8:30:00 PM 12.74 54.932 0.324 7.9 2.83 9.55
4/9/2021 8:45:00 PM 12.73 54.914 0.324 7.89 2.8 9.44
4/9/2021 9:00:00 PM 12.72 54.896 0.324 7.88 2.66 9.32
4/9/2021 9:15:00 PM 12.7 54.86 0.325 7.87 2.91 9.22
4/9/2021 9:30:00 PM 12.69 54.842 0.325 7.86 2.7 9.11
4/9/2021 9:45:00 PM 12.67 54.806 0.325 7.85 3.02 9.03
4/9/2021 10:00:00 PM 12.65 54.77 0.326 7.84 2.88 8.97
4/9/2021 10:15:00 PM 12.6 54.68 0.326 7.84 2.73 8.9
4/9/2021 10:30:00 PM 12.58 54.644 0.325 7.83 2.75 8.85
4/9/2021 10:45:00 PM 12.55 54.59 0.326 7.82 2.84 8.78
4/9/2021 11:00:00 PM 12.51 54.518 0.326 7.82 2.85 8.74
4/9/2021 11:15:00 PM 12.49 54.482 0.326 7.81 2.77 8.69
4/9/2021 11:30:00 PM 12.46 54.428 0.326 7.81 2.94 8.65
4/9/2021 11:45:00 PM 12.43 54.374 0.326 7.8 2.78 8.61
4/10/2021 12:00:00 AM 12.4 54.32 0.326 7.8 2.92 8.59
4/10/2021 12:15:00 AM 12.37 54.266 0.326 7.8 2.97 8.56
4/10/2021 12:30:00 AM 12.34 54.212 0.327 7.79 3.03 8.54
4/10/2021 12:45:00 AM 12.31 54.158 0.327 7.79 2.79 8.53
4/10/2021 1:00:00 AM 12.28 54.104 0.327 7.79 2.73 8.52
4/10/2021 1:15:00 AM 12.25 54.05 0.327 7.78 2.86 8.51
4/10/2021 1:30:00 AM 12.21 53.978 0.327 7.78 2.81 8.5
4/10/2021 1:45:00 AM 12.18 53.924 0.327 7.78 2.98 8.49
4/10/2021 2:00:00 AM 12.14 53.852 0.328 7.78 2.77 8.48
4/10/2021 2:15:00 AM 12.11 53.798 0.328 7.77 3.03 8.47
4/10/2021 2:30:00 AM 12.08 53.744 0.328 7.77 2.91 8.47
4/10/2021 2:45:00 AM 12.04 53.672 0.328 7.77 3.07 8.47
4/10/2021 3:00:00 AM 12.01 53.618 0.329 7.77 3.37 8.47
4/10/2021 3:15:00 AM 11.98 53.564 0.328 7.77 2.78 8.47
4/10/2021 3:30:00 AM 11.95 53.51 0.329 7.77 2.92 8.43
4/10/2021 3:45:00 AM 11.92 53.456 0.329 7.77 2.93 8.45
4/10/2021 4:00:00 AM 11.9 53.42 0.328 7.77 2.92 8.42
4/10/2021 4:15:00 AM 11.87 53.366 0.329 7.77 2.9 8.43
4/10/2021 4:30:00 AM 11.85 53.33 0.328 7.77 3 8.46
4/10/2021 4:45:00 AM 11.81 53.258 0.329 7.77 3.02 8.5
4/10/2021 5:00:00 AM 11.78 53.204 0.33 7.77 3.12 8.46
4/10/2021 5:15:00 AM 11.76 53.168 0.329 7.77 2.96 8.48
4/10/2021 5:30:00 AM 11.73 53.114 0.329 7.77 3.14 8.51
4/10/2021 5:45:00 AM 11.7 53.06 0.33 7.77 2.89 8.51
4/10/2021 6:00:00 AM 11.66 52.988 0.33 7.77 3.19 8.52
4/10/2021 6:15:00 AM 11.63 52.934 0.33 7.77 3.37 8.53
4/10/2021 6:30:00 AM 11.61 52.898 0.33 7.77 3.06 8.54
4/10/2021 6:45:00 AM 11.59 52.862 0.33 7.77 3.23 8.54
4/10/2021 7:00:00 AM 11.57 52.826 0.33 7.77 3.29 8.56
4/10/2021 7:15:00 AM 11.55 52.79 0.33 7.77 3.31 8.6
4/10/2021 7:30:00 AM 11.53 52.754 0.331 7.77 3.07 8.62
4/10/2021 7:45:00 AM 11.53 52.754 0.33 7.78 3.17 8.67
4/10/2021 8:00:00 AM 11.52 52.736 0.331 7.78 2.87 8.75
4/10/2021 8:15:00 AM 11.52 52.736 0.33 7.79 3.15 8.82
4/10/2021 8:30:00 AM 11.51 52.718 0.331 7.79 2.92 8.88
4/10/2021 8:45:00 AM 11.52 52.736 0.331 7.8 2.84 8.99
4/10/2021 9:00:00 AM 11.54 52.772 0.331 7.81 2.79 9.1
4/10/2021 9:15:00 AM 11.56 52.808 0.33 7.82 2.95 9.21
4/10/2021 9:30:00 AM 11.58 52.844 0.33 7.82 3.04 9.33
4/10/2021 9:45:00 AM 11.61 52.898 0.331 7.83 2.78 9.45
4/10/2021 10:00:00 AM 11.65 52.97 0.33 7.84 2.78 9.6
4/10/2021 10:15:00 AM 11.71 53.078 0.33 7.86 3.09 9.73
4/10/2021 10:30:00 AM 11.79 53.222 0.331 7.87 3.23 9.88
4/10/2021 10:45:00 AM 11.88 53.384 0.33 7.88 2.92 10.05
4/10/2021 11:00:00 AM 12.01 53.618 0.33 7.9 2.95 10.21
4/10/2021 11:15:00 AM 12.16 53.888 0.33 7.91 2.86 10.34
4/10/2021 11:30:00 AM 12.34 54.212 0.33 7.92 3.01 10.47
4/10/2021 11:45:00 AM 12.54 54.572 0.33 7.94 2.93 10.57
4/10/2021 12:00:00 PM 12.76 54.968 0.33 7.95 2.77 10.69
4/10/2021 12:15:00 PM 13 55.4 0.33 7.96 2.7 10.77
4/10/2021 12:30:00 PM 13.24 55.832 0.33 7.97 2.77 10.91
4/10/2021 12:45:00 PM 13.46 56.228 0.33 7.99 2.77 11.01
4/10/2021 1:00:00 PM 13.69 56.642 0.33 8 2.62 11.1
4/10/2021 1:15:00 PM 13.91 57.038 0.329 8.01 2.89 11.17
4/10/2021 1:30:00 PM 14.11 57.398 0.329 8.02 2.67 11.22
4/10/2021 1:45:00 PM 14.29 57.722 0.328 8.03 2.89 11.28
4/10/2021 2:00:00 PM 14.45 58.01 0.329 8.04 2.65 11.35
4/10/2021 2:15:00 PM 14.6 58.28 0.329 8.05 4.46 11.35
4/10/2021 2:30:00 PM 14.77 58.586 0.329 8.06 2.5 11.4
4/10/2021 2:45:00 PM 14.95 58.91 0.328 8.07 2.79 11.44
4/10/2021 3:00:00 PM 15.11 59.198 0.328 8.07 2.68 11.39
4/10/2021 3:15:00 PM 15.26 59.468 0.328 8.08 2.69 11.44
4/10/2021 3:30:00 PM 15.39 59.702 0.329 8.08 2.88 11.39
4/10/2021 3:45:00 PM 15.53 59.954 0.328 8.09 2.77 11.36
4/10/2021 4:00:00 PM 15.63 60.134 0.328 8.09 2.66 11.34
4/10/2021 4:15:00 PM 15.75 60.35 0.328 8.09 2.83 11.3
4/10/2021 4:30:00 PM 15.82 60.476 0.328 8.09 2.66 11.22
4/10/2021 4:45:00 PM 15.91 60.638 0.327 8.09 2.69 11.12
4/10/2021 5:00:00 PM 15.95 60.71 0.329 8.08 2.67 11.01
4/10/2021 5:15:00 PM 16.01 60.818 0.328 8.08 2.81 10.97
4/10/2021 5:30:00 PM 16.03 60.854 0.329 8.07 2.65 10.85
4/10/2021 5:45:00 PM 16.04 60.872 0.329 8.07 2.77 10.74
4/10/2021 6:00:00 PM 16.04 60.872 0.328 8.06 2.66 10.61
4/10/2021 6:15:00 PM 16.01 60.818 0.329 8.05 2.95 10.46
4/10/2021 6:30:00 PM 15.97 60.746 0.33 8.04 4.35 10.32
4/10/2021 6:45:00 PM 15.94 60.692 0.329 8.03 2.85 10.14
4/10/2021 7:00:00 PM 15.89 60.602 0.33 8.01 2.89 9.95
4/10/2021 7:15:00 PM 15.8 60.44 0.33 7.99 2.85 9.77
4/10/2021 7:30:00 PM 15.73 60.314 0.331 7.98 2.82 9.59
4/10/2021 7:45:00 PM 15.63 60.134 0.331 7.96 2.86 9.38
4/10/2021 8:00:00 PM 15.53 59.954 0.332 7.94 2.78 9.22
4/10/2021 8:15:00 PM 15.47 59.846 0.331 7.93 2.86 9.05
4/10/2021 8:30:00 PM 15.37 59.666 0.332 7.91 2.83 8.9
4/10/2021 8:45:00 PM 15.28 59.504 0.331 7.9 2.86 8.76
4/10/2021 9:00:00 PM 15.2 59.36 0.332 7.89 2.98 8.64
4/10/2021 9:15:00 PM 15.1 59.18 0.332 7.87 3 8.53
4/10/2021 9:30:00 PM 15.04 59.072 0.332 7.87 3.25 8.44
4/10/2021 9:45:00 PM 14.95 58.91 0.332 7.85 2.86 8.35
4/10/2021 10:00:00 PM 14.86 58.748 0.332 7.85 2.92 8.27
4/10/2021 10:15:00 PM 14.78 58.604 0.333 7.84 3.08 8.21
4/10/2021 10:30:00 PM 14.71 58.478 0.333 7.83 2.87 8.14
4/10/2021 10:45:00 PM 14.61 58.298 0.334 7.83 2.95 8.1
4/10/2021 11:00:00 PM 14.56 58.208 0.333 7.82 3 8.05
4/10/2021 11:15:00 PM 14.46 58.028 0.334 7.82 2.95 8.01
4/10/2021 11:30:00 PM 14.38 57.884 0.334 7.81 3.54 7.96
4/10/2021 11:45:00 PM 14.29 57.722 0.334 7.8 2.95 7.93
4/11/2021 12:00:00 AM 14.21 57.578 0.334 7.8 2.94 7.91
4/11/2021 12:15:00 AM 14.13 57.434 0.334 7.8 2.99 7.89
4/11/2021 12:30:00 AM 14.05 57.29 0.333 7.79 2.91 7.88
4/11/2021 12:45:00 AM 13.96 57.128 0.334 7.79 2.97 7.88
4/11/2021 1:00:00 AM 13.87 56.966 0.335 7.79 2.89 7.87
4/11/2021 1:15:00 AM 13.8 56.84 0.335 7.79 3.16 7.87
4/11/2021 1:30:00 AM 13.73 56.714 0.335 7.78 2.94 7.86
4/11/2021 1:45:00 AM 13.66 56.588 0.335 7.78 2.88 7.87
4/11/2021 2:00:00 AM 13.6 56.48 0.334 7.78 3.04 7.87
4/11/2021 2:15:00 AM 13.53 56.354 0.335 7.78 3.14 7.87
4/11/2021 2:30:00 AM 13.46 56.228 0.335 7.77 3.04 7.88
4/11/2021 2:45:00 AM 13.41 56.138 0.335 7.77 3.08 7.89
4/11/2021 3:00:00 AM 13.34 56.012 0.336 7.77 3.1 7.89
4/11/2021 3:15:00 AM 13.29 55.922 0.335 7.77 2.99 7.89
4/11/2021 3:30:00 AM 13.22 55.796 0.336 7.77 3.22 7.91
4/11/2021 3:45:00 AM 13.17 55.706 0.335 7.77 3.12 7.93
4/11/2021 4:00:00 AM 13.12 55.616 0.335 7.77 4.03 7.92
4/11/2021 4:15:00 AM 13.08 55.544 0.335 7.77 3.2 7.93
4/11/2021 4:30:00 AM 13.03 55.454 0.336 7.78 3.12 7.95
4/11/2021 4:45:00 AM 12.97 55.346 0.336 7.77 3.32 7.94
4/11/2021 5:00:00 AM 12.92 55.256 0.336 7.77 3.1 7.97
4/11/2021 5:15:00 AM 12.87 55.166 0.336 7.77 3.46 7.98
4/11/2021 5:30:00 AM 12.82 55.076 0.336 7.77 3.11 7.99
4/11/2021 5:45:00 AM 12.75 54.95 0.337 7.77 3.27 8.01
4/11/2021 6:00:00 AM 12.72 54.896 0.337 7.77 3.42 8.04
4/11/2021 6:15:00 AM 12.68 54.824 0.336 7.77 3.48 8.04
4/11/2021 6:30:00 AM 12.62 54.716 0.337 7.77 3.11 8.07
4/11/2021 6:45:00 AM 12.56 54.608 0.337 7.77 3.45 8.08
4/11/2021 7:00:00 AM 12.53 54.554 0.337 7.77 3.35 8.1
4/11/2021 7:15:00 AM 12.49 54.482 0.337 7.77 3.18 8.12
4/11/2021 7:30:00 AM 12.45 54.41 0.337 7.78 3.14 8.18
4/11/2021 7:45:00 AM 12.44 54.392 0.336 7.78 3.16 8.2
4/11/2021 8:00:00 AM 12.43 54.374 0.336 7.78 3.26 8.3
4/11/2021 8:15:00 AM 12.42 54.356 0.336 7.79 3.35 8.38
4/11/2021 8:30:00 AM 12.42 54.356 0.336 7.8 3.21 8.47
4/11/2021 8:45:00 AM 12.42 54.356 0.336 7.8 3.6 8.58
4/11/2021 9:00:00 AM 12.43 54.374 0.336 7.81 3.03 8.65
4/11/2021 9:15:00 AM 12.43 54.374 0.335 7.81 2.95 8.73
4/11/2021 9:30:00 AM 12.44 54.392 0.334 7.82 3.1 8.81
4/11/2021 9:45:00 AM 12.44 54.392 0.334 7.83 3.74 8.88
4/11/2021 10:00:00 AM 12.47 54.446 0.334 7.84 3.11 9.01
4/11/2021 10:15:00 AM 12.49 54.482 0.334 7.84 3.31 9.09
4/11/2021 10:30:00 AM 12.51 54.518 0.333 7.85 3.14 9.2
4/11/2021 10:45:00 AM 12.52 54.536 0.333 7.85 2.94 9.25
4/11/2021 11:00:00 AM 12.54 54.572 0.333 7.86 3.03 9.34
4/11/2021 11:15:00 AM 12.57 54.626 0.333 7.87 3.25 9.42
4/11/2021 11:30:00 AM 12.59 54.662 0.335 7.87 3.26 9.49
4/11/2021 11:45:00 AM 12.62 54.716 0.338 7.88 3.11 9.6
4/11/2021 12:00:00 PM 12.67 54.806 0.34 7.89 4.46 9.7
4/11/2021 12:15:00 PM 12.75 54.95 0.344 7.9 3.66 9.83
4/11/2021 12:30:00 PM 12.8 55.04 0.347 7.91 17.01 9.92
4/11/2021 12:45:00 PM 12.83 55.094 0.349 7.91 3.61 9.94
4/11/2021 1:00:00 PM 12.86 55.148 0.347 7.91 3.81 9.87
4/11/2021 1:15:00 PM 12.87 55.166 0.346 7.91 4.15 9.92
4/11/2021 1:30:00 PM 12.92 55.256 0.345 7.92 4.06 10
4/11/2021 1:45:00 PM 12.98 55.364 0.343 7.93 3.91 10.1
4/11/2021 2:00:00 PM 13.03 55.454 0.341 7.94 4.19 10.14
4/11/2021 2:15:00 PM 13.06 55.508 0.34 7.94 4.09 10.16
4/11/2021 2:30:00 PM 13.09 55.562 0.338 7.95 4.28 10.16
4/11/2021 2:45:00 PM 13.13 55.634 0.336 7.95 4.05 10.22
4/11/2021 3:00:00 PM 13.16 55.688 0.335 7.96 4.01 10.27
4/11/2021 3:15:00 PM 13.18 55.724 0.333 7.96 3.95 10.29
4/11/2021 3:30:00 PM 13.21 55.778 0.332 7.97 3.85 10.32
4/11/2021 3:45:00 PM 13.24 55.832 0.331 7.97 3.84 10.31
4/11/2021 4:00:00 PM 13.27 55.886 0.331 7.97 4.15 10.32
4/11/2021 4:15:00 PM 13.3 55.94 0.329 7.97 4.04 10.31
4/11/2021 4:30:00 PM 13.31 55.958 0.328 7.97 3.76 10.24
4/11/2021 4:45:00 PM 13.31 55.958 0.326 7.96 3.9 10.18
4/11/2021 5:00:00 PM 13.33 55.994 0.325 7.96 4.1 10.13
4/11/2021 5:15:00 PM 13.35 56.03 0.324 7.96 3.95 10.12
4/11/2021 5:30:00 PM 13.38 56.084 0.323 7.96 4.36 10.1
4/11/2021 5:45:00 PM 13.38 56.084 0.323 7.95 4.21 10
4/11/2021 6:00:00 PM 13.38 56.084 0.322 7.95 3.97 9.93
4/11/2021 6:15:00 PM 13.39 56.102 0.321 7.94 4.27 9.87
4/11/2021 6:30:00 PM 13.38 56.084 0.321 7.93 3.72 9.79
4/11/2021 6:45:00 PM 13.38 56.084 0.321 7.92 3.89 9.7
4/11/2021 7:00:00 PM 13.36 56.048 0.323 7.91 4.02 9.59
4/11/2021 7:15:00 PM 13.34 56.012 0.326 7.9 3.79 9.47
4/11/2021 7:30:00 PM 13.33 55.994 0.329 7.89 4.55 9.34
4/11/2021 7:45:00 PM 13.31 55.958 0.334 7.88 5.07 9.24
4/11/2021 8:00:00 PM 13.29 55.922 0.337 7.87 4.74 9.13
4/11/2021 8:15:00 PM 13.26 55.868 0.337 7.86 4.75 9.04
4/11/2021 8:30:00 PM 13.23 55.814 0.337 7.85 4.37 8.94
4/11/2021 8:45:00 PM 13.21 55.778 0.334 7.84 4.36 8.88
4/11/2021 9:00:00 PM 13.19 55.742 0.33 7.83 4.47 8.81
4/11/2021 9:15:00 PM 13.17 55.706 0.326 7.83 4.84 8.78
4/11/2021 9:30:00 PM 13.15 55.67 0.322 7.82 4.75 8.7
4/11/2021 9:45:00 PM 13.14 55.652 0.316 7.81 5.16 8.65
4/11/2021 10:00:00 PM 13.11 55.598 0.31 7.8 5.66 8.59
4/11/2021 10:15:00 PM 13.08 55.544 0.303 7.79 6.54 8.54
4/11/2021 10:30:00 PM 13.05 55.49 0.297 7.78 6.34 8.51
4/11/2021 10:45:00 PM 13 55.4 0.291 7.78 5.9 8.48
4/11/2021 11:00:00 PM 12.95 55.31 0.285 7.77 6.5 8.49
4/11/2021 11:15:00 PM 12.9 55.22 0.279 7.77 6.2 8.5
4/11/2021 11:30:00 PM 12.85 55.13 0.274 7.76 6.17 8.5
4/11/2021 11:45:00 PM 12.79 55.022 0.269 7.76 7.25 8.53
4/12/2021 12:00:00 AM 12.73 54.914 0.265 7.76 6.8 8.56
4/12/2021 12:15:00 AM 12.66 54.788 0.258 7.76 7.49 8.6
4/12/2021 12:30:00 AM 12.58 54.644 0.25 7.75 7.63 8.65
4/12/2021 12:45:00 AM 12.49 54.482 0.242 7.75 8.74 8.69
4/12/2021 1:00:00 AM 12.41 54.338 0.235 7.74 7.86 8.73
4/12/2021 1:15:00 AM 12.32 54.176 0.228 7.74 8.15 8.76
4/12/2021 1:30:00 AM 12.23 54.014 0.222 7.73 8.22 8.8
4/12/2021 1:45:00 AM 12.15 53.87 0.217 7.73 10.22 8.83
4/12/2021 2:00:00 AM 12.06 53.708 0.211 7.73 9.7 8.87
4/12/2021 2:15:00 AM 11.98 53.564 0.206 7.72 10.13 8.89
4/12/2021 2:30:00 AM 11.9 53.42 0.202 7.71 11.22 8.93
4/12/2021 2:45:00 AM 11.83 53.294 0.197 7.71 11.31 8.97
4/12/2021 3:00:00 AM 11.75 53.15 0.193 7.71 12.08 9.01
4/12/2021 3:15:00 AM 11.69 53.042 0.19 7.7 12.88 9.04
4/12/2021 3:30:00 AM 11.63 52.934 0.187 7.7 13.13 9.07
4/12/2021 3:45:00 AM 11.57 52.826 0.185 7.7 12.57 9.1
4/12/2021 4:00:00 AM 11.51 52.718 0.184 7.69 14.26 9.13
4/12/2021 4:15:00 AM 11.46 52.628 0.183 7.69 11.39 9.16
4/12/2021 4:30:00 AM 11.41 52.538 0.182 7.69 12.19 9.19
4/12/2021 4:45:00 AM 11.36 52.448 0.181 7.69 11.81 9.21
4/12/2021 5:00:00 AM 11.32 52.376 0.18 7.69 12.59 9.23
4/12/2021 5:15:00 AM 11.28 52.304 0.179 7.69 10.87 9.25
4/12/2021 5:30:00 AM 11.24 52.232 0.178 7.69 10.7 9.27
4/12/2021 5:45:00 AM 11.19 52.142 0.177 7.69 11.05 9.29
4/12/2021 6:00:00 AM 11.15 52.07 0.176 7.69 12.1 9.31
4/12/2021 6:15:00 AM 11.11 51.998 0.175 7.68 12.08 9.34
4/12/2021 6:30:00 AM 11.06 51.908 0.175 7.68 11.61 9.36
4/12/2021 6:45:00 AM 11.02 51.836 0.175 7.68 14.01 9.37
4/12/2021 7:00:00 AM 10.98 51.764 0.175 7.68 12.47 9.37
4/12/2021 7:15:00 AM 10.95 51.71 0.175 7.69 11.63 9.39
4/12/2021 7:30:00 AM 10.92 51.656 0.176 7.69 10.36 9.41
4/12/2021 7:45:00 AM 10.89 51.602 0.177 7.69 10.77 9.41
4/12/2021 8:00:00 AM 10.86 51.548 0.179 7.69 10.53 9.43
4/12/2021 8:15:00 AM 10.83 51.494 0.18 7.69 9.12 9.45
4/12/2021 8:30:00 AM 10.81 51.458 0.182 7.7 8.87 9.46
4/12/2021 8:45:00 AM 10.79 51.422 0.184 7.7 9.22 9.5
4/12/2021 9:00:00 AM 10.77 51.386 0.185 7.71 8.34 9.52
4/12/2021 9:15:00 AM 10.75 51.35 0.186 7.71 9.87 9.55
4/12/2021 9:30:00 AM 10.72 51.296 0.188 7.71 8.3 9.57
4/12/2021 9:45:00 AM 10.69 51.242 0.189 7.72 7.81 9.59
4/12/2021 10:00:00 AM 10.66 51.188 0.19 7.72 8.09 9.61
4/12/2021 10:15:00 AM 10.64 51.152 0.19 7.73 7.54 9.69
4/12/2021 10:30:00 AM 10.61 51.098 0.191 7.73 7.42 9.72
4/12/2021 10:45:00 AM 10.59 51.062 0.192 7.74 7.91 9.8
4/12/2021 11:00:00 AM 10.58 51.044 0.192 7.75 7.28 9.84
4/12/2021 11:15:00 AM 10.55 50.99 0.193 7.75 7.21 9.9
4/12/2021 11:30:00 AM 10.55 50.99 0.193 7.76 6.71 9.99
4/12/2021 11:45:00 AM 10.54 50.972 0.194 7.77 6.7 10.05
4/12/2021 12:00:00 PM 10.53 50.954 0.195 7.78 6.61 10.1
4/12/2021 12:15:00 PM 10.52 50.936 0.195 7.79 6.65 10.16
4/12/2021 12:30:00 PM 10.51 50.918 0.195 7.8 6.58 10.22
4/12/2021 12:45:00 PM 10.5 50.9 0.196 7.8 6.65 10.27
4/12/2021 1:00:00 PM 10.49 50.882 0.196 7.81 6.45 10.32
4/12/2021 1:15:00 PM 10.48 50.864 0.198 7.82 6.19 10.37
4/12/2021 1:30:00 PM 10.48 50.864 0.198 7.83 6.37 10.44
4/12/2021 1:45:00 PM 10.48 50.864 0.199 7.83 5.89 10.48
4/12/2021 2:00:00 PM 10.49 50.882 0.199 7.84 5.98 10.54
4/12/2021 2:15:00 PM 10.48 50.864 0.2 7.85 6.04 10.54
4/12/2021 2:30:00 PM 10.47 50.846 0.2 7.85 5.93 10.54
4/12/2021 2:45:00 PM 10.47 50.846 0.201 7.86 5.84 10.58
4/12/2021 3:00:00 PM 10.47 50.846 0.202 7.86 6.15 10.59
4/12/2021 3:15:00 PM 10.46 50.828 0.202 7.86 6.04 10.6
4/12/2021 3:30:00 PM 10.45 50.81 0.202 7.87 5.9 10.62
4/12/2021 3:45:00 PM 10.46 50.828 0.201 7.87 5.86 10.67
4/12/2021 4:00:00 PM 10.45 50.81 0.2 7.87 6.97 10.66
4/12/2021 4:15:00 PM 10.43 50.774 0.2 7.87 6.08 10.65
4/12/2021 4:30:00 PM 10.42 50.756 0.2 7.87 5.89 10.65
4/12/2021 4:45:00 PM 10.39 50.702 0.2 7.87 5.65 10.63
4/12/2021 5:00:00 PM 10.37 50.666 0.2 7.86 5.53 10.58
4/12/2021 5:15:00 PM 10.34 50.612 0.201 7.86 5.48 10.57
4/12/2021 5:30:00 PM 10.31 50.558 0.202 7.86 5.95 10.53
4/12/2021 5:45:00 PM 10.3 50.54 0.202 7.85 5.61 10.5
4/12/2021 6:00:00 PM 10.28 50.504 0.204 7.85 5.57 10.46
4/12/2021 6:15:00 PM 10.27 50.486 0.204 7.85 5.58 10.42
4/12/2021 6:30:00 PM 10.26 50.468 0.205 7.84 5.32 10.37
4/12/2021 6:45:00 PM 10.23 50.414 0.206 7.84 5.47 10.33
4/12/2021 7:00:00 PM 10.21 50.378 0.207 7.83 5.81 10.29
4/12/2021 7:15:00 PM 10.17 50.306 0.208 7.83 5.76 10.24
4/12/2021 7:30:00 PM 10.14 50.252 0.208 7.82 5.9 10.22
4/12/2021 7:45:00 PM 10.11 50.198 0.21 7.82 6.1 10.15
4/12/2021 8:00:00 PM 10.09 50.162 0.21 7.81 5.59 10.12
4/12/2021 8:15:00 PM 10.06 50.108 0.211 7.81 5.93 10.09
4/12/2021 8:30:00 PM 10.04 50.072 0.212 7.81 6.03 10.05
4/12/2021 8:45:00 PM 10.02 50.036 0.212 7.8 6.04 10.02
4/12/2021 9:00:00 PM 10.01 50.018 0.213 7.8 6.43 9.99
4/12/2021 9:15:00 PM 9.99 49.982 0.213 7.8 6.1 9.96
4/12/2021 9:30:00 PM 9.97 49.946 0.214 7.79 5.73 9.94
4/12/2021 9:45:00 PM 9.95 49.91 0.214 7.79 5.82 9.92
4/12/2021 10:00:00 PM 9.92 49.856 0.215 7.79 5.74 9.91
4/12/2021 10:15:00 PM 9.9 49.82 0.215 7.79 5.98 9.88
4/12/2021 10:30:00 PM 9.87 49.766 0.215 7.78 6.09 9.88
4/12/2021 10:45:00 PM 9.85 49.73 0.215 7.78 5.74 9.87
4/12/2021 11:00:00 PM 9.82 49.676 0.216 7.78 6.04 9.86
4/12/2021 11:15:00 PM 9.79 49.622 0.217 7.78 5.95 9.85
4/12/2021 11:30:00 PM 9.76 49.568 0.217 7.78 5.94 9.85
4/12/2021 11:45:00 PM 9.73 49.514 0.217 7.77 6.03 9.83
4/13/2021 12:00:00 AM 9.7 49.46 0.217 7.77 5.9 9.84
4/13/2021 12:15:00 AM 9.67 49.406 0.217 7.77 5.81 9.84
4/13/2021 12:30:00 AM 9.65 49.37 0.217 7.77 6.03 9.83
4/13/2021 12:45:00 AM 9.62 49.316 0.217 7.77 6.33 9.84
4/13/2021 1:00:00 AM 9.59 49.262 0.217 7.77 5.81 9.84
4/13/2021 1:15:00 AM 9.57 49.226 0.217 7.77 5.94 9.84
4/13/2021 1:30:00 AM 9.54 49.172 0.216 7.76 5.54 9.86
4/13/2021 1:45:00 AM 9.51 49.118 0.216 7.76 5.89 9.85
4/13/2021 2:00:00 AM 9.48 49.064 0.216 7.76 5.6 9.84
4/13/2021 2:15:00 AM 9.45 49.01 0.216 7.76 6.11 9.85
4/13/2021 2:30:00 AM 9.43 48.974 0.217 7.76 5.55 9.85
4/13/2021 2:45:00 AM 9.4 48.92 0.216 7.76 5.99 9.87
4/13/2021 3:00:00 AM 9.37 48.866 0.216 7.76 5.51 9.87
4/13/2021 3:15:00 AM 9.35 48.83 0.216 7.76 5.87 9.86
4/13/2021 3:30:00 AM 9.32 48.776 0.216 7.76 5.58 9.88
4/13/2021 3:45:00 AM 9.3 48.74 0.216 7.76 5.7 9.88
4/13/2021 4:00:00 AM 9.28 48.704 0.216 7.76 5.82 9.89
4/13/2021 4:15:00 AM 9.26 48.668 0.217 7.76 5.62 9.89
4/13/2021 4:30:00 AM 9.24 48.632 0.216 7.76 5.29 9.89
4/13/2021 4:45:00 AM 9.22 48.596 0.216 7.76 6.08 9.91
4/13/2021 5:00:00 AM 9.19 48.542 0.216 7.76 5.88 9.9
4/13/2021 5:15:00 AM 9.17 48.506 0.215 7.76 6.08 9.92
4/13/2021 5:30:00 AM 9.14 48.452 0.215 7.76 6.42 9.93
4/13/2021 5:45:00 AM 9.11 48.398 0.214 7.75 6.06 9.95
4/13/2021 6:00:00 AM 9.07 48.326 0.214 7.75 6.33 9.96
4/13/2021 6:15:00 AM 9.02 48.236 0.213 7.75 6.09 9.98
4/13/2021 6:30:00 AM 8.98 48.164 0.214 7.75 6.27 9.98
4/13/2021 6:45:00 AM 8.95 48.11 0.213 7.75 5.82 10.01
4/13/2021 7:00:00 AM 8.92 48.056 0.212 7.75 5.74 10.02
4/13/2021 7:15:00 AM 8.9 48.02 0.211 7.76 5.28 10.05
4/13/2021 7:30:00 AM 8.88 47.984 0.21 7.76 5.51 10.12
4/13/2021 7:45:00 AM 8.87 47.966 0.21 7.76 5.42 10.17
4/13/2021 8:00:00 AM 8.85 47.93 0.21 7.77 5.05 10.24
4/13/2021 8:15:00 AM 8.86 47.948 0.209 7.78 5.23 10.34
4/13/2021 8:30:00 AM 8.87 47.966 0.208 7.78 5.5 10.42
4/13/2021 8:45:00 AM 8.86 47.948 0.208 7.79 5.03 10.51
4/13/2021 9:00:00 AM 8.9 48.02 0.208 7.8 4.81 10.56
4/13/2021 9:15:00 AM 8.96 48.128 0.207 7.81 4.51 10.69
4/13/2021 9:30:00 AM 9.02 48.236 0.207 7.82 4.62 10.76
4/13/2021 9:45:00 AM 9.1 48.38 0.207 7.83 5.13 10.84
4/13/2021 10:00:00 AM 9.2 48.56 0.207 7.84 4.69 10.95
4/13/2021 10:15:00 AM 9.32 48.776 0.207 7.85 4.62 11.02
4/13/2021 10:30:00 AM 9.46 49.028 0.207 7.87 4.45 11.1
4/13/2021 10:45:00 AM 9.61 49.298 0.207 7.88 5.03 11.18
4/13/2021 11:00:00 AM 9.79 49.622 0.207 7.89 4.85 11.25
4/13/2021 11:15:00 AM 9.99 49.982 0.207 7.9 4.61 11.32
4/13/2021 11:30:00 AM 10.19 50.342 0.207 7.91 4.75 11.35
4/13/2021 11:45:00 AM 10.4 50.72 0.208 7.92 4.18 11.4
4/13/2021 12:00:00 PM 10.62 51.116 0.209 7.93 4.61 11.46
4/13/2021 12:15:00 PM 10.85 51.53 0.209 7.94 4.26 11.47
4/13/2021 12:30:00 PM 11.09 51.962 0.209 7.95 4.43 11.5
4/13/2021 12:45:00 PM 11.33 52.394 0.21 7.96 4.29 11.51
4/13/2021 1:00:00 PM 11.56 52.808 0.209 7.97 4.3 11.55
4/13/2021 1:15:00 PM 11.8 53.24 0.21 7.98 4.5 11.54
4/13/2021 1:30:00 PM 12.03 53.654 0.21 7.99 4.58 11.54
4/13/2021 1:45:00 PM 12.25 54.05 0.21 7.99 4.63 11.55
4/13/2021 2:00:00 PM 12.49 54.482 0.21 8 4.3 11.54
4/13/2021 2:15:00 PM 12.7 54.86 0.211 8.01 4.39 11.55
4/13/2021 2:30:00 PM 12.78 55.004 0.211 8.01 4.49 11.51
4/13/2021 2:45:00 PM 12.86 55.148 0.211 8.02 4.2 11.43
4/13/2021 3:00:00 PM 12.93 55.274 0.21 8.02 4.44 11.45
4/13/2021 3:15:00 PM 13.07 55.526 0.211 8.03 4.14 11.4
4/13/2021 3:30:00 PM 13.15 55.67 0.211 8.03 4.05 11.38
4/13/2021 3:45:00 PM 13.37 56.066 0.211 8.04 4.28 11.35
4/13/2021 4:00:00 PM 13.45 56.21 0.212 8.04 4.1 11.31
4/13/2021 4:15:00 PM 13.47 56.246 0.212 8.03 4.1 11.19
4/13/2021 4:30:00 PM 13.49 56.282 0.212 8.03 4.51 11.12
4/13/2021 4:45:00 PM 13.51 56.318 0.213 8.02 4.46 10.99
4/13/2021 5:00:00 PM 13.54 56.372 0.213 8.01 4.11 10.9
4/13/2021 5:15:00 PM 13.53 56.354 0.214 8 4.1 10.78
4/13/2021 5:30:00 PM 13.51 56.318 0.215 7.98 3.97 10.66
4/13/2021 5:45:00 PM 13.52 56.336 0.215 7.98 4.04 10.63
4/13/2021 6:00:00 PM 13.49 56.282 0.216 7.97 4.2 10.54
4/13/2021 6:15:00 PM 13.47 56.246 0.217 7.96 4.17 10.4
4/13/2021 6:30:00 PM 13.46 56.228 0.218 7.95 4.23 10.36
4/13/2021 6:45:00 PM 13.45 56.21 0.219 7.94 4.1 10.27
4/13/2021 7:00:00 PM 13.46 56.228 0.22 7.93 4.1 10.18
4/13/2021 7:15:00 PM 13.44 56.192 0.22 7.92 4.28 10.07
4/13/2021 7:30:00 PM 13.41 56.138 0.221 7.91 4.27 9.97
4/13/2021 7:45:00 PM 13.38 56.084 0.222 7.89 4.54 9.86
4/13/2021 8:00:00 PM 13.32 55.976 0.223 7.88 4.57 9.76
4/13/2021 8:15:00 PM 13.26 55.868 0.223 7.87 4.45 9.64
4/13/2021 8:30:00 PM 13.2 55.76 0.224 7.85 4.71 9.59
4/13/2021 8:45:00 PM 13.13 55.634 0.224 7.84 4.48 9.49
4/13/2021 9:00:00 PM 13.06 55.508 0.225 7.83 5.14 9.43
4/13/2021 9:15:00 PM 12.99 55.382 0.225 7.82 4.78 9.36
4/13/2021 9:30:00 PM 12.93 55.274 0.225 7.81 6.88 9.3
4/13/2021 9:45:00 PM 12.87 55.166 0.225 7.8 5.36 9.25
4/13/2021 10:00:00 PM 12.79 55.022 0.226 7.79 5.19 9.19
4/13/2021 10:15:00 PM 12.7 54.86 0.227 7.79 5.31 9.16
4/13/2021 10:30:00 PM 12.62 54.716 0.227 7.78 5.26 9.06
4/13/2021 10:45:00 PM 12.53 54.554 0.229 7.77 5.55 9.03
4/13/2021 11:00:00 PM 12.44 54.392 0.228 7.77 5 9.06
4/13/2021 11:15:00 PM 12.35 54.23 0.228 7.77 5.28 9.01
4/13/2021 11:30:00 PM 12.25 54.05 0.229 7.76 5.9 9.03
4/13/2021 11:45:00 PM 12.16 53.888 0.229 7.76 6.49 9.04
4/14/2021 12:00:00 AM 12.05 53.69 0.229 7.76 6.23 9.03
4/14/2021 12:15:00 AM 11.94 53.492 0.231 7.76 5.9 9.03
4/14/2021 12:30:00 AM 11.84 53.312 0.23 7.75 5.64 9.05
4/14/2021 12:45:00 AM 11.74 53.132 0.234 7.75 6.36 9.06
4/14/2021 1:00:00 AM 11.65 52.97 0.23 7.75 5.12 9.09
4/14/2021 1:15:00 AM 11.55 52.79 0.23 7.75 5.4 9.12
4/14/2021 1:30:00 AM 11.45 52.61 0.231 7.75 5.33 9.13
4/14/2021 1:45:00 AM 11.34 52.412 0.233 7.75 5.08 9.1
4/14/2021 2:00:00 AM 11.23 52.214 0.233 7.75 6.06 9.09
4/14/2021 2:15:00 AM 11.13 52.034 0.233 7.75 5.82 9.01
4/14/2021 2:30:00 AM 11.04 51.872 0.234 7.75 5.4 9.14
4/14/2021 2:45:00 AM 10.95 51.71 0.233 7.76 5.12 9.13
4/14/2021 3:00:00 AM 10.86 51.548 0.233 7.76 5.17 9.15
4/14/2021 3:15:00 AM 10.78 51.404 0.233 7.76 5.18 9.23
4/14/2021 3:30:00 AM 10.7 51.26 0.233 7.76 5.12 9.21
4/14/2021 3:45:00 AM 10.63 51.134 0.234 7.75 5.31 9.21
4/14/2021 4:00:00 AM 10.57 51.026 0.234 7.76 5.57 9.19
4/14/2021 4:15:00 AM 10.5 50.9 0.235 7.76 4.84 9.23
4/14/2021 4:30:00 AM 10.43 50.774 0.236 7.76 5.24 9.24
4/14/2021 4:45:00 AM 10.36 50.648 0.236 7.76 5.12 9.3
4/14/2021 5:00:00 AM 10.29 50.522 0.235 7.76 5.14 9.3
4/14/2021 5:15:00 AM 10.21 50.378 0.236 7.76 5.37 9.29
4/14/2021 5:30:00 AM 10.13 50.234 0.237 7.76 5.13 9.31
4/14/2021 5:45:00 AM 10.07 50.126 0.238 7.76 5.53 9.36
4/14/2021 6:00:00 AM 10 50 0.238 7.76 5.71 9.41
4/14/2021 6:15:00 AM 9.93 49.874 0.239 7.76 5.48 9.39
4/14/2021 6:30:00 AM 9.88 49.784 0.242 7.76 5.86 9.43
4/14/2021 6:45:00 AM 9.82 49.676 0.24 7.77 5.43 9.42
4/14/2021 7:00:00 AM 9.77 49.586 0.239 7.77 6.22 9.51
4/14/2021 7:15:00 AM 9.74 49.532 0.238 7.77 4.94 9.54
4/14/2021 7:30:00 AM 9.71 49.478 0.239 7.78 4.83 9.53
4/14/2021 7:45:00 AM 9.69 49.442 0.24 7.78 4.45 9.65
4/14/2021 8:00:00 AM 9.67 49.406 0.24 7.79 4.46 9.75
4/14/2021 8:15:00 AM 9.67 49.406 0.239 7.8 4.14 9.84
4/14/2021 8:30:00 AM 9.68 49.424 0.241 7.81 4.26 9.98
4/14/2021 8:45:00 AM 9.68 49.424 0.239 7.82 4.23 10.09
4/14/2021 9:00:00 AM 9.72 49.496 0.24 7.83 3.92 10.21
4/14/2021 9:15:00 AM 9.73 49.514 0.241 7.84 3.94 10.32
4/14/2021 9:30:00 AM 9.8 49.64 0.239 7.85 4.18 10.43
4/14/2021 9:45:00 AM 9.89 49.802 0.24 7.86 3.93 10.55
4/14/2021 10:00:00 AM 9.99 49.982 0.24 7.88 4.03 10.65
4/14/2021 10:15:00 AM 10.1 50.18 0.239 7.89 4 10.73
4/14/2021 10:30:00 AM 10.21 50.378 0.239 7.9 4.25 10.85
4/14/2021 10:45:00 AM 10.3 50.54 0.24 7.92 3.99 10.94
4/14/2021 11:00:00 AM 10.4 50.72 0.24 7.93 3.97 11.04
4/14/2021 11:15:00 AM 10.49 50.882 0.24 7.94 3.81 11.11
4/14/2021 11:30:00 AM 10.62 51.116 0.239 7.96 4.03 11.19
4/14/2021 11:45:00 AM 10.79 51.422 0.241 7.97 4.42 11.25
4/14/2021 12:00:00 PM 10.94 51.692 0.241 7.98 3.96 11.31
4/14/2021 12:15:00 PM 11.07 51.926 0.241 7.98 3.67 11.23
4/14/2021 12:30:00 PM 11.18 52.124 0.241 7.99 3.58 11.24
4/14/2021 12:45:00 PM 11.18 52.124 0.239 7.99 3.73 11.24
4/14/2021 1:00:00 PM 11.19 52.142 0.24 8 3.53 11.22
4/14/2021 1:15:00 PM 11.24 52.232 0.24 8 3.77 11.21
4/14/2021 1:30:00 PM 11.36 52.448 0.24 8 3.54 11.23
4/14/2021 1:45:00 PM 11.48 52.664 0.24 8.02 3.49 11.27
4/14/2021 2:00:00 PM 11.56 52.808 0.24 8.02 3.43 11.22
4/14/2021 2:15:00 PM 11.7 53.06 0.24 8.02 3.63 11.24
4/14/2021 2:30:00 PM 11.88 53.384 0.24 8.03 3.48 11.3
4/14/2021 2:45:00 PM 12.05 53.69 0.239 8.04 3.82 11.33
4/14/2021 3:00:00 PM 12.2 53.96 0.239 8.05 3.64 11.34
4/14/2021 3:15:00 PM 12.39 54.302 0.239 8.05 3.63 11.36
4/14/2021 3:30:00 PM 12.52 54.536 0.239 8.06 3.61 11.33
4/14/2021 3:45:00 PM 12.68 54.824 0.238 8.06 3.46 11.29
4/14/2021 4:00:00 PM 12.81 55.058 0.239 8.07 3.67 11.26
4/14/2021 4:15:00 PM 12.91 55.238 0.238 8.07 3.53 11.2
4/14/2021 4:30:00 PM 13.07 55.526 0.238 8.07 3.64 11.19
4/14/2021 4:45:00 PM 13.1 55.58 0.237 8.07 3.85 11.11
4/14/2021 5:00:00 PM 13.15 55.67 0.237 8.06 4.95 11
4/14/2021 5:15:00 PM 13.22 55.796 0.237 8.05 5.4 10.92
4/14/2021 5:30:00 PM 13.23 55.814 0.237 8.05 5.34 10.86
4/14/2021 5:45:00 PM 13.21 55.778 0.237 8.03 5.93 10.71
4/14/2021 6:00:00 PM 13.17 55.706 0.237 8.01 6.53 10.55
4/14/2021 6:15:00 PM 13.17 55.706 0.236 8 6.49 10.44
4/14/2021 6:30:00 PM 13.19 55.742 0.237 7.99 6.04 10.4
4/14/2021 6:45:00 PM 13.19 55.742 0.237 7.98 6.48 10.29
4/14/2021 7:00:00 PM 13.17 55.706 0.237 7.96 6.88 10.16
4/14/2021 7:15:00 PM 13.15 55.67 0.236 7.95 7.86 10
4/14/2021 7:30:00 PM 13.14 55.652 0.236 7.94 8.8 9.87
4/14/2021 7:45:00 PM 13.11 55.598 0.237 7.92 11.29 9.74
4/14/2021 8:00:00 PM 13.09 55.562 0.236 7.91 9.73 9.61
4/14/2021 8:15:00 PM 13.04 55.472 0.237 7.89 9.16 9.51
4/14/2021 8:30:00 PM 13.01 55.418 0.236 7.88 8.36 9.42
4/14/2021 8:45:00 PM 12.98 55.364 0.237 7.87 7.8 9.35
4/14/2021 9:00:00 PM 12.95 55.31 0.237 7.87 7.7 9.27
4/14/2021 9:15:00 PM 12.92 55.256 0.237 7.86 6.58 9.2
4/14/2021 9:30:00 PM 12.9 55.22 0.237 7.85 5.76 9.14
4/14/2021 9:45:00 PM 12.88 55.184 0.236 7.85 5.6 9.1
4/14/2021 10:00:00 PM 12.84 55.112 0.236 7.84 4.82 9.05
4/14/2021 10:15:00 PM 12.79 55.022 0.235 7.83 5.08 9
4/14/2021 10:30:00 PM 12.73 54.914 0.235 7.83 5.04 8.96
4/14/2021 10:45:00 PM 12.65 54.77 0.235 7.82 5.02 8.94
4/14/2021 11:00:00 PM 12.56 54.608 0.235 7.82 4.79 8.93
4/14/2021 11:15:00 PM 12.48 54.464 0.235 7.81 4.87 8.9
4/14/2021 11:30:00 PM 12.41 54.338 0.236 7.81 5.12 8.9
4/14/2021 11:45:00 PM 12.33 54.194 0.236 7.81 4.86 8.88
4/15/2021 12:00:00 AM 12.26 54.068 0.236 7.81 4.91 8.89
4/15/2021 12:15:00 AM 12.2 53.96 0.237 7.8 4.86 8.88
4/15/2021 12:30:00 AM 12.14 53.852 0.237 7.8 4.62 8.89
4/15/2021 12:45:00 AM 12.07 53.726 0.238 7.8 4.6 8.88
4/15/2021 1:00:00 AM 12.01 53.618 0.238 7.8 5.01 8.89
4/15/2021 1:15:00 AM 11.95 53.51 0.238 7.8 4.94 8.88
4/15/2021 1:30:00 AM 11.89 53.402 0.238 7.8 4.53 8.89
4/15/2021 1:45:00 AM 11.82 53.276 0.239 7.8 4.26 8.9
4/15/2021 2:00:00 AM 11.75 53.15 0.239 7.8 4.48 8.91
4/15/2021 2:15:00 AM 11.68 53.024 0.239 7.8 4.28 8.93
4/15/2021 2:30:00 AM 11.61 52.898 0.24 7.8 4.38 8.94
4/15/2021 2:45:00 AM 11.54 52.772 0.241 7.8 4.51 8.95
4/15/2021 3:00:00 AM 11.47 52.646 0.241 7.8 4.74 8.96
4/15/2021 3:15:00 AM 11.4 52.52 0.242 7.8 4.52 8.97
4/15/2021 3:30:00 AM 11.33 52.394 0.242 7.79 4.53 8.98
4/15/2021 3:45:00 AM 11.27 52.286 0.242 7.8 4.44 9.01
4/15/2021 4:00:00 AM 11.2 52.16 0.242 7.8 4.71 9.01
4/15/2021 4:15:00 AM 11.13 52.034 0.242 7.8 4.32 9.03
4/15/2021 4:30:00 AM 11.06 51.908 0.242 7.8 4.87 9.04
4/15/2021 4:45:00 AM 10.99 51.782 0.243 7.8 4.34 9.04
4/15/2021 5:00:00 AM 10.92 51.656 0.243 7.8 4.7 9.06
4/15/2021 5:15:00 AM 10.85 51.53 0.243 7.8 4.56 9.07
4/15/2021 5:30:00 AM 10.79 51.422 0.244 7.8 5.02 9.09
4/15/2021 5:45:00 AM 10.72 51.296 0.244 7.8 4.19 9.09
4/15/2021 6:00:00 AM 10.65 51.17 0.244 7.8 4.56 9.11
4/15/2021 6:15:00 AM 10.58 51.044 0.245 7.8 4.63 9.08
4/15/2021 6:30:00 AM 10.52 50.936 0.245 7.8 5.53 9.11
4/15/2021 6:45:00 AM 10.46 50.828 0.245 7.8 4.78 9.14
4/15/2021 7:00:00 AM 10.41 50.738 0.245 7.8 4.19 9.18
4/15/2021 7:15:00 AM 10.36 50.648 0.245 7.8 4.38 9.21
4/15/2021 7:30:00 AM 10.32 50.576 0.245 7.8 4.12 9.26
4/15/2021 7:45:00 AM 10.28 50.504 0.245 7.81 4.18 9.27
4/15/2021 8:00:00 AM 10.24 50.432 0.245 7.81 4.63 9.33
4/15/2021 8:15:00 AM 10.2 50.36 0.245 7.82 4.08 9.39
4/15/2021 8:30:00 AM 10.17 50.306 0.245 7.82 3.68 9.48
4/15/2021 8:45:00 AM 10.15 50.27 0.245 7.83 3.85 9.55
4/15/2021 9:00:00 AM 10.15 50.27 0.245 7.84 4.03 9.7
4/15/2021 9:15:00 AM 10.14 50.252 0.245 7.85 3.52 9.8
4/15/2021 9:30:00 AM 10.15 50.27 0.245 7.86 3.89 9.95
4/15/2021 9:45:00 AM 10.17 50.306 0.245 7.87 4.01 10.1
4/15/2021 10:00:00 AM 10.15 50.27 0.244 7.88 3.91 10.19
4/15/2021 10:15:00 AM 10.14 50.252 0.245 7.89 4.19 10.26
4/15/2021 10:30:00 AM 10.13 50.234 0.245 7.9 3.83 10.34
4/15/2021 10:45:00 AM 10.12 50.216 0.245 7.91 3.95 10.47
4/15/2021 11:00:00 AM 10.1 50.18 0.245 7.92 3.61 10.53
4/15/2021 11:15:00 AM 10.07 50.126 0.245 7.93 3.61 10.52
4/15/2021 11:30:00 AM 10.07 50.126 0.244 7.94 3.96 10.62
4/15/2021 11:45:00 AM 10.09 50.162 0.245 7.95 3.8 10.7
4/15/2021 12:00:00 PM 10.09 50.162 0.245 7.96 3.72 10.76
4/15/2021 12:15:00 PM 10.11 50.198 0.245 7.97 3.79 10.84
4/15/2021 12:30:00 PM 10.1 50.18 0.245 7.97 3.63 10.85
4/15/2021 12:45:00 PM 10.11 50.198 0.245 7.98 3.69 10.92
4/15/2021 1:00:00 PM 10.11 50.198 0.245 8 3.58 11.01
4/15/2021 1:15:00 PM 10.1 50.18 0.245 8 3.52 11.03
4/15/2021 1:30:00 PM 10.11 50.198 0.244 8.01 3.68 11.09
4/15/2021 1:45:00 PM 10.13 50.234 0.244 8.02 3.59 11.17
4/15/2021 2:00:00 PM 10.23 50.414 0.244 8.04 3.56 11.28
4/15/2021 2:15:00 PM 10.22 50.396 0.245 8.04 3.46 11.25
4/15/2021 2:30:00 PM 10.2 50.36 0.245 8.05 3.66 11.27
4/15/2021 2:45:00 PM 10.2 50.36 0.245 8.04 3.55 11.23
4/15/2021 3:00:00 PM 10.19 50.342 0.245 8.04 3.41 11.18
4/15/2021 3:15:00 PM 10.17 50.306 0.246 8.04 3.8 11.13
4/15/2021 3:30:00 PM 10.15 50.27 0.246 8.03 3.51 11.07
4/15/2021 3:45:00 PM 10.11 50.198 0.246 8.03 3.56 11.02
4/15/2021 4:00:00 PM 10.1 50.18 0.246 8.03 3.74 10.99
4/15/2021 4:15:00 PM 10.12 50.216 0.246 8.03 3.66 11.03
4/15/2021 4:30:00 PM 10.14 50.252 0.246 8.04 3.83 11.07
4/15/2021 4:45:00 PM 10.15 50.27 0.245 8.05 3.65 11.02
4/15/2021 5:00:00 PM 10.14 50.252 0.245 8.05 3.42 11.07
4/15/2021 5:15:00 PM 10.13 50.234 0.245 8.05 3.57 11.08
4/15/2021 5:30:00 PM 10.1 50.18 0.245 8.04 3.5 11.04
4/15/2021 5:45:00 PM 10.05 50.09 0.245 8.04 3.83 10.98
4/15/2021 6:00:00 PM 10.01 50.018 0.245 8.03 3.38 10.9
4/15/2021 6:15:00 PM 9.97 49.946 0.244 8.02 3.56 10.85
4/15/2021 6:30:00 PM 9.91 49.838 0.244 8.02 3.55 10.82
4/15/2021 6:45:00 PM 9.87 49.766 0.245 8.01 4.03 10.74
4/15/2021 7:00:00 PM 9.82 49.676 0.245 7.99 3.88 10.68
4/15/2021 7:15:00 PM 9.79 49.622 0.245 7.99 3.9 10.58
4/15/2021 7:30:00 PM 9.75 49.55 0.244 7.98 3.96 10.53
4/15/2021 7:45:00 PM 9.72 49.496 0.245 7.97 3.76 10.43
4/15/2021 8:00:00 PM 9.68 49.424 0.245 7.96 3.65 10.34
4/15/2021 8:15:00 PM 9.63 49.334 0.245 7.95 4 10.28
4/15/2021 8:30:00 PM 9.59 49.262 0.245 7.94 4.55 10.23
4/15/2021 8:45:00 PM 9.55 49.19 0.244 7.93 6.32 10.12
4/15/2021 9:00:00 PM 9.51 49.118 0.244 7.92 9.7 10.05
4/15/2021 9:15:00 PM 9.46 49.028 0.244 7.91 14.35 9.98
4/15/2021 9:30:00 PM 9.41 48.938 0.244 7.9 18.61 9.91
4/15/2021 9:45:00 PM 9.36 48.848 0.243 7.89 17.99 9.89
4/15/2021 10:00:00 PM 9.31 48.758 0.243 7.89 19.55 9.85
4/15/2021 10:15:00 PM 9.26 48.668 0.242 7.88 17.2 9.82
4/15/2021 10:30:00 PM 9.21 48.578 0.242 7.88 15.22 9.82
4/15/2021 10:45:00 PM 9.16 48.488 0.242 7.87 13.08 9.78
4/15/2021 11:00:00 PM 9.11 48.398 0.24 7.87 10.1 9.8
4/15/2021 11:15:00 PM 9.06 48.308 0.24 7.86 9.39 9.8
4/15/2021 11:30:00 PM 9.01 48.218 0.24 7.86 8.63 9.79
4/15/2021 11:45:00 PM 8.97 48.146 0.239 7.86 7.06 9.78
4/16/2021 12:00:00 AM 8.92 48.056 0.239 7.85 6.58 9.78
4/16/2021 12:15:00 AM 8.86 47.948 0.238 7.85 6.27 9.77
4/16/2021 12:30:00 AM 8.82 47.876 0.238 7.85 5.56 9.77
4/16/2021 12:45:00 AM 8.77 47.786 0.238 7.85 5.53 9.77
4/16/2021 1:00:00 AM 8.73 47.714 0.237 7.85 5.43 9.78
4/16/2021 1:15:00 AM 8.68 47.624 0.237 7.85 5.23 9.78
4/16/2021 1:30:00 AM 8.64 47.552 0.237 7.85 4.52 9.79
4/16/2021 1:45:00 AM 8.6 47.48 0.237 7.84 4.68 9.78
4/16/2021 2:00:00 AM 8.56 47.408 0.237 7.84 4.95 9.81
4/16/2021 2:15:00 AM 8.51 47.318 0.237 7.84 4.53 9.81
4/16/2021 2:30:00 AM 8.47 47.246 0.238 7.84 4.9 9.83
4/16/2021 2:45:00 AM 8.44 47.192 0.237 7.84 4.53 9.83
4/16/2021 3:00:00 AM 8.4 47.12 0.238 7.84 4.33 9.83
4/16/2021 3:15:00 AM 8.36 47.048 0.239 7.84 4.21 9.86
4/16/2021 3:30:00 AM 8.33 46.994 0.239 7.84 4.49 9.85
4/16/2021 3:45:00 AM 8.29 46.922 0.239 7.84 4.56 9.85
4/16/2021 4:00:00 AM 8.25 46.85 0.24 7.84 4.77 9.87
4/16/2021 4:15:00 AM 8.21 46.778 0.24 7.84 4.56 9.88
4/16/2021 4:30:00 AM 8.18 46.724 0.24 7.84 4.36 9.86
4/16/2021 4:45:00 AM 8.14 46.652 0.24 7.84 4.45 9.89
4/16/2021 5:00:00 AM 8.1 46.58 0.24 7.84 4.3 9.89
4/16/2021 5:15:00 AM 8.06 46.508 0.24 7.84 4.12 9.89
4/16/2021 5:30:00 AM 8.03 46.454 0.24 7.84 4.39 9.91
4/16/2021 5:45:00 AM 7.99 46.382 0.24 7.84 4.3 9.91
4/16/2021 6:00:00 AM 7.96 46.328 0.24 7.84 4.21 9.93
4/16/2021 6:15:00 AM 7.92 46.256 0.239 7.84 4.89 9.95
4/16/2021 6:30:00 AM 7.88 46.184 0.239 7.84 4.31 9.94
4/16/2021 6:45:00 AM 7.85 46.13 0.24 7.84 4.68 9.97
4/16/2021 7:00:00 AM 7.81 46.058 0.24 7.84 5.18 9.96
4/16/2021 7:15:00 AM 7.78 46.004 0.24 7.84 4.07 10
4/16/2021 7:30:00 AM 7.75 45.95 0.241 7.84 4.13 10.03
4/16/2021 7:45:00 AM 7.7 45.86 0.241 7.85 4.49 10.08
4/16/2021 8:00:00 AM 7.64 45.752 0.241 7.85 3.99 10.14
4/16/2021 8:15:00 AM 7.6 45.68 0.241 7.85 4.02 10.19
4/16/2021 8:30:00 AM 7.57 45.626 0.241 7.86 3.92 10.25
4/16/2021 8:45:00 AM 7.54 45.572 0.241 7.86 3.57 10.36
4/16/2021 9:00:00 AM 7.53 45.554 0.241 7.87 3.54 10.42
4/16/2021 9:15:00 AM 7.52 45.536 0.241 7.88 3.55 10.53
4/16/2021 9:30:00 AM 7.52 45.536 0.241 7.89 3.69 10.65
4/16/2021 9:45:00 AM 7.53 45.554 0.241 7.9 3.5 10.78
4/16/2021 10:00:00 AM 7.57 45.626 0.242 7.91 3.6 10.89
4/16/2021 10:15:00 AM 7.61 45.698 0.242 7.93 3.63 10.99
4/16/2021 10:30:00 AM 7.64 45.752 0.242 7.94 3.77 11.13
4/16/2021 10:45:00 AM 7.67 45.806 0.241 7.95 4.03 11